PWSweather.com
Personal Weather Stations
Station Observations

Enon Chester, VA 23836

Lat: 37.3609267, Lon: -77.31545840000001

Elevation: 89

Station Type: Acurite

http://www.wunderground.com/personal-weather-station/dashboard?ID=KVACHEST67

High Low Average
Temperature 39.7°F4.3°C 24.3°F-4.3°C 33.4°F0.8°C
Dew Point 35.5°F1.9°C 9.5°F-12.5°C 23.1°F-4.9°C
Winds 21.7 mph 34.9 kmh Calm Calm 6.0 mph SW9.7 kmh SW
Wind Gusts 21.7 mph34.9 kmh -- 10.0 mph16.1 kmh
Humidity 99% 37% 70%
Pressure 30.36 in1028.1 mb 30.00 in1015.9 mb -
Precipitation 0.12 in3.0 mm - -
Hour Temp Dew Point Humidity Winds Wind Gusts Pressure Precip Precip Rate Daily Precip Total
12:00 AM 35.8°F2.1°C 35.5°F1.9°C 99% 2.2 mph W3.5 kmh W 3.2 mph5.1 kmh 30.03 in1016.9 mb 0.00 in0.0 mm 0.00 in0.0 mm 0.00 in0.0 mm
12:01 AM 35.8°F2.1°C 35.5°F1.9°C 99% 2.2 mph W3.5 kmh W 3.2 mph5.1 kmh 30.03 in1016.9 mb 0.00 in0.0 mm 0.00 in0.0 mm 0.00 in0.0 mm
12:02 AM 35.8°F2.1°C 35.5°F1.9°C 99% 1.7 mph W2.7 kmh W 3.2 mph5.1 kmh 30.03 in1016.9 mb 0.00 in0.0 mm 0.00 in0.0 mm 0.00 in0.0 mm
12:03 AM 35.6°F2.0°C 35.3°F1.8°C 99% 2.2 mph W3.5 kmh W 3.2 mph5.1 kmh 30.03 in1016.9 mb 0.00 in0.0 mm 0.00 in0.0 mm 0.00 in0.0 mm
12:04 AM 35.6°F2.0°C 35.3°F1.8°C 99% 1.1 mph W1.8 kmh W 3.2 mph5.1 kmh 30.03 in1016.9 mb 0.00 in0.0 mm 0.00 in0.0 mm 0.00 in0.0 mm
12:05 AM 35.6°F2.0°C 35.3°F1.8°C 99% 2.2 mph W3.5 kmh W 3.2 mph5.1 kmh 30.02 in1016.6 mb 0.00 in0.0 mm 0.00 in0.0 mm 0.00 in0.0 mm
12:06 AM 35.6°F2.0°C 35.3°F1.8°C 99% 1.7 mph WSW2.7 kmh WSW 3.2 mph5.1 kmh 30.02 in1016.6 mb 0.00 in0.0 mm 0.00 in0.0 mm 0.00 in0.0 mm
12:07 AM 35.4°F1.9°C 35.1°F1.7°C 99% 1.7 mph W2.7 kmh W 2.2 mph3.5 kmh 30.02 in1016.6 mb 0.00 in0.0 mm 0.00 in0.0 mm 0.00 in0.0 mm
12:08 AM 35.4°F1.9°C 35.1°F1.7°C 99% Calm Calm 2.2 mph3.5 kmh 30.02 in1016.6 mb 0.00 in0.0 mm 0.00 in0.0 mm 0.00 in0.0 mm
12:09 AM 35.4°F1.9°C 35.1°F1.7°C 99% Calm Calm 2.2 mph3.5 kmh 30.02 in1016.6 mb 0.00 in0.0 mm 0.00 in0.0 mm 0.00 in0.0 mm
12:10 AM 35.2°F1.8°C 34.9°F1.6°C 99% 1.1 mph W1.8 kmh W 2.2 mph3.5 kmh 30.02 in1016.6 mb 0.00 in0.0 mm 0.00 in0.0 mm 0.00 in0.0 mm
12:11 AM 35.2°F1.8°C 34.9°F1.6°C 99% 1.7 mph W2.7 kmh W 2.2 mph3.5 kmh 30.02 in1016.6 mb 0.00 in0.0 mm 0.00 in0.0 mm 0.00 in0.0 mm
12:12 AM 35.2°F1.8°C 34.9°F1.6°C 99% Calm Calm 2.2 mph3.5 kmh 30.02 in1016.6 mb 0.00 in0.0 mm 0.00 in0.0 mm 0.00 in0.0 mm
12:13 AM 35.1°F1.7°C 34.8°F1.6°C 99% 1.7 mph W2.7 kmh W 2.2 mph3.5 kmh 30.02 in1016.6 mb 0.00 in0.0 mm 0.00 in0.0 mm 0.00 in0.0 mm
12:14 AM 35.1°F1.7°C 34.8°F1.6°C 99% 1.1 mph W1.8 kmh W 2.2 mph3.5 kmh 30.02 in1016.6 mb 0.00 in0.0 mm 0.00 in0.0 mm 0.00 in0.0 mm
12:15 AM 35.1°F1.7°C 34.8°F1.6°C 99% 1.1 mph WNW1.8 kmh WNW 2.2 mph3.5 kmh 30.02 in1016.6 mb 0.00 in0.0 mm 0.00 in0.0 mm 0.00 in0.0 mm
12:16 AM 35.1°F1.7°C 34.8°F1.6°C 99% Calm Calm 1.7 mph2.7 kmh 30.02 in1016.6 mb 0.00 in0.0 mm 0.00 in0.0 mm 0.00 in0.0 mm
12:17 AM 35.1°F1.7°C 34.8°F1.6°C 99% Calm Calm 1.7 mph2.7 kmh 30.02 in1016.6 mb 0.00 in0.0 mm 0.00 in0.0 mm 0.00 in0.0 mm
12:18 AM 34.9°F1.6°C 34.6°F1.4°C 99% Calm Calm 1.7 mph2.7 kmh 30.02 in1016.6 mb 0.00 in0.0 mm 0.00 in0.0 mm 0.00 in0.0 mm
12:19 AM 34.9°F1.6°C 34.6°F1.4°C 99% Calm Calm 1.7 mph2.7 kmh 30.02 in1016.6 mb 0.00 in0.0 mm 0.00 in0.0 mm 0.00 in0.0 mm
12:20 AM 34.9°F1.6°C 34.6°F1.4°C 99% Calm Calm 1.7 mph2.7 kmh 30.02 in1016.6 mb 0.00 in0.0 mm 0.00 in0.0 mm 0.00 in0.0 mm
12:21 AM 34.7°F1.5°C 34.4°F1.3°C 99% Calm Calm 1.7 mph2.7 kmh 30.02 in1016.6 mb 0.00 in0.0 mm 0.00 in0.0 mm 0.00 in0.0 mm
12:22 AM 34.7°F1.5°C 34.4°F1.3°C 99% Calm Calm 1.7 mph2.7 kmh 30.02 in1016.6 mb 0.00 in0.0 mm 0.00 in0.0 mm 0.00 in0.0 mm
12:23 AM 34.5°F1.4°C 34.2°F1.2°C 99% Calm Calm 1.7 mph2.7 kmh 30.02 in1016.6 mb 0.00 in0.0 mm 0.00 in0.0 mm 0.00 in0.0 mm
12:24 AM 34.5°F1.4°C 34.2°F1.2°C 99% Calm Calm 1.7 mph2.7 kmh 30.02 in1016.6 mb 0.00 in0.0 mm 0.00 in0.0 mm 0.00 in0.0 mm
12:25 AM 34.3°F1.3°C 34.0°F1.1°C 99% Calm Calm 1.1 mph1.8 kmh 30.02 in1016.6 mb 0.00 in0.0 mm 0.00 in0.0 mm 0.00 in0.0 mm
12:26 AM 34.3°F1.3°C 34.0°F1.1°C 99% Calm Calm -- 30.02 in1016.6 mb 0.00 in0.0 mm 0.00 in0.0 mm 0.00 in0.0 mm
12:27 AM 34.2°F1.2°C 33.9°F1.1°C 99% Calm Calm -- 30.02 in1016.6 mb 0.00 in0.0 mm 0.00 in0.0 mm 0.00 in0.0 mm
12:28 AM 34.2°F1.2°C 33.9°F1.1°C 99% Calm Calm -- 30.02 in1016.6 mb 0.00 in0.0 mm 0.00 in0.0 mm 0.00 in0.0 mm
12:29 AM 34.2°F1.2°C 33.9°F1.1°C 99% Calm Calm -- 30.02 in1016.6 mb 0.00 in0.0 mm 0.00 in0.0 mm 0.00 in0.0 mm
12:30 AM 34.0°F1.1°C 33.7°F0.9°C 99% 1.7 mph W2.7 kmh W 1.7 mph2.7 kmh 30.02 in1016.6 mb 0.00 in0.0 mm 0.00 in0.0 mm 0.00 in0.0 mm
12:31 AM 33.8°F1.0°C 33.5°F0.8°C 99% 1.7 mph W2.7 kmh W 1.7 mph2.7 kmh 30.02 in1016.6 mb 0.00 in0.0 mm 0.00 in0.0 mm 0.00 in0.0 mm
12:32 AM 33.8°F1.0°C 33.5°F0.8°C 99% 1.7 mph W2.7 kmh W 1.7 mph2.7 kmh 30.02 in1016.6 mb 0.00 in0.0 mm 0.00 in0.0 mm 0.00 in0.0 mm
12:33 AM 33.8°F1.0°C 33.5°F0.8°C 99% 1.7 mph W2.7 kmh W 1.7 mph2.7 kmh 30.02 in1016.6 mb 0.00 in0.0 mm 0.00 in0.0 mm 0.00 in0.0 mm
12:34 AM 33.8°F1.0°C 33.5°F0.8°C 99% 1.7 mph W2.7 kmh W 1.7 mph2.7 kmh 30.02 in1016.6 mb 0.00 in0.0 mm 0.00 in0.0 mm 0.00 in0.0 mm
12:35 AM 33.6°F0.9°C 33.3°F0.7°C 99% 1.1 mph SW1.8 kmh SW 1.7 mph2.7 kmh 30.02 in1016.6 mb 0.00 in0.0 mm 0.00 in0.0 mm 0.00 in0.0 mm
12:36 AM 33.6°F0.9°C 33.3°F0.7°C 99% 1.1 mph SW1.8 kmh SW 1.7 mph2.7 kmh 30.02 in1016.6 mb 0.00 in0.0 mm 0.00 in0.0 mm 0.00 in0.0 mm
12:37 AM 33.6°F0.9°C 33.3°F0.7°C 99% Calm Calm 1.7 mph2.7 kmh 30.02 in1016.6 mb 0.00 in0.0 mm 0.00 in0.0 mm 0.00 in0.0 mm
12:38 AM 33.6°F0.9°C 33.3°F0.7°C 99% Calm Calm 1.7 mph2.7 kmh 30.02 in1016.6 mb 0.00 in0.0 mm 0.00 in0.0 mm 0.00 in0.0 mm
12:39 AM 33.6°F0.9°C 33.3°F0.7°C 99% Calm Calm 1.7 mph2.7 kmh 30.02 in1016.6 mb 0.00 in0.0 mm 0.00 in0.0 mm 0.00 in0.0 mm
12:40 AM 33.6°F0.9°C 33.3°F0.7°C 99% Calm Calm 1.7 mph2.7 kmh 30.02 in1016.6 mb 0.00 in0.0 mm 0.00 in0.0 mm 0.00 in0.0 mm
12:41 AM 33.4°F0.8°C 33.1°F0.6°C 99% Calm Calm 1.7 mph2.7 kmh 30.01 in1016.3 mb 0.00 in0.0 mm 0.00 in0.0 mm 0.00 in0.0 mm
12:42 AM 33.4°F0.8°C 33.1°F0.6°C 99% Calm Calm 1.7 mph2.7 kmh 30.01 in1016.3 mb 0.00 in0.0 mm 0.00 in0.0 mm 0.00 in0.0 mm
12:43 AM 33.3°F0.7°C 33.0°F0.6°C 99% Calm Calm 1.7 mph2.7 kmh 30.01 in1016.3 mb 0.00 in0.0 mm 0.00 in0.0 mm 0.00 in0.0 mm
12:44 AM 33.3°F0.7°C 33.0°F0.6°C 99% Calm Calm 1.7 mph2.7 kmh 30.01 in1016.3 mb 0.00 in0.0 mm 0.00 in0.0 mm 0.00 in0.0 mm
12:45 AM 33.3°F0.7°C 33.0°F0.6°C 99% Calm Calm 1.1 mph1.8 kmh 30.01 in1016.3 mb 0.00 in0.0 mm 0.00 in0.0 mm 0.00 in0.0 mm
12:46 AM 33.3°F0.7°C 33.0°F0.6°C 99% Calm Calm -- 30.01 in1016.3 mb 0.00 in0.0 mm 0.00 in0.0 mm 0.00 in0.0 mm
12:47 AM 33.3°F0.7°C 33.0°F0.6°C 99% Calm Calm -- 30.01 in1016.3 mb 0.00 in0.0 mm 0.00 in0.0 mm 0.00 in0.0 mm
12:48 AM 33.1°F0.6°C 32.8°F0.4°C 99% Calm Calm -- 30.01 in1016.3 mb 0.00 in0.0 mm 0.00 in0.0 mm 0.00 in0.0 mm
12:49 AM 33.1°F0.6°C 32.8°F0.4°C 99% Calm Calm -- 30.01 in1016.3 mb 0.00 in0.0 mm 0.00 in0.0 mm 0.00 in0.0 mm
12:50 AM 33.1°F0.6°C 32.8°F0.4°C 99% Calm Calm -- 30.01 in1016.3 mb 0.00 in0.0 mm 0.00 in0.0 mm 0.00 in0.0 mm
12:51 AM 33.1°F0.6°C 32.8°F0.4°C 99% Calm Calm -- 30.01 in1016.3 mb 0.00 in0.0 mm 0.00 in0.0 mm 0.00 in0.0 mm
12:52 AM 33.1°F0.6°C 32.8°F0.4°C 99% Calm Calm -- 30.01 in1016.3 mb 0.00 in0.0 mm 0.00 in0.0 mm 0.00 in0.0 mm
12:53 AM 32.9°F0.5°C 32.7°F0.4°C 99% Calm Calm -- 30.01 in1016.3 mb 0.00 in0.0 mm 0.00 in0.0 mm 0.00 in0.0 mm
12:54 AM 32.7°F0.4°C 32.5°F0.3°C 99% Calm Calm -- 30.01 in1016.3 mb 0.00 in0.0 mm 0.00 in0.0 mm 0.00 in0.0 mm
12:55 AM 32.7°F0.4°C 32.5°F0.3°C 99% Calm Calm -- 30.01 in1016.3 mb 0.00 in0.0 mm 0.00 in0.0 mm 0.00 in0.0 mm
12:56 AM 32.7°F0.4°C 32.5°F0.3°C 99% Calm Calm -- 30.01 in1016.3 mb 0.00 in0.0 mm 0.00 in0.0 mm 0.00 in0.0 mm
12:57 AM 32.5°F0.3°C 32.3°F0.2°C 99% Calm Calm 1.1 mph1.8 kmh 30.01 in1016.3 mb 0.00 in0.0 mm 0.00 in0.0 mm 0.00 in0.0 mm
12:58 AM 32.4°F0.2°C 32.2°F0.1°C 99% Calm Calm 1.1 mph1.8 kmh 30.01 in1016.3 mb 0.00 in0.0 mm 0.00 in0.0 mm 0.00 in0.0 mm
12:59 AM 32.5°F0.3°C 32.3°F0.2°C 99% 1.1 mph SW1.8 kmh SW 1.1 mph1.8 kmh 30.01 in1016.3 mb 0.00 in0.0 mm 0.00 in0.0 mm 0.00 in0.0 mm
01:00 AM 32.5°F0.3°C 32.3°F0.2°C 99% Calm Calm 1.1 mph1.8 kmh 30.01 in1016.3 mb 0.00 in0.0 mm 0.00 in0.0 mm 0.00 in0.0 mm
01:01 AM 32.4°F0.2°C 32.2°F0.1°C 99% Calm Calm 1.1 mph1.8 kmh 30.01 in1016.3 mb 0.00 in0.0 mm 0.00 in0.0 mm 0.00 in0.0 mm
01:02 AM 32.2°F0.1°C 32.0°F0.0°C 99% 1.1 mph SW1.8 kmh SW 1.1 mph1.8 kmh 30.01 in1016.3 mb 0.00 in0.0 mm 0.00 in0.0 mm 0.00 in0.0 mm
01:03 AM 32.2°F0.1°C 32.0°F0.0°C 99% Calm Calm 1.1 mph1.8 kmh 30.01 in1016.3 mb 0.00 in0.0 mm 0.00 in0.0 mm 0.00 in0.0 mm
01:04 AM 32.2°F0.1°C 32.0°F0.0°C 99% Calm Calm 1.1 mph1.8 kmh 30.01 in1016.3 mb 0.00 in0.0 mm 0.00 in0.0 mm 0.00 in0.0 mm
01:05 AM 32.0°F0.0°C 31.8°F-0.1°C 99% Calm Calm 1.1 mph1.8 kmh 30.01 in1016.3 mb 0.00 in0.0 mm 0.00 in0.0 mm 0.00 in0.0 mm
01:06 AM 32.2°F0.1°C 32.0°F0.0°C 99% Calm Calm 1.1 mph1.8 kmh 30.01 in1016.3 mb 0.00 in0.0 mm 0.00 in0.0 mm 0.00 in0.0 mm
01:07 AM 32.2°F0.1°C 32.0°F0.0°C 99% Calm Calm 1.1 mph1.8 kmh 30.01 in1016.3 mb 0.00 in0.0 mm 0.00 in0.0 mm 0.00 in0.0 mm
01:08 AM 32.2°F0.1°C 32.0°F0.0°C 99% Calm Calm 1.1 mph1.8 kmh 30.01 in1016.3 mb 0.00 in0.0 mm 0.00 in0.0 mm 0.00 in0.0 mm
01:09 AM 32.2°F0.1°C 32.0°F0.0°C 99% 1.1 mph SSW1.8 kmh SSW 1.1 mph1.8 kmh 30.01 in1016.3 mb 0.00 in0.0 mm 0.00 in0.0 mm 0.00 in0.0 mm
01:10 AM 32.2°F0.1°C 32.0°F0.0°C 99% Calm Calm 1.1 mph1.8 kmh 30.01 in1016.3 mb 0.00 in0.0 mm 0.00 in0.0 mm 0.00 in0.0 mm
01:11 AM 32.2°F0.1°C 32.0°F0.0°C 99% 1.1 mph WSW1.8 kmh WSW 1.1 mph1.8 kmh 30.01 in1016.3 mb 0.00 in0.0 mm 0.00 in0.0 mm 0.00 in0.0 mm
01:12 AM 32.0°F0.0°C 31.8°F-0.1°C 99% Calm Calm 1.1 mph1.8 kmh 30.01 in1016.3 mb 0.00 in0.0 mm 0.00 in0.0 mm 0.00 in0.0 mm
01:13 AM 32.0°F0.0°C 31.8°F-0.1°C 99% 1.1 mph WSW1.8 kmh WSW 1.1 mph1.8 kmh 30.01 in1016.3 mb 0.00 in0.0 mm 0.00 in0.0 mm 0.00 in0.0 mm
01:14 AM 32.0°F0.0°C 31.8°F-0.1°C 99% Calm Calm 1.1 mph1.8 kmh 30.01 in1016.3 mb 0.00 in0.0 mm 0.00 in0.0 mm 0.00 in0.0 mm
01:15 AM 32.0°F0.0°C 31.8°F-0.1°C 99% 1.1 mph WSW1.8 kmh WSW 1.7 mph2.7 kmh 30.01 in1016.3 mb 0.00 in0.0 mm 0.00 in0.0 mm 0.00 in0.0 mm
01:16 AM 32.0°F0.0°C 31.8°F-0.1°C 99% Calm Calm 1.7 mph2.7 kmh 30.01 in1016.3 mb 0.00 in0.0 mm 0.00 in0.0 mm 0.00 in0.0 mm
01:17 AM 32.0°F0.0°C 31.8°F-0.1°C 99% 1.1 mph SW1.8 kmh SW 1.7 mph2.7 kmh 30.01 in1016.3 mb 0.00 in0.0 mm 0.00 in0.0 mm 0.00 in0.0 mm
01:18 AM 31.8°F-0.1°C 31.6°F-0.2°C 99% 1.1 mph WSW1.8 kmh WSW 1.7 mph2.7 kmh 30.01 in1016.3 mb 0.00 in0.0 mm 0.00 in0.0 mm 0.00 in0.0 mm
01:19 AM 31.8°F-0.1°C 31.6°F-0.2°C 99% 1.1 mph S1.8 kmh S 1.7 mph2.7 kmh 30.01 in1016.3 mb 0.00 in0.0 mm 0.00 in0.0 mm 0.00 in0.0 mm
01:20 AM 32.0°F0.0°C 31.8°F-0.1°C 99% 1.7 mph W2.7 kmh W 2.7 mph4.3 kmh 30.01 in1016.3 mb 0.00 in0.0 mm 0.00 in0.0 mm 0.00 in0.0 mm
01:21 AM 32.0°F0.0°C 31.8°F-0.1°C 99% 1.1 mph W1.8 kmh W 2.7 mph4.3 kmh 30.01 in1016.3 mb 0.00 in0.0 mm 0.00 in0.0 mm 0.00 in0.0 mm
01:22 AM 32.0°F0.0°C 31.8°F-0.1°C 99% 1.1 mph SSE1.8 kmh SSE 2.7 mph4.3 kmh 30.01 in1016.3 mb 0.00 in0.0 mm 0.00 in0.0 mm 0.00 in0.0 mm
01:23 AM 32.0°F0.0°C 31.8°F-0.1°C 99% Calm Calm 2.7 mph4.3 kmh 30.01 in1016.3 mb 0.00 in0.0 mm 0.00 in0.0 mm 0.00 in0.0 mm
01:24 AM 31.6°F-0.2°C 31.4°F-0.3°C 99% Calm Calm 2.7 mph4.3 kmh 30.01 in1016.3 mb 0.00 in0.0 mm 0.00 in0.0 mm 0.00 in0.0 mm
01:25 AM 31.6°F-0.2°C 31.4°F-0.3°C 99% Calm Calm 2.7 mph4.3 kmh 30.01 in1016.3 mb 0.00 in0.0 mm 0.00 in0.0 mm 0.00 in0.0 mm
01:26 AM 31.5°F-0.3°C 31.3°F-0.4°C 99% 1.1 mph ESE1.8 kmh ESE 2.7 mph4.3 kmh 30.01 in1016.3 mb 0.00 in0.0 mm 0.00 in0.0 mm 0.00 in0.0 mm
01:27 AM 31.5°F-0.3°C 31.3°F-0.4°C 99% 1.1 mph NE1.8 kmh NE 2.7 mph4.3 kmh 30.01 in1016.3 mb 0.00 in0.0 mm 0.00 in0.0 mm 0.00 in0.0 mm
01:28 AM 31.5°F-0.3°C 31.3°F-0.4°C 99% Calm Calm 2.7 mph4.3 kmh 30.01 in1016.3 mb 0.00 in0.0 mm 0.00 in0.0 mm 0.00 in0.0 mm
01:29 AM 31.6°F-0.2°C 31.4°F-0.3°C 99% Calm Calm 2.7 mph4.3 kmh 30.01 in1016.3 mb 0.00 in0.0 mm 0.00 in0.0 mm 0.00 in0.0 mm
01:30 AM 31.6°F-0.2°C 31.4°F-0.3°C 99% Calm Calm 1.7 mph2.7 kmh 30.01 in1016.3 mb 0.00 in0.0 mm 0.00 in0.0 mm 0.00 in0.0 mm
01:31 AM 31.5°F-0.3°C 31.3°F-0.4°C 99% Calm Calm 1.7 mph2.7 kmh 30.01 in1016.3 mb 0.00 in0.0 mm 0.00 in0.0 mm 0.00 in0.0 mm
01:32 AM 31.5°F-0.3°C 31.3°F-0.4°C 99% 2.2 mph W3.5 kmh W 2.2 mph3.5 kmh 30.01 in1016.3 mb 0.00 in0.0 mm 0.00 in0.0 mm 0.00 in0.0 mm
01:33 AM 31.8°F-0.1°C 31.6°F-0.2°C 99% 1.7 mph SW2.7 kmh SW 2.2 mph3.5 kmh 30.01 in1016.3 mb 0.00 in0.0 mm 0.00 in0.0 mm 0.00 in0.0 mm
01:34 AM 31.8°F-0.1°C 31.6°F-0.2°C 99% 2.7 mph SW4.3 kmh SW 2.7 mph4.3 kmh 30.01 in1016.3 mb 0.00 in0.0 mm 0.00 in0.0 mm 0.00 in0.0 mm
01:35 AM 31.8°F-0.1°C 31.6°F-0.2°C 99% 1.1 mph SSW1.8 kmh SSW 2.7 mph4.3 kmh 30.01 in1016.3 mb 0.00 in0.0 mm 0.00 in0.0 mm 0.00 in0.0 mm
01:36 AM 31.6°F-0.2°C 31.4°F-0.3°C 99% Calm Calm 2.7 mph4.3 kmh 30.01 in1016.3 mb 0.00 in0.0 mm 0.00 in0.0 mm 0.00 in0.0 mm
01:37 AM 31.6°F-0.2°C 31.4°F-0.3°C 99% Calm Calm 2.7 mph4.3 kmh 30.01 in1016.3 mb 0.00 in0.0 mm 0.00 in0.0 mm 0.00 in0.0 mm
01:38 AM 31.6°F-0.2°C 31.4°F-0.3°C 99% Calm Calm 2.7 mph4.3 kmh 30.01 in1016.3 mb 0.00 in0.0 mm 0.00 in0.0 mm 0.00 in0.0 mm
01:39 AM 31.5°F-0.3°C 31.3°F-0.4°C 99% Calm Calm 2.7 mph4.3 kmh 30.01 in1016.3 mb 0.00 in0.0 mm 0.00 in0.0 mm 0.00 in0.0 mm
01:40 AM 31.5°F-0.3°C 31.3°F-0.4°C 99% Calm Calm 2.7 mph4.3 kmh 30.01 in1016.3 mb 0.00 in0.0 mm 0.00 in0.0 mm 0.00 in0.0 mm
01:41 AM 31.5°F-0.3°C 31.3°F-0.4°C 99% Calm Calm 2.7 mph4.3 kmh 30.01 in1016.3 mb 0.00 in0.0 mm 0.00 in0.0 mm 0.00 in0.0 mm
01:42 AM 31.6°F-0.2°C 31.4°F-0.3°C 99% Calm Calm 2.7 mph4.3 kmh 30.01 in1016.3 mb 0.00 in0.0 mm 0.00 in0.0 mm 0.00 in0.0 mm
01:43 AM 31.6°F-0.2°C 31.4°F-0.3°C 99% Calm Calm 2.7 mph4.3 kmh 30.01 in1016.3 mb 0.00 in0.0 mm 0.00 in0.0 mm 0.00 in0.0 mm
01:44 AM 31.6°F-0.2°C 31.4°F-0.3°C 99% Calm Calm 1.7 mph2.7 kmh 30.01 in1016.3 mb 0.00 in0.0 mm 0.00 in0.0 mm 0.00 in0.0 mm
01:45 AM 31.6°F-0.2°C 31.4°F-0.3°C 99% Calm Calm 1.7 mph2.7 kmh 30.01 in1016.3 mb 0.00 in0.0 mm 0.00 in0.0 mm 0.00 in0.0 mm
01:46 AM 31.6°F-0.2°C 31.4°F-0.3°C 99% Calm Calm 1.7 mph2.7 kmh 30.01 in1016.3 mb 0.00 in0.0 mm 0.00 in0.0 mm 0.00 in0.0 mm
01:47 AM 31.5°F-0.3°C 31.3°F-0.4°C 99% Calm Calm 1.7 mph2.7 kmh 30.01 in1016.3 mb 0.00 in0.0 mm 0.00 in0.0 mm 0.00 in0.0 mm
01:48 AM 31.5°F-0.3°C 31.3°F-0.4°C 99% Calm Calm 1.7 mph2.7 kmh 30.01 in1016.3 mb 0.00 in0.0 mm 0.00 in0.0 mm 0.00 in0.0 mm
01:49 AM 31.5°F-0.3°C 31.3°F-0.4°C 99% 1.1 mph S1.8 kmh S 1.7 mph2.7 kmh 30.01 in1016.3 mb 0.00 in0.0 mm 0.00 in0.0 mm 0.00 in0.0 mm
01:50 AM 31.5°F-0.3°C 31.3°F-0.4°C 99% 1.1 mph S1.8 kmh S 1.7 mph2.7 kmh 30.01 in1016.3 mb 0.00 in0.0 mm 0.00 in0.0 mm 0.00 in0.0 mm
01:51 AM 31.5°F-0.3°C 31.3°F-0.4°C 99% 1.1 mph S1.8 kmh S 1.1 mph1.8 kmh 30.01 in1016.3 mb 0.00 in0.0 mm 0.00 in0.0 mm 0.00 in0.0 mm
01:52 AM 31.5°F-0.3°C 31.3°F-0.4°C 99% 1.1 mph SSW1.8 kmh SSW 1.1 mph1.8 kmh 30.01 in1016.3 mb 0.00 in0.0 mm 0.00 in0.0 mm 0.00 in0.0 mm
01:53 AM 31.3°F-0.4°C 31.1°F-0.5°C 99% Calm Calm 1.1 mph1.8 kmh 30.00 in1015.9 mb 0.00 in0.0 mm 0.00 in0.0 mm 0.00 in0.0 mm
01:54 AM 31.3°F-0.4°C 31.1°F-0.5°C 99% Calm Calm 1.1 mph1.8 kmh 30.00 in1015.9 mb 0.00 in0.0 mm 0.00 in0.0 mm 0.00 in0.0 mm
01:55 AM 31.3°F-0.4°C 31.1°F-0.5°C 99% 1.1 mph S1.8 kmh S 1.1 mph1.8 kmh 30.00 in1015.9 mb 0.00 in0.0 mm 0.00 in0.0 mm 0.00 in0.0 mm
01:56 AM 31.3°F-0.4°C 31.1°F-0.5°C 99% 1.1 mph S1.8 kmh S 1.7 mph2.7 kmh 30.00 in1015.9 mb 0.00 in0.0 mm 0.00 in0.0 mm 0.00 in0.0 mm
01:57 AM 31.5°F-0.3°C 31.3°F-0.4°C 99% 1.1 mph S1.8 kmh S 1.7 mph2.7 kmh 30.00 in1015.9 mb 0.00 in0.0 mm 0.00 in0.0 mm 0.00 in0.0 mm
01:58 AM 31.5°F-0.3°C 31.3°F-0.4°C 99% 1.1 mph S1.8 kmh S 1.7 mph2.7 kmh 30.00 in1015.9 mb 0.00 in0.0 mm 0.00 in0.0 mm 0.00 in0.0 mm
01:59 AM 31.5°F-0.3°C 31.3°F-0.4°C 99% Calm Calm 1.7 mph2.7 kmh 30.00 in1015.9 mb 0.00 in0.0 mm 0.00 in0.0 mm 0.00 in0.0 mm
02:00 AM 30.9°F-0.6°C 30.7°F-0.7°C 99% Calm Calm 1.7 mph2.7 kmh 30.00 in1015.9 mb 0.00 in0.0 mm 0.00 in0.0 mm 0.00 in0.0 mm
02:01 AM 30.9°F-0.6°C 30.7°F-0.7°C 99% 1.7 mph W2.7 kmh W 1.7 mph2.7 kmh 30.00 in1015.9 mb 0.00 in0.0 mm 0.00 in0.0 mm 0.00 in0.0 mm
02:02 AM 30.9°F-0.6°C 30.7°F-0.7°C 99% 2.2 mph W3.5 kmh W 2.2 mph3.5 kmh 30.00 in1015.9 mb 0.00 in0.0 mm 0.00 in0.0 mm 0.00 in0.0 mm
02:03 AM 30.9°F-0.6°C 30.7°F-0.7°C 99% 1.7 mph WSW2.7 kmh WSW 2.2 mph3.5 kmh 30.00 in1015.9 mb 0.00 in0.0 mm 0.00 in0.0 mm 0.00 in0.0 mm
02:04 AM 30.9°F-0.6°C 30.7°F-0.7°C 99% 2.2 mph W3.5 kmh W 2.2 mph3.5 kmh 30.00 in1015.9 mb 0.00 in0.0 mm 0.00 in0.0 mm 0.00 in0.0 mm
02:05 AM 30.9°F-0.6°C 30.7°F-0.7°C 99% 2.2 mph W3.5 kmh W 2.2 mph3.5 kmh 30.01 in1016.3 mb 0.00 in0.0 mm 0.00 in0.0 mm 0.00 in0.0 mm
02:06 AM 30.9°F-0.6°C 30.7°F-0.7°C 99% 1.7 mph W2.7 kmh W 2.2 mph3.5 kmh 30.01 in1016.3 mb 0.00 in0.0 mm 0.00 in0.0 mm 0.00 in0.0 mm
02:07 AM 30.9°F-0.6°C 30.7°F-0.7°C 99% 2.2 mph W3.5 kmh W 2.2 mph3.5 kmh 30.01 in1016.3 mb 0.00 in0.0 mm 0.00 in0.0 mm 0.00 in0.0 mm
02:08 AM 30.9°F-0.6°C 30.7°F-0.7°C 99% 2.2 mph W3.5 kmh W 2.2 mph3.5 kmh 30.01 in1016.3 mb 0.00 in0.0 mm 0.00 in0.0 mm 0.00 in0.0 mm
02:09 AM 30.9°F-0.6°C 30.7°F-0.7°C 99% 2.7 mph W4.3 kmh W 2.7 mph4.3 kmh 30.01 in1016.3 mb 0.00 in0.0 mm 0.00 in0.0 mm 0.00 in0.0 mm
02:10 AM 31.1°F-0.5°C 30.9°F-0.6°C 99% 2.2 mph W3.5 kmh W 2.7 mph4.3 kmh 30.01 in1016.3 mb 0.00 in0.0 mm 0.00 in0.0 mm 0.00 in0.0 mm
02:11 AM 31.1°F-0.5°C 30.9°F-0.6°C 99% 2.2 mph WNW3.5 kmh WNW 2.7 mph4.3 kmh 30.01 in1016.3 mb 0.00 in0.0 mm 0.00 in0.0 mm 0.00 in0.0 mm
02:12 AM 31.3°F-0.4°C 31.1°F-0.5°C 99% 2.7 mph W4.3 kmh W 2.7 mph4.3 kmh 30.01 in1016.3 mb 0.00 in0.0 mm 0.00 in0.0 mm 0.00 in0.0 mm
02:13 AM 31.5°F-0.3°C 31.3°F-0.4°C 99% 2.7 mph W4.3 kmh W 3.2 mph5.1 kmh 30.01 in1016.3 mb 0.00 in0.0 mm 0.00 in0.0 mm 0.00 in0.0 mm
02:14 AM 31.6°F-0.2°C 31.4°F-0.3°C 99% 2.7 mph W4.3 kmh W 3.2 mph5.1 kmh 30.01 in1016.3 mb 0.00 in0.0 mm 0.00 in0.0 mm 0.00 in0.0 mm
02:15 AM 32.0°F0.0°C 31.8°F-0.1°C 99% 4.7 mph WSW7.6 kmh WSW 4.7 mph7.6 kmh 30.01 in1016.3 mb 0.00 in0.0 mm 0.00 in0.0 mm 0.00 in0.0 mm
02:16 AM 32.4°F0.2°C 32.2°F0.1°C 99% 4.7 mph W7.6 kmh W 5.3 mph8.5 kmh 30.01 in1016.3 mb 0.00 in0.0 mm 0.00 in0.0 mm 0.00 in0.0 mm
02:17 AM 32.4°F0.2°C 32.2°F0.1°C 99% 3.7 mph W6.0 kmh W 5.3 mph8.5 kmh 30.01 in1016.3 mb 0.00 in0.0 mm 0.00 in0.0 mm 0.00 in0.0 mm
02:18 AM 32.4°F0.2°C 32.2°F0.1°C 99% 5.3 mph W8.5 kmh W 5.3 mph8.5 kmh 30.01 in1016.3 mb 0.00 in0.0 mm 0.00 in0.0 mm 0.00 in0.0 mm
02:19 AM 32.9°F0.5°C 32.7°F0.4°C 99% 4.2 mph WNW6.8 kmh WNW 5.3 mph8.5 kmh 30.01 in1016.3 mb 0.00 in0.0 mm 0.00 in0.0 mm 0.00 in0.0 mm
02:20 AM 32.9°F0.5°C 32.7°F0.4°C 99% 2.7 mph W4.3 kmh W 5.3 mph8.5 kmh 30.01 in1016.3 mb 0.00 in0.0 mm 0.00 in0.0 mm 0.00 in0.0 mm
02:21 AM 32.9°F0.5°C 32.7°F0.4°C 99% 3.2 mph W5.1 kmh W 5.3 mph8.5 kmh 30.01 in1016.3 mb 0.00 in0.0 mm 0.00 in0.0 mm 0.00 in0.0 mm
02:22 AM 32.9°F0.5°C 32.7°F0.4°C 99% 2.7 mph W4.3 kmh W 5.3 mph8.5 kmh 30.01 in1016.3 mb 0.00 in0.0 mm 0.00 in0.0 mm 0.00 in0.0 mm
02:23 AM 33.1°F0.6°C 32.8°F0.4°C 99% 2.7 mph W4.3 kmh W 5.3 mph8.5 kmh 30.01 in1016.3 mb 0.00 in0.0 mm 0.00 in0.0 mm 0.00 in0.0 mm
02:24 AM 33.1°F0.6°C 32.8°F0.4°C 99% 2.7 mph W4.3 kmh W 5.3 mph8.5 kmh 30.01 in1016.3 mb 0.00 in0.0 mm 0.00 in0.0 mm 0.00 in0.0 mm
02:25 AM 33.1°F0.6°C 32.8°F0.4°C 99% 2.7 mph SW4.3 kmh SW 5.3 mph8.5 kmh 30.01 in1016.3 mb 0.00 in0.0 mm 0.00 in0.0 mm 0.00 in0.0 mm
02:26 AM 33.1°F0.6°C 32.8°F0.4°C 99% 2.7 mph W4.3 kmh W 5.3 mph8.5 kmh 30.01 in1016.3 mb 0.00 in0.0 mm 0.00 in0.0 mm 0.00 in0.0 mm
02:27 AM 33.1°F0.6°C 32.8°F0.4°C 99% 3.2 mph WNW5.1 kmh WNW 5.3 mph8.5 kmh 30.01 in1016.3 mb 0.00 in0.0 mm 0.00 in0.0 mm 0.00 in0.0 mm
02:28 AM 33.1°F0.6°C 32.8°F0.4°C 99% 2.7 mph WNW4.3 kmh WNW 4.2 mph6.8 kmh 30.01 in1016.3 mb 0.00 in0.0 mm 0.00 in0.0 mm 0.00 in0.0 mm
02:29 AM 33.1°F0.6°C 32.8°F0.4°C 99% 3.7 mph W6.0 kmh W 4.2 mph6.8 kmh 30.01 in1016.3 mb 0.00 in0.0 mm 0.00 in0.0 mm 0.00 in0.0 mm
02:30 AM 33.1°F0.6°C 32.8°F0.4°C 99% 2.7 mph W4.3 kmh W 3.7 mph6.0 kmh 30.01 in1016.3 mb 0.00 in0.0 mm 0.00 in0.0 mm 0.00 in0.0 mm
02:31 AM 33.1°F0.6°C 32.8°F0.4°C 99% 3.2 mph SW5.1 kmh SW 3.7 mph6.0 kmh 30.01 in1016.3 mb 0.00 in0.0 mm 0.00 in0.0 mm 0.00 in0.0 mm
02:32 AM 33.1°F0.6°C 32.8°F0.4°C 99% 3.7 mph W6.0 kmh W 3.7 mph6.0 kmh 30.01 in1016.3 mb 0.00 in0.0 mm 0.00 in0.0 mm 0.00 in0.0 mm
02:33 AM 33.1°F0.6°C 32.8°F0.4°C 99% 2.7 mph WNW4.3 kmh WNW 4.2 mph6.8 kmh 30.01 in1016.3 mb 0.00 in0.0 mm 0.00 in0.0 mm 0.00 in0.0 mm
02:34 AM 33.1°F0.6°C 32.8°F0.4°C 99% 3.2 mph W5.1 kmh W 4.2 mph6.8 kmh 30.01 in1016.3 mb 0.00 in0.0 mm 0.00 in0.0 mm 0.00 in0.0 mm
02:35 AM 33.1°F0.6°C 32.8°F0.4°C 99% 2.7 mph W4.3 kmh W 4.2 mph6.8 kmh 30.01 in1016.3 mb 0.00 in0.0 mm 0.00 in0.0 mm 0.00 in0.0 mm
02:36 AM 33.1°F0.6°C 32.8°F0.4°C 99% 3.7 mph W6.0 kmh W 4.2 mph6.8 kmh 30.01 in1016.3 mb 0.00 in0.0 mm 0.00 in0.0 mm 0.00 in0.0 mm
02:37 AM 33.1°F0.6°C 32.8°F0.4°C 99% 3.2 mph W5.1 kmh W 4.2 mph6.8 kmh 30.01 in1016.3 mb 0.00 in0.0 mm 0.00 in0.0 mm 0.00 in0.0 mm
02:38 AM 33.1°F0.6°C 32.8°F0.4°C 99% 2.7 mph W4.3 kmh W 4.2 mph6.8 kmh 30.01 in1016.3 mb 0.00 in0.0 mm 0.00 in0.0 mm 0.00 in0.0 mm
02:39 AM 33.1°F0.6°C 32.8°F0.4°C 99% 2.2 mph WSW3.5 kmh WSW 4.2 mph6.8 kmh 30.01 in1016.3 mb 0.00 in0.0 mm 0.00 in0.0 mm 0.00 in0.0 mm
02:40 AM 33.1°F0.6°C 32.8°F0.4°C 99% 2.7 mph WSW4.3 kmh WSW 4.2 mph6.8 kmh 30.01 in1016.3 mb 0.00 in0.0 mm 0.00 in0.0 mm 0.00 in0.0 mm
02:41 AM 32.9°F0.5°C 32.7°F0.4°C 99% 3.2 mph W5.1 kmh W 4.2 mph6.8 kmh 30.01 in1016.3 mb 0.00 in0.0 mm 0.00 in0.0 mm 0.00 in0.0 mm
02:42 AM 32.9°F0.5°C 32.7°F0.4°C 99% 3.2 mph W5.1 kmh W 4.2 mph6.8 kmh 30.01 in1016.3 mb 0.00 in0.0 mm 0.00 in0.0 mm 0.00 in0.0 mm
02:43 AM 32.9°F0.5°C 32.7°F0.4°C 99% 3.2 mph W5.1 kmh W 3.7 mph6.0 kmh 30.01 in1016.3 mb 0.00 in0.0 mm 0.00 in0.0 mm 0.00 in0.0 mm
02:44 AM 32.9°F0.5°C 32.7°F0.4°C 99% 2.7 mph W4.3 kmh W 3.7 mph6.0 kmh 30.01 in1016.3 mb 0.00 in0.0 mm 0.00 in0.0 mm 0.00 in0.0 mm
02:45 AM 32.9°F0.5°C 32.7°F0.4°C 99% 2.7 mph W4.3 kmh W 3.7 mph6.0 kmh 30.01 in1016.3 mb 0.00 in0.0 mm 0.00 in0.0 mm 0.00 in0.0 mm
02:46 AM 32.9°F0.5°C 32.7°F0.4°C 99% 3.2 mph W5.1 kmh W 3.7 mph6.0 kmh 30.01 in1016.3 mb 0.00 in0.0 mm 0.00 in0.0 mm 0.00 in0.0 mm
02:47 AM 32.9°F0.5°C 32.7°F0.4°C 99% 3.7 mph W6.0 kmh W 3.7 mph6.0 kmh 30.01 in1016.3 mb 0.00 in0.0 mm 0.00 in0.0 mm 0.00 in0.0 mm
02:48 AM 32.9°F0.5°C 32.7°F0.4°C 99% 3.7 mph W6.0 kmh W 3.7 mph6.0 kmh 30.01 in1016.3 mb 0.00 in0.0 mm 0.00 in0.0 mm 0.00 in0.0 mm
02:49 AM 32.9°F0.5°C 32.7°F0.4°C 99% 2.7 mph W4.3 kmh W 3.7 mph6.0 kmh 30.01 in1016.3 mb 0.00 in0.0 mm 0.00 in0.0 mm 0.00 in0.0 mm
02:50 AM 32.9°F0.5°C 32.7°F0.4°C 99% 2.7 mph WNW4.3 kmh WNW 3.7 mph6.0 kmh 30.01 in1016.3 mb 0.00 in0.0 mm 0.00 in0.0 mm 0.00 in0.0 mm
02:51 AM 32.9°F0.5°C 32.7°F0.4°C 99% 2.7 mph W4.3 kmh W 3.7 mph6.0 kmh 30.01 in1016.3 mb 0.00 in0.0 mm 0.00 in0.0 mm 0.00 in0.0 mm
02:52 AM 32.9°F0.5°C 32.7°F0.4°C 99% 3.2 mph W5.1 kmh W 3.7 mph6.0 kmh 30.01 in1016.3 mb 0.00 in0.0 mm 0.00 in0.0 mm 0.00 in0.0 mm
02:53 AM 32.9°F0.5°C 32.7°F0.4°C 99% 3.7 mph W6.0 kmh W 4.2 mph6.8 kmh 30.02 in1016.6 mb 0.00 in0.0 mm 0.00 in0.0 mm 0.00 in0.0 mm
02:54 AM 32.9°F0.5°C 32.7°F0.4°C 99% 2.7 mph W4.3 kmh W 4.2 mph6.8 kmh 30.02 in1016.6 mb 0.00 in0.0 mm 0.00 in0.0 mm 0.00 in0.0 mm
02:55 AM 32.9°F0.5°C 32.7°F0.4°C 99% 2.7 mph W4.3 kmh W 4.2 mph6.8 kmh 30.02 in1016.6 mb 0.00 in0.0 mm 0.00 in0.0 mm 0.00 in0.0 mm
02:56 AM 32.9°F0.5°C 32.7°F0.4°C 99% 3.2 mph WSW5.1 kmh WSW 4.2 mph6.8 kmh 30.02 in1016.6 mb 0.00 in0.0 mm 0.00 in0.0 mm 0.00 in0.0 mm
02:57 AM 32.9°F0.5°C 32.7°F0.4°C 99% 3.7 mph W6.0 kmh W 4.2 mph6.8 kmh 30.02 in1016.6 mb 0.00 in0.0 mm 0.00 in0.0 mm 0.00 in0.0 mm
02:58 AM 32.9°F0.5°C 32.7°F0.4°C 99% 2.7 mph W4.3 kmh W 4.2 mph6.8 kmh 30.02 in1016.6 mb 0.00 in0.0 mm 0.00 in0.0 mm 0.00 in0.0 mm
02:59 AM 32.9°F0.5°C 32.7°F0.4°C 99% 2.7 mph W4.3 kmh W 4.2 mph6.8 kmh 30.02 in1016.6 mb 0.00 in0.0 mm 0.00 in0.0 mm 0.00 in0.0 mm
03:00 AM 32.9°F0.5°C 32.7°F0.4°C 99% 2.7 mph W4.3 kmh W 4.2 mph6.8 kmh 30.02 in1016.6 mb 0.00 in0.0 mm 0.00 in0.0 mm 0.00 in0.0 mm
03:01 AM 32.7°F0.4°C 32.5°F0.3°C 99% 2.2 mph W3.5 kmh W 4.2 mph6.8 kmh 30.02 in1016.6 mb 0.00 in0.0 mm 0.00 in0.0 mm 0.00 in0.0 mm
03:02 AM 32.7°F0.4°C 32.5°F0.3°C 99% 2.2 mph WSW3.5 kmh WSW 4.2 mph6.8 kmh 30.02 in1016.6 mb 0.00 in0.0 mm 0.00 in0.0 mm 0.00 in0.0 mm
03:03 AM 32.7°F0.4°C 32.5°F0.3°C 99% 3.7 mph W6.0 kmh W 3.7 mph6.0 kmh 30.02 in1016.6 mb 0.00 in0.0 mm 0.00 in0.0 mm 0.00 in0.0 mm
03:04 AM 32.7°F0.4°C 32.5°F0.3°C 99% 3.7 mph W6.0 kmh W 3.7 mph6.0 kmh 30.02 in1016.6 mb 0.00 in0.0 mm 0.00 in0.0 mm 0.00 in0.0 mm
03:05 AM 32.7°F0.4°C 32.5°F0.3°C 99% 3.2 mph WNW5.1 kmh WNW 3.7 mph6.0 kmh 30.02 in1016.6 mb 0.00 in0.0 mm 0.00 in0.0 mm 0.00 in0.0 mm
03:06 AM 32.7°F0.4°C 32.5°F0.3°C 99% 2.2 mph W3.5 kmh W 3.7 mph6.0 kmh 30.02 in1016.6 mb 0.00 in0.0 mm 0.00 in0.0 mm 0.00 in0.0 mm
03:07 AM 32.7°F0.4°C 32.5°F0.3°C 99% 2.2 mph W3.5 kmh W 3.7 mph6.0 kmh 30.02 in1016.6 mb 0.00 in0.0 mm 0.00 in0.0 mm 0.00 in0.0 mm
03:08 AM 32.7°F0.4°C 32.5°F0.3°C 99% 2.7 mph W4.3 kmh W 3.7 mph6.0 kmh 30.02 in1016.6 mb 0.00 in0.0 mm 0.00 in0.0 mm 0.00 in0.0 mm
03:09 AM 32.7°F0.4°C 32.5°F0.3°C 99% 2.7 mph W4.3 kmh W 3.7 mph6.0 kmh 30.02 in1016.6 mb 0.00 in0.0 mm 0.00 in0.0 mm 0.00 in0.0 mm
03:10 AM 32.7°F0.4°C 32.5°F0.3°C 99% 2.7 mph W4.3 kmh W 3.7 mph6.0 kmh 30.02 in1016.6 mb 0.00 in0.0 mm 0.00 in0.0 mm 0.00 in0.0 mm
03:11 AM 32.7°F0.4°C 32.5°F0.3°C 99% 2.7 mph W4.3 kmh W 3.7 mph6.0 kmh 30.02 in1016.6 mb 0.00 in0.0 mm 0.00 in0.0 mm 0.00 in0.0 mm
03:12 AM 32.7°F0.4°C 32.5°F0.3°C 99% 2.7 mph SW4.3 kmh SW 3.7 mph6.0 kmh 30.02 in1016.6 mb 0.00 in0.0 mm 0.00 in0.0 mm 0.00 in0.0 mm
03:13 AM 32.7°F0.4°C 32.5°F0.3°C 99% 3.2 mph W5.1 kmh W 3.7 mph6.0 kmh 30.02 in1016.6 mb 0.00 in0.0 mm 0.00 in0.0 mm 0.00 in0.0 mm
03:14 AM 32.7°F0.4°C 32.5°F0.3°C 99% 2.7 mph WNW4.3 kmh WNW 3.7 mph6.0 kmh 30.02 in1016.6 mb 0.00 in0.0 mm 0.00 in0.0 mm 0.00 in0.0 mm
03:15 AM 32.7°F0.4°C 32.5°F0.3°C 99% 2.7 mph W4.3 kmh W 3.7 mph6.0 kmh 30.02 in1016.6 mb 0.00 in0.0 mm 0.00 in0.0 mm 0.00 in0.0 mm
03:16 AM 32.7°F0.4°C 32.5°F0.3°C 99% 2.7 mph W4.3 kmh W 3.7 mph6.0 kmh 30.02 in1016.6 mb 0.00 in0.0 mm 0.00 in0.0 mm 0.00 in0.0 mm
03:17 AM 32.7°F0.4°C 32.5°F0.3°C 99% 2.2 mph W3.5 kmh W 3.7 mph6.0 kmh 30.02 in1016.6 mb 0.00 in0.0 mm 0.00 in0.0 mm 0.00 in0.0 mm
03:18 AM 32.5°F0.3°C 32.3°F0.2°C 99% 2.2 mph W3.5 kmh W 3.7 mph6.0 kmh 30.02 in1016.6 mb 0.00 in0.0 mm 0.00 in0.0 mm 0.00 in0.0 mm
03:19 AM 32.5°F0.3°C 32.3°F0.2°C 99% 2.2 mph W3.5 kmh W 3.7 mph6.0 kmh 30.02 in1016.6 mb 0.00 in0.0 mm 0.00 in0.0 mm 0.00 in0.0 mm
03:20 AM 32.5°F0.3°C 32.3°F0.2°C 99% 2.2 mph W3.5 kmh W 3.7 mph6.0 kmh 30.02 in1016.6 mb 0.00 in0.0 mm 0.00 in0.0 mm 0.00 in0.0 mm
03:21 AM 32.5°F0.3°C 32.3°F0.2°C 99% 2.2 mph W3.5 kmh W 3.2 mph5.1 kmh 30.02 in1016.6 mb 0.00 in0.0 mm 0.00 in0.0 mm 0.00 in0.0 mm
03:22 AM 32.5°F0.3°C 32.3°F0.2°C 99% 2.7 mph W4.3 kmh W 3.2 mph5.1 kmh 30.02 in1016.6 mb 0.00 in0.0 mm 0.00 in0.0 mm 0.00 in0.0 mm
03:23 AM 32.5°F0.3°C 32.3°F0.2°C 99% 2.7 mph W4.3 kmh W 3.2 mph5.1 kmh 30.02 in1016.6 mb 0.00 in0.0 mm 0.00 in0.0 mm 0.00 in0.0 mm
03:24 AM 32.5°F0.3°C 32.3°F0.2°C 99% 2.2 mph W3.5 kmh W 3.2 mph5.1 kmh 30.02 in1016.6 mb 0.00 in0.0 mm 0.00 in0.0 mm 0.00 in0.0 mm
03:25 AM 32.5°F0.3°C 32.3°F0.2°C 99% 2.2 mph W3.5 kmh W 3.2 mph5.1 kmh 30.02 in1016.6 mb 0.00 in0.0 mm 0.00 in0.0 mm 0.00 in0.0 mm
03:26 AM 32.5°F0.3°C 32.3°F0.2°C 99% 2.7 mph W4.3 kmh W 3.2 mph5.1 kmh 30.02 in1016.6 mb 0.00 in0.0 mm 0.00 in0.0 mm 0.00 in0.0 mm
03:27 AM 32.5°F0.3°C 32.3°F0.2°C 99% 2.7 mph WNW4.3 kmh WNW 3.2 mph5.1 kmh 30.02 in1016.6 mb 0.00 in0.0 mm 0.00 in0.0 mm 0.00 in0.0 mm
03:28 AM 32.5°F0.3°C 32.3°F0.2°C 99% 2.7 mph W4.3 kmh W 3.2 mph5.1 kmh 30.02 in1016.6 mb 0.00 in0.0 mm 0.00 in0.0 mm 0.00 in0.0 mm
03:29 AM 32.5°F0.3°C 32.3°F0.2°C 99% 2.7 mph SW4.3 kmh SW 3.2 mph5.1 kmh 30.02 in1016.6 mb 0.00 in0.0 mm 0.00 in0.0 mm 0.00 in0.0 mm
03:30 AM 32.5°F0.3°C 32.3°F0.2°C 99% 2.7 mph W4.3 kmh W 3.2 mph5.1 kmh 30.02 in1016.6 mb 0.00 in0.0 mm 0.00 in0.0 mm 0.00 in0.0 mm
03:31 AM 32.5°F0.3°C 32.3°F0.2°C 99% 2.2 mph W3.5 kmh W 3.2 mph5.1 kmh 30.02 in1016.6 mb 0.00 in0.0 mm 0.00 in0.0 mm 0.00 in0.0 mm
03:32 AM 32.5°F0.3°C 32.3°F0.2°C 99% 3.2 mph W5.1 kmh W 3.2 mph5.1 kmh 30.02 in1016.6 mb 0.00 in0.0 mm 0.00 in0.0 mm 0.00 in0.0 mm
03:33 AM 32.5°F0.3°C 32.3°F0.2°C 99% 2.7 mph W4.3 kmh W 3.2 mph5.1 kmh 30.02 in1016.6 mb 0.00 in0.0 mm 0.00 in0.0 mm 0.00 in0.0 mm
03:34 AM 32.5°F0.3°C 32.3°F0.2°C 99% 1.7 mph W2.7 kmh W 3.2 mph5.1 kmh 30.02 in1016.6 mb 0.00 in0.0 mm 0.00 in0.0 mm 0.00 in0.0 mm
03:35 AM 32.5°F0.3°C 32.3°F0.2°C 99% 2.2 mph WSW3.5 kmh WSW 3.2 mph5.1 kmh 30.02 in1016.6 mb 0.00 in0.0 mm 0.00 in0.0 mm 0.00 in0.0 mm
03:36 AM 32.5°F0.3°C 32.3°F0.2°C 99% 2.7 mph WNW4.3 kmh WNW 3.7 mph6.0 kmh 30.02 in1016.6 mb 0.00 in0.0 mm 0.00 in0.0 mm 0.00 in0.0 mm
03:37 AM 32.5°F0.3°C 32.3°F0.2°C 99% 2.7 mph W4.3 kmh W 3.7 mph6.0 kmh 30.02 in1016.6 mb 0.00 in0.0 mm 0.00 in0.0 mm 0.00 in0.0 mm
03:38 AM 32.5°F0.3°C 32.3°F0.2°C 99% 2.7 mph W4.3 kmh W 3.7 mph6.0 kmh 30.02 in1016.6 mb 0.00 in0.0 mm 0.00 in0.0 mm 0.00 in0.0 mm
03:39 AM 32.5°F0.3°C 32.3°F0.2°C 99% 2.2 mph W3.5 kmh W 3.7 mph6.0 kmh 30.02 in1016.6 mb 0.00 in0.0 mm 0.00 in0.0 mm 0.00 in0.0 mm
03:40 AM 32.5°F0.3°C 32.3°F0.2°C 99% 2.7 mph W4.3 kmh W 4.2 mph6.8 kmh 30.02 in1016.6 mb 0.00 in0.0 mm 0.00 in0.0 mm 0.00 in0.0 mm
03:41 AM 32.5°F0.3°C 32.3°F0.2°C 99% 3.2 mph WSW5.1 kmh WSW 4.2 mph6.8 kmh 30.02 in1016.6 mb 0.00 in0.0 mm 0.00 in0.0 mm 0.00 in0.0 mm
03:42 AM 32.5°F0.3°C 32.3°F0.2°C 99% 2.7 mph W4.3 kmh W 4.2 mph6.8 kmh 30.02 in1016.6 mb 0.00 in0.0 mm 0.00 in0.0 mm 0.00 in0.0 mm
03:43 AM 32.5°F0.3°C 32.3°F0.2°C 99% 2.2 mph W3.5 kmh W 4.2 mph6.8 kmh 30.02 in1016.6 mb 0.00 in0.0 mm 0.00 in0.0 mm 0.00 in0.0 mm
03:44 AM 32.5°F0.3°C 32.3°F0.2°C 99% 2.7 mph WNW4.3 kmh WNW 4.2 mph6.8 kmh 30.02 in1016.6 mb 0.00 in0.0 mm 0.00 in0.0 mm 0.00 in0.0 mm
03:45 AM 32.5°F0.3°C 32.3°F0.2°C 99% 2.2 mph W3.5 kmh W 4.2 mph6.8 kmh 30.02 in1016.6 mb 0.00 in0.0 mm 0.00 in0.0 mm 0.00 in0.0 mm
03:46 AM 32.5°F0.3°C 32.3°F0.2°C 99% 1.7 mph W2.7 kmh W 4.2 mph6.8 kmh 30.02 in1016.6 mb 0.00 in0.0 mm 0.00 in0.0 mm 0.00 in0.0 mm
03:47 AM 32.4°F0.2°C 32.2°F0.1°C 99% 1.7 mph W2.7 kmh W 4.2 mph6.8 kmh 30.02 in1016.6 mb 0.00 in0.0 mm 0.00 in0.0 mm 0.00 in0.0 mm
03:48 AM 32.4°F0.2°C 32.2°F0.1°C 99% 1.7 mph SSW2.7 kmh SSW 4.2 mph6.8 kmh 30.02 in1016.6 mb 0.00 in0.0 mm 0.00 in0.0 mm 0.00 in0.0 mm
03:49 AM 32.4°F0.2°C 32.2°F0.1°C 99% 1.1 mph SW1.8 kmh SW 4.2 mph6.8 kmh 30.02 in1016.6 mb 0.00 in0.0 mm 0.00 in0.0 mm 0.00 in0.0 mm
03:50 AM 32.4°F0.2°C 32.2°F0.1°C 99% 1.7 mph SSW2.7 kmh SSW 3.2 mph5.1 kmh 30.02 in1016.6 mb 0.00 in0.0 mm 0.00 in0.0 mm 0.00 in0.0 mm
03:51 AM 32.4°F0.2°C 32.2°F0.1°C 99% 2.2 mph W3.5 kmh W 3.2 mph5.1 kmh 30.02 in1016.6 mb 0.00 in0.0 mm 0.00 in0.0 mm 0.00 in0.0 mm
03:52 AM 32.2°F0.1°C 32.0°F0.0°C 99% 2.2 mph SW3.5 kmh SW 3.2 mph5.1 kmh 30.02 in1016.6 mb 0.00 in0.0 mm 0.00 in0.0 mm 0.00 in0.0 mm
03:53 AM 32.2°F0.1°C 32.0°F0.0°C 99% 2.2 mph W3.5 kmh W 3.2 mph5.1 kmh 30.02 in1016.6 mb 0.00 in0.0 mm 0.00 in0.0 mm 0.00 in0.0 mm
03:54 AM 32.2°F0.1°C 32.0°F0.0°C 99% 2.2 mph W3.5 kmh W 3.2 mph5.1 kmh 30.02 in1016.6 mb 0.00 in0.0 mm 0.00 in0.0 mm 0.00 in0.0 mm
03:55 AM 32.2°F0.1°C 32.0°F0.0°C 99% 2.2 mph W3.5 kmh W 2.7 mph4.3 kmh 30.02 in1016.6 mb 0.00 in0.0 mm 0.00 in0.0 mm 0.00 in0.0 mm
03:56 AM 32.2°F0.1°C 32.0°F0.0°C 99% 1.7 mph W2.7 kmh W 2.7 mph4.3 kmh 30.02 in1016.6 mb 0.00 in0.0 mm 0.00 in0.0 mm 0.00 in0.0 mm
03:57 AM 32.2°F0.1°C 32.0°F0.0°C 99% 1.7 mph W2.7 kmh W 2.7 mph4.3 kmh 30.02 in1016.6 mb 0.00 in0.0 mm 0.00 in0.0 mm 0.00 in0.0 mm
03:58 AM 32.2°F0.1°C 32.0°F0.0°C 99% 1.7 mph W2.7 kmh W 2.7 mph4.3 kmh 30.02 in1016.6 mb 0.00 in0.0 mm 0.00 in0.0 mm 0.00 in0.0 mm
03:59 AM 32.2°F0.1°C 32.0°F0.0°C 99% 2.2 mph WSW3.5 kmh WSW 2.7 mph4.3 kmh 30.02 in1016.6 mb 0.00 in0.0 mm 0.00 in0.0 mm 0.00 in0.0 mm
04:00 AM 32.2°F0.1°C 32.0°F0.0°C 99% 1.1 mph SW1.8 kmh SW 2.7 mph4.3 kmh 30.02 in1016.6 mb 0.00 in0.0 mm 0.00 in0.0 mm 0.00 in0.0 mm
04:01 AM 32.0°F0.0°C 31.8°F-0.1°C 99% 1.7 mph WSW2.7 kmh WSW 2.7 mph4.3 kmh 30.02 in1016.6 mb 0.00 in0.0 mm 0.00 in0.0 mm 0.00 in0.0 mm
04:02 AM 32.0°F0.0°C 31.8°F-0.1°C 99% 1.7 mph SSW2.7 kmh SSW 2.7 mph4.3 kmh 30.02 in1016.6 mb 0.00 in0.0 mm 0.00 in0.0 mm 0.00 in0.0 mm
04:03 AM 32.0°F0.0°C 31.8°F-0.1°C 99% 4.7 mph W7.6 kmh W 4.7 mph7.6 kmh 30.02 in1016.6 mb 0.00 in0.0 mm 0.00 in0.0 mm 0.00 in0.0 mm
04:04 AM 32.0°F0.0°C 31.8°F-0.1°C 99% 3.7 mph NW6.0 kmh NW 4.7 mph7.6 kmh 30.01 in1016.3 mb 0.00 in0.0 mm 0.00 in0.0 mm 0.00 in0.0 mm
04:05 AM 32.2°F0.1°C 32.0°F0.0°C 99% 2.7 mph W4.3 kmh W 4.7 mph7.6 kmh 30.01 in1016.3 mb 0.00 in0.0 mm 0.00 in0.0 mm 0.00 in0.0 mm
04:06 AM 32.2°F0.1°C 32.0°F0.0°C 99% 3.7 mph W6.0 kmh W 4.7 mph7.6 kmh 30.01 in1016.3 mb 0.00 in0.0 mm 0.00 in0.0 mm 0.00 in0.0 mm
04:07 AM 32.2°F0.1°C 32.0°F0.0°C 99% 3.2 mph WSW5.1 kmh WSW 4.7 mph7.6 kmh 30.01 in1016.3 mb 0.00 in0.0 mm 0.00 in0.0 mm 0.00 in0.0 mm
04:08 AM 32.2°F0.1°C 32.0°F0.0°C 99% 2.2 mph W3.5 kmh W 4.7 mph7.6 kmh 30.01 in1016.3 mb 0.00 in0.0 mm 0.00 in0.0 mm 0.00 in0.0 mm
04:09 AM 32.2°F0.1°C 32.0°F0.0°C 99% 1.7 mph W2.7 kmh W 4.7 mph7.6 kmh 30.01 in1016.3 mb 0.00 in0.0 mm 0.00 in0.0 mm 0.00 in0.0 mm
04:10 AM 32.2°F0.1°C 32.0°F0.0°C 99% 3.7 mph W6.0 kmh W 4.7 mph7.6 kmh 30.01 in1016.3 mb 0.00 in0.0 mm 0.00 in0.0 mm 0.00 in0.0 mm
04:11 AM 32.2°F0.1°C 32.0°F0.0°C 99% 3.2 mph W5.1 kmh W 4.7 mph7.6 kmh 30.01 in1016.3 mb 0.00 in0.0 mm 0.00 in0.0 mm 0.00 in0.0 mm
04:12 AM 32.2°F0.1°C 32.0°F0.0°C 99% 2.7 mph W4.3 kmh W 4.7 mph7.6 kmh 30.01 in1016.3 mb 0.00 in0.0 mm 0.00 in0.0 mm 0.00 in0.0 mm
04:13 AM 32.2°F0.1°C 32.0°F0.0°C 99% 2.2 mph W3.5 kmh W 4.2 mph6.8 kmh 30.01 in1016.3 mb 0.00 in0.0 mm 0.00 in0.0 mm 0.00 in0.0 mm
04:14 AM 32.2°F0.1°C 32.0°F0.0°C 99% 2.7 mph W4.3 kmh W 3.7 mph6.0 kmh 30.01 in1016.3 mb 0.00 in0.0 mm 0.00 in0.0 mm 0.00 in0.0 mm
04:15 AM 32.2°F0.1°C 32.0°F0.0°C 99% 2.2 mph SW3.5 kmh SW 3.7 mph6.0 kmh 30.01 in1016.3 mb 0.00 in0.0 mm 0.00 in0.0 mm 0.00 in0.0 mm
04:16 AM 32.2°F0.1°C 32.0°F0.0°C 99% 2.2 mph WSW3.5 kmh WSW 3.7 mph6.0 kmh 30.01 in1016.3 mb 0.00 in0.0 mm 0.00 in0.0 mm 0.00 in0.0 mm
04:17 AM 32.2°F0.1°C 32.0°F0.0°C 99% 2.2 mph WSW3.5 kmh WSW 3.7 mph6.0 kmh 30.02 in1016.6 mb 0.00 in0.0 mm 0.00 in0.0 mm 0.00 in0.0 mm
04:18 AM 32.2°F0.1°C 32.0°F0.0°C 99% 1.7 mph SW2.7 kmh SW 3.7 mph6.0 kmh 30.02 in1016.6 mb 0.00 in0.0 mm 0.00 in0.0 mm 0.00 in0.0 mm
04:19 AM 32.2°F0.1°C 32.0°F0.0°C 99% 2.2 mph W3.5 kmh W 3.7 mph6.0 kmh 30.02 in1016.6 mb 0.00 in0.0 mm 0.00 in0.0 mm 0.00 in0.0 mm
04:20 AM 32.2°F0.1°C 32.0°F0.0°C 99% 1.7 mph W2.7 kmh W 3.7 mph6.0 kmh 30.02 in1016.6 mb 0.00 in0.0 mm 0.00 in0.0 mm 0.00 in0.0 mm
04:21 AM 32.2°F0.1°C 32.0°F0.0°C 99% 1.1 mph WSW1.8 kmh WSW 3.2 mph5.1 kmh 30.02 in1016.6 mb 0.00 in0.0 mm 0.00 in0.0 mm 0.00 in0.0 mm
04:22 AM 32.2°F0.1°C 32.0°F0.0°C 99% 1.1 mph SW1.8 kmh SW 2.7 mph4.3 kmh 30.02 in1016.6 mb 0.00 in0.0 mm 0.00 in0.0 mm 0.00 in0.0 mm
04:23 AM 32.0°F0.0°C 31.8°F-0.1°C 99% 1.7 mph W2.7 kmh W 2.7 mph4.3 kmh 30.02 in1016.6 mb 0.00 in0.0 mm 0.00 in0.0 mm 0.00 in0.0 mm
04:24 AM 32.0°F0.0°C 31.8°F-0.1°C 99% Calm Calm 2.7 mph4.3 kmh 30.02 in1016.6 mb 0.00 in0.0 mm 0.00 in0.0 mm 0.00 in0.0 mm
04:25 AM 32.0°F0.0°C 31.8°F-0.1°C 99% Calm Calm 2.7 mph4.3 kmh 30.02 in1016.6 mb 0.00 in0.0 mm 0.00 in0.0 mm 0.00 in0.0 mm
04:26 AM 32.0°F0.0°C 31.8°F-0.1°C 99% Calm Calm 2.7 mph4.3 kmh 30.02 in1016.6 mb 0.00 in0.0 mm 0.00 in0.0 mm 0.00 in0.0 mm
04:27 AM 31.8°F-0.1°C 31.6°F-0.2°C 99% Calm Calm 2.2 mph3.5 kmh 30.02 in1016.6 mb 0.00 in0.0 mm 0.00 in0.0 mm 0.00 in0.0 mm
04:28 AM 31.8°F-0.1°C 31.6°F-0.2°C 99% Calm Calm 2.2 mph3.5 kmh 30.01 in1016.3 mb 0.00 in0.0 mm 0.00 in0.0 mm 0.00 in0.0 mm
04:29 AM 31.6°F-0.2°C 31.4°F-0.3°C 99% 1.1 mph S1.8 kmh S 2.2 mph3.5 kmh 30.01 in1016.3 mb 0.00 in0.0 mm 0.00 in0.0 mm 0.00 in0.0 mm
04:30 AM 31.6°F-0.2°C 31.4°F-0.3°C 99% 1.1 mph S1.8 kmh S 1.7 mph2.7 kmh 30.01 in1016.3 mb 0.00 in0.0 mm 0.00 in0.0 mm 0.00 in0.0 mm
04:31 AM 31.6°F-0.2°C 31.4°F-0.3°C 99% Calm Calm 1.7 mph2.7 kmh 30.01 in1016.3 mb 0.00 in0.0 mm 0.00 in0.0 mm 0.00 in0.0 mm
04:32 AM 31.6°F-0.2°C 31.4°F-0.3°C 99% 1.1 mph SSE1.8 kmh SSE 1.7 mph2.7 kmh 30.01 in1016.3 mb 0.00 in0.0 mm 0.00 in0.0 mm 0.00 in0.0 mm
04:33 AM 31.6°F-0.2°C 31.4°F-0.3°C 99% 1.7 mph ESE2.7 kmh ESE 1.7 mph2.7 kmh 30.01 in1016.3 mb 0.00 in0.0 mm 0.00 in0.0 mm 0.00 in0.0 mm
04:34 AM 31.6°F-0.2°C 31.4°F-0.3°C 99% 1.1 mph SSW1.8 kmh SSW 1.7 mph2.7 kmh 30.01 in1016.3 mb 0.00 in0.0 mm 0.00 in0.0 mm 0.00 in0.0 mm
04:35 AM 31.6°F-0.2°C 31.4°F-0.3°C 99% 1.7 mph SSW2.7 kmh SSW 1.7 mph2.7 kmh 30.01 in1016.3 mb 0.00 in0.0 mm 0.00 in0.0 mm 0.00 in0.0 mm
04:36 AM 31.6°F-0.2°C 31.4°F-0.3°C 99% 2.2 mph SSW3.5 kmh SSW 2.2 mph3.5 kmh 30.01 in1016.3 mb 0.00 in0.0 mm 0.00 in0.0 mm 0.00 in0.0 mm
04:37 AM 31.6°F-0.2°C 31.4°F-0.3°C 99% 1.1 mph SSE1.8 kmh SSE 2.2 mph3.5 kmh 30.01 in1016.3 mb 0.00 in0.0 mm 0.00 in0.0 mm 0.00 in0.0 mm
04:38 AM 31.6°F-0.2°C 31.4°F-0.3°C 99% 1.7 mph SSE2.7 kmh SSE 2.2 mph3.5 kmh 30.01 in1016.3 mb 0.00 in0.0 mm 0.00 in0.0 mm 0.00 in0.0 mm
04:39 AM 31.6°F-0.2°C 31.4°F-0.3°C 99% Calm Calm 2.2 mph3.5 kmh 30.01 in1016.3 mb 0.00 in0.0 mm 0.00 in0.0 mm 0.00 in0.0 mm
04:40 AM 31.6°F-0.2°C 31.4°F-0.3°C 99% Calm Calm 2.2 mph3.5 kmh 30.01 in1016.3 mb 0.00 in0.0 mm 0.00 in0.0 mm 0.00 in0.0 mm
04:41 AM 31.6°F-0.2°C 31.4°F-0.3°C 99% Calm Calm 2.2 mph3.5 kmh 30.01 in1016.3 mb 0.00 in0.0 mm 0.00 in0.0 mm 0.00 in0.0 mm
04:42 AM 31.6°F-0.2°C 31.4°F-0.3°C 99% Calm Calm 2.2 mph3.5 kmh 30.01 in1016.3 mb 0.00 in0.0 mm 0.00 in0.0 mm 0.00 in0.0 mm
04:43 AM 31.6°F-0.2°C 31.4°F-0.3°C 99% Calm Calm 2.2 mph3.5 kmh 30.01 in1016.3 mb 0.00 in0.0 mm 0.00 in0.0 mm 0.00 in0.0 mm
04:44 AM 31.6°F-0.2°C 31.4°F-0.3°C 99% Calm Calm 2.2 mph3.5 kmh 30.01 in1016.3 mb 0.00 in0.0 mm 0.00 in0.0 mm 0.00 in0.0 mm
04:45 AM 31.6°F-0.2°C 31.4°F-0.3°C 99% 1.1 mph SW1.8 kmh SW 2.2 mph3.5 kmh 30.01 in1016.3 mb 0.00 in0.0 mm 0.00 in0.0 mm 0.00 in0.0 mm
04:46 AM 31.6°F-0.2°C 31.4°F-0.3°C 99% Calm Calm 1.7 mph2.7 kmh 30.01 in1016.3 mb 0.00 in0.0 mm 0.00 in0.0 mm 0.00 in0.0 mm
04:47 AM 31.6°F-0.2°C 31.4°F-0.3°C 99% Calm Calm 1.7 mph2.7 kmh 30.01 in1016.3 mb 0.00 in0.0 mm 0.00 in0.0 mm 0.00 in0.0 mm
04:48 AM 31.6°F-0.2°C 31.4°F-0.3°C 99% Calm Calm 1.7 mph2.7 kmh 30.01 in1016.3 mb 0.00 in0.0 mm 0.00 in0.0 mm 0.00 in0.0 mm
04:49 AM 31.6°F-0.2°C 31.4°F-0.3°C 99% 1.1 mph W1.8 kmh W 1.1 mph1.8 kmh 30.01 in1016.3 mb 0.00 in0.0 mm 0.00 in0.0 mm 0.00 in0.0 mm
04:50 AM 31.6°F-0.2°C 31.4°F-0.3°C 99% 1.1 mph W1.8 kmh W 1.7 mph2.7 kmh 30.01 in1016.3 mb 0.00 in0.0 mm 0.00 in0.0 mm 0.00 in0.0 mm
04:51 AM 31.6°F-0.2°C 31.4°F-0.3°C 99% Calm Calm 1.7 mph2.7 kmh 30.01 in1016.3 mb 0.00 in0.0 mm 0.00 in0.0 mm 0.00 in0.0 mm
04:52 AM 31.6°F-0.2°C 31.4°F-0.3°C 99% 1.7 mph W2.7 kmh W 1.7 mph2.7 kmh 30.01 in1016.3 mb 0.00 in0.0 mm 0.00 in0.0 mm 0.00 in0.0 mm
04:53 AM 31.6°F-0.2°C 31.4°F-0.3°C 99% Calm Calm 1.7 mph2.7 kmh 30.01 in1016.3 mb 0.00 in0.0 mm 0.00 in0.0 mm 0.00 in0.0 mm
04:54 AM 31.6°F-0.2°C 31.4°F-0.3°C 99% Calm Calm 1.7 mph2.7 kmh 30.01 in1016.3 mb 0.00 in0.0 mm 0.00 in0.0 mm 0.00 in0.0 mm
04:55 AM 31.6°F-0.2°C 31.4°F-0.3°C 99% 1.1 mph WSW1.8 kmh WSW 1.7 mph2.7 kmh 30.01 in1016.3 mb 0.00 in0.0 mm 0.00 in0.0 mm 0.00 in0.0 mm
04:56 AM 31.6°F-0.2°C 31.4°F-0.3°C 99% Calm Calm 1.7 mph2.7 kmh 30.01 in1016.3 mb 0.00 in0.0 mm 0.00 in0.0 mm 0.00 in0.0 mm
04:57 AM 31.6°F-0.2°C 31.4°F-0.3°C 99% Calm Calm 1.7 mph2.7 kmh 30.01 in1016.3 mb 0.00 in0.0 mm 0.00 in0.0 mm 0.00 in0.0 mm
04:58 AM 31.6°F-0.2°C 31.4°F-0.3°C 99% Calm Calm 1.7 mph2.7 kmh 30.01 in1016.3 mb 0.00 in0.0 mm 0.00 in0.0 mm 0.00 in0.0 mm
04:59 AM 31.6°F-0.2°C 31.4°F-0.3°C 99% Calm Calm 1.7 mph2.7 kmh 30.01 in1016.3 mb 0.00 in0.0 mm 0.00 in0.0 mm 0.00 in0.0 mm
05:00 AM 31.6°F-0.2°C 31.4°F-0.3°C 99% Calm Calm 1.7 mph2.7 kmh 30.01 in1016.3 mb 0.00 in0.0 mm 0.00 in0.0 mm 0.00 in0.0 mm
05:01 AM 31.6°F-0.2°C 31.4°F-0.3°C 99% Calm Calm 1.7 mph2.7 kmh 30.01 in1016.3 mb 0.00 in0.0 mm 0.00 in0.0 mm 0.00 in0.0 mm
05:02 AM 31.6°F-0.2°C 31.4°F-0.3°C 99% Calm Calm 1.7 mph2.7 kmh 30.01 in1016.3 mb 0.00 in0.0 mm 0.00 in0.0 mm 0.00 in0.0 mm
05:03 AM 31.6°F-0.2°C 31.4°F-0.3°C 99% 1.1 mph S1.8 kmh S 1.7 mph2.7 kmh 30.01 in1016.3 mb 0.00 in0.0 mm 0.00 in0.0 mm 0.00 in0.0 mm
05:04 AM 31.8°F-0.1°C 31.6°F-0.2°C 99% Calm Calm 1.7 mph2.7 kmh 30.01 in1016.3 mb 0.00 in0.0 mm 0.00 in0.0 mm 0.00 in0.0 mm
05:05 AM 31.8°F-0.1°C 31.6°F-0.2°C 99% 1.1 mph SSW1.8 kmh SSW 1.7 mph2.7 kmh 30.01 in1016.3 mb 0.00 in0.0 mm 0.00 in0.0 mm 0.00 in0.0 mm
05:06 AM 31.8°F-0.1°C 31.6°F-0.2°C 99% Calm Calm 1.1 mph1.8 kmh 30.01 in1016.3 mb 0.00 in0.0 mm 0.00 in0.0 mm 0.00 in0.0 mm
05:07 AM 31.8°F-0.1°C 31.6°F-0.2°C 99% Calm Calm 1.1 mph1.8 kmh 30.01 in1016.3 mb 0.00 in0.0 mm 0.00 in0.0 mm 0.00 in0.0 mm
05:08 AM 31.8°F-0.1°C 31.6°F-0.2°C 99% Calm Calm 1.1 mph1.8 kmh 30.01 in1016.3 mb 0.00 in0.0 mm 0.00 in0.0 mm 0.00 in0.0 mm
05:09 AM 31.8°F-0.1°C 31.6°F-0.2°C 99% Calm Calm 1.1 mph1.8 kmh 30.01 in1016.3 mb 0.00 in0.0 mm 0.00 in0.0 mm 0.00 in0.0 mm
05:10 AM 31.8°F-0.1°C 31.6°F-0.2°C 99% Calm Calm 1.1 mph1.8 kmh 30.01 in1016.3 mb 0.00 in0.0 mm 0.00 in0.0 mm 0.00 in0.0 mm
05:11 AM 31.8°F-0.1°C 31.6°F-0.2°C 99% 2.2 mph SW3.5 kmh SW 2.2 mph3.5 kmh 30.01 in1016.3 mb 0.00 in0.0 mm 0.00 in0.0 mm 0.00 in0.0 mm
05:12 AM 32.0°F0.0°C 31.8°F-0.1°C 99% 2.2 mph WSW3.5 kmh WSW 2.2 mph3.5 kmh 30.01 in1016.3 mb 0.00 in0.0 mm 0.00 in0.0 mm 0.00 in0.0 mm
05:13 AM 32.0°F0.0°C 31.8°F-0.1°C 99% 1.7 mph W2.7 kmh W 2.2 mph3.5 kmh 30.01 in1016.3 mb 0.00 in0.0 mm 0.00 in0.0 mm 0.00 in0.0 mm
05:14 AM 32.0°F0.0°C 31.8°F-0.1°C 99% 2.2 mph W3.5 kmh W 2.2 mph3.5 kmh 30.01 in1016.3 mb 0.00 in0.0 mm 0.00 in0.0 mm 0.00 in0.0 mm
05:15 AM 32.0°F0.0°C 31.8°F-0.1°C 99% Calm Calm 2.2 mph3.5 kmh 30.01 in1016.3 mb 0.00 in0.0 mm 0.00 in0.0 mm 0.00 in0.0 mm
05:16 AM 32.2°F0.1°C 32.0°F0.0°C 99% Calm Calm 2.2 mph3.5 kmh 30.01 in1016.3 mb 0.00 in0.0 mm 0.00 in0.0 mm 0.00 in0.0 mm
05:17 AM 32.2°F0.1°C 32.0°F0.0°C 99% 1.7 mph NNW2.7 kmh NNW 2.2 mph3.5 kmh 30.01 in1016.3 mb 0.00 in0.0 mm 0.00 in0.0 mm 0.00 in0.0 mm
05:18 AM 32.2°F0.1°C 32.0°F0.0°C 99% 1.7 mph W2.7 kmh W 2.2 mph3.5 kmh 30.01 in1016.3 mb 0.00 in0.0 mm 0.00 in0.0 mm 0.00 in0.0 mm
05:19 AM 32.2°F0.1°C 32.0°F0.0°C 99% 2.2 mph W3.5 kmh W 2.2 mph3.5 kmh 30.01 in1016.3 mb 0.00 in0.0 mm 0.00 in0.0 mm 0.00 in0.0 mm
05:20 AM 32.4°F0.2°C 32.2°F0.1°C 99% 3.2 mph WNW5.1 kmh WNW 3.7 mph6.0 kmh 30.01 in1016.3 mb 0.00 in0.0 mm 0.00 in0.0 mm 0.00 in0.0 mm
05:21 AM 32.5°F0.3°C 32.3°F0.2°C 99% 3.2 mph W5.1 kmh W 3.7 mph6.0 kmh 30.01 in1016.3 mb 0.00 in0.0 mm 0.00 in0.0 mm 0.00 in0.0 mm
05:22 AM 32.5°F0.3°C 32.3°F0.2°C 99% 2.2 mph W3.5 kmh W 3.7 mph6.0 kmh 30.01 in1016.3 mb 0.00 in0.0 mm 0.00 in0.0 mm 0.00 in0.0 mm
05:23 AM 32.7°F0.4°C 32.5°F0.3°C 99% 2.2 mph W3.5 kmh W 3.7 mph6.0 kmh 30.01 in1016.3 mb 0.00 in0.0 mm 0.00 in0.0 mm 0.00 in0.0 mm
05:24 AM 32.7°F0.4°C 32.5°F0.3°C 99% 1.7 mph WNW2.7 kmh WNW 3.7 mph6.0 kmh 30.01 in1016.3 mb 0.00 in0.0 mm 0.00 in0.0 mm 0.00 in0.0 mm
05:25 AM 32.9°F0.5°C 32.7°F0.4°C 99% 3.7 mph NW6.0 kmh NW 3.7 mph6.0 kmh 30.01 in1016.3 mb 0.00 in0.0 mm 0.00 in0.0 mm 0.00 in0.0 mm
05:26 AM 32.9°F0.5°C 32.7°F0.4°C 99% 4.2 mph NW6.8 kmh NW 4.2 mph6.8 kmh 30.01 in1016.3 mb 0.00 in0.0 mm 0.00 in0.0 mm 0.00 in0.0 mm
05:27 AM 33.1°F0.6°C 32.8°F0.4°C 99% 3.7 mph W6.0 kmh W 4.7 mph7.6 kmh 30.01 in1016.3 mb 0.00 in0.0 mm 0.00 in0.0 mm 0.00 in0.0 mm
05:28 AM 33.1°F0.6°C 32.8°F0.4°C 99% 2.7 mph SW4.3 kmh SW 4.7 mph7.6 kmh 30.01 in1016.3 mb 0.00 in0.0 mm 0.00 in0.0 mm 0.00 in0.0 mm
05:29 AM 33.3°F0.7°C 33.0°F0.6°C 99% 4.2 mph W6.8 kmh W 4.7 mph7.6 kmh 30.02 in1016.6 mb 0.00 in0.0 mm 0.00 in0.0 mm 0.00 in0.0 mm
05:30 AM 33.3°F0.7°C 33.0°F0.6°C 99% 4.7 mph W7.6 kmh W 4.7 mph7.6 kmh 30.02 in1016.6 mb 0.00 in0.0 mm 0.00 in0.0 mm 0.00 in0.0 mm
05:31 AM 33.3°F0.7°C 33.0°F0.6°C 99% 5.8 mph W9.3 kmh W 5.8 mph9.3 kmh 30.02 in1016.6 mb 0.00 in0.0 mm 0.00 in0.0 mm 0.00 in0.0 mm
05:32 AM 33.4°F0.8°C 33.1°F0.6°C 99% 4.2 mph W6.8 kmh W 5.8 mph9.3 kmh 30.02 in1016.6 mb 0.00 in0.0 mm 0.00 in0.0 mm 0.00 in0.0 mm
05:33 AM 33.4°F0.8°C 33.1°F0.6°C 99% 2.7 mph W4.3 kmh W 5.8 mph9.3 kmh 30.02 in1016.6 mb 0.00 in0.0 mm 0.00 in0.0 mm 0.00 in0.0 mm
05:34 AM 33.4°F0.8°C 33.1°F0.6°C 99% 3.7 mph NW6.0 kmh NW 5.8 mph9.3 kmh 30.02 in1016.6 mb 0.00 in0.0 mm 0.00 in0.0 mm 0.00 in0.0 mm
05:35 AM 33.6°F0.9°C 33.3°F0.7°C 99% 6.3 mph W10.1 kmh W 6.3 mph10.1 kmh 30.02 in1016.6 mb 0.00 in0.0 mm 0.00 in0.0 mm 0.00 in0.0 mm
05:36 AM 33.6°F0.9°C 33.3°F0.7°C 99% 3.7 mph W6.0 kmh W 6.3 mph10.1 kmh 30.02 in1016.6 mb 0.00 in0.0 mm 0.00 in0.0 mm 0.00 in0.0 mm
05:37 AM 33.6°F0.9°C 33.3°F0.7°C 99% 2.7 mph SW4.3 kmh SW 6.3 mph10.1 kmh 30.02 in1016.6 mb 0.00 in0.0 mm 0.00 in0.0 mm 0.00 in0.0 mm
05:38 AM 33.6°F0.9°C 33.3°F0.7°C 99% 3.7 mph WNW6.0 kmh WNW 6.3 mph10.1 kmh 30.02 in1016.6 mb 0.00 in0.0 mm 0.00 in0.0 mm 0.00 in0.0 mm
05:39 AM 33.6°F0.9°C 33.3°F0.7°C 99% 5.3 mph W8.5 kmh W 6.3 mph10.1 kmh 30.02 in1016.6 mb 0.00 in0.0 mm 0.00 in0.0 mm 0.00 in0.0 mm
05:40 AM 33.6°F0.9°C 33.3°F0.7°C 99% 2.7 mph WSW4.3 kmh WSW 6.3 mph10.1 kmh 30.02 in1016.6 mb 0.00 in0.0 mm 0.00 in0.0 mm 0.00 in0.0 mm
05:41 AM 33.6°F0.9°C 33.3°F0.7°C 99% 6.3 mph NNE10.1 kmh NNE 6.3 mph10.1 kmh 30.02 in1016.6 mb 0.00 in0.0 mm 0.00 in0.0 mm 0.00 in0.0 mm
05:42 AM 33.6°F0.9°C 33.3°F0.7°C 99% 3.7 mph NNW6.0 kmh NNW 6.3 mph10.1 kmh 30.02 in1016.6 mb 0.00 in0.0 mm 0.00 in0.0 mm 0.00 in0.0 mm
05:43 AM 33.8°F1.0°C 33.5°F0.8°C 99% 4.7 mph W7.6 kmh W 6.3 mph10.1 kmh 30.02 in1016.6 mb 0.00 in0.0 mm 0.00 in0.0 mm 0.00 in0.0 mm
05:44 AM 33.8°F1.0°C 33.5°F0.8°C 99% 2.7 mph NNE4.3 kmh NNE 6.3 mph10.1 kmh 30.02 in1016.6 mb 0.00 in0.0 mm 0.00 in0.0 mm 0.00 in0.0 mm
05:45 AM 33.8°F1.0°C 33.5°F0.8°C 99% 3.7 mph W6.0 kmh W 6.3 mph10.1 kmh 30.02 in1016.6 mb 0.00 in0.0 mm 0.00 in0.0 mm 0.00 in0.0 mm
05:46 AM 33.8°F1.0°C 33.5°F0.8°C 99% 4.2 mph W6.8 kmh W 6.3 mph10.1 kmh 30.02 in1016.6 mb 0.00 in0.0 mm 0.00 in0.0 mm 0.00 in0.0 mm
05:47 AM 33.8°F1.0°C 33.5°F0.8°C 99% 3.2 mph W5.1 kmh W 6.3 mph10.1 kmh 30.02 in1016.6 mb 0.00 in0.0 mm 0.00 in0.0 mm 0.00 in0.0 mm
05:48 AM 33.8°F1.0°C 33.5°F0.8°C 99% 3.2 mph W5.1 kmh W 6.3 mph10.1 kmh 30.02 in1016.6 mb 0.00 in0.0 mm 0.00 in0.0 mm 0.00 in0.0 mm
05:49 AM 33.8°F1.0°C 33.5°F0.8°C 99% 4.2 mph WNW6.8 kmh WNW 6.3 mph10.1 kmh 30.02 in1016.6 mb 0.00 in0.0 mm 0.00 in0.0 mm 0.00 in0.0 mm
05:50 AM 34.0°F1.1°C 33.7°F0.9°C 99% 3.7 mph W6.0 kmh W 6.8 mph10.9 kmh 30.02 in1016.6 mb 0.00 in0.0 mm 0.00 in0.0 mm 0.00 in0.0 mm
05:51 AM 34.0°F1.1°C 33.7°F0.9°C 99% 4.7 mph W7.6 kmh W 6.8 mph10.9 kmh 30.02 in1016.6 mb 0.00 in0.0 mm 0.00 in0.0 mm 0.00 in0.0 mm
05:52 AM 34.0°F1.1°C 33.7°F0.9°C 99% 4.2 mph W6.8 kmh W 6.8 mph10.9 kmh 30.02 in1016.6 mb 0.00 in0.0 mm 0.00 in0.0 mm 0.00 in0.0 mm
05:53 AM 34.0°F1.1°C 33.7°F0.9°C 99% 4.2 mph W6.8 kmh W 6.8 mph10.9 kmh 30.02 in1016.6 mb 0.00 in0.0 mm 0.00 in0.0 mm 0.00 in0.0 mm
05:54 AM 34.0°F1.1°C 33.7°F0.9°C 99% 3.2 mph W5.1 kmh W 6.8 mph10.9 kmh 30.02 in1016.6 mb 0.00 in0.0 mm 0.00 in0.0 mm 0.00 in0.0 mm
05:55 AM 34.0°F1.1°C 33.7°F0.9°C 99% 4.7 mph WNW7.6 kmh WNW 6.8 mph10.9 kmh 30.02 in1016.6 mb 0.00 in0.0 mm 0.00 in0.0 mm 0.00 in0.0 mm
05:56 AM 34.0°F1.1°C 33.7°F0.9°C 99% 3.2 mph N5.1 kmh N 6.8 mph10.9 kmh 30.02 in1016.6 mb 0.00 in0.0 mm 0.00 in0.0 mm 0.00 in0.0 mm
05:57 AM 34.0°F1.1°C 33.7°F0.9°C 99% 4.7 mph W7.6 kmh W 6.8 mph10.9 kmh 30.02 in1016.6 mb 0.00 in0.0 mm 0.00 in0.0 mm 0.00 in0.0 mm
05:58 AM 34.0°F1.1°C 33.7°F0.9°C 99% 5.3 mph WSW8.5 kmh WSW 6.8 mph10.9 kmh 30.02 in1016.6 mb 0.00 in0.0 mm 0.00 in0.0 mm 0.00 in0.0 mm
05:59 AM 34.0°F1.1°C 33.7°F0.9°C 99% 4.2 mph W6.8 kmh W 6.8 mph10.9 kmh 30.02 in1016.6 mb 0.00 in0.0 mm 0.00 in0.0 mm 0.00 in0.0 mm
06:00 AM 34.0°F1.1°C 33.7°F0.9°C 99% 4.2 mph W6.8 kmh W 5.3 mph8.5 kmh 30.02 in1016.6 mb 0.00 in0.0 mm 0.00 in0.0 mm 0.00 in0.0 mm
06:01 AM 34.0°F1.1°C 33.7°F0.9°C 99% 6.3 mph W10.1 kmh W 6.3 mph10.1 kmh 30.02 in1016.6 mb 0.00 in0.0 mm 0.00 in0.0 mm 0.00 in0.0 mm
06:02 AM 34.0°F1.1°C 33.7°F0.9°C 99% 5.3 mph W8.5 kmh W 6.3 mph10.1 kmh 30.02 in1016.6 mb 0.00 in0.0 mm 0.00 in0.0 mm 0.00 in0.0 mm
06:03 AM 34.0°F1.1°C 33.7°F0.9°C 99% 4.7 mph W7.6 kmh W 6.3 mph10.1 kmh 30.02 in1016.6 mb 0.00 in0.0 mm 0.00 in0.0 mm 0.00 in0.0 mm
06:04 AM 34.0°F1.1°C 33.7°F0.9°C 99% 4.2 mph WSW6.8 kmh WSW 6.3 mph10.1 kmh 30.02 in1016.6 mb 0.00 in0.0 mm 0.00 in0.0 mm 0.00 in0.0 mm
06:05 AM 34.0°F1.1°C 33.7°F0.9°C 99% 4.2 mph NW6.8 kmh NW 6.3 mph10.1 kmh 30.03 in1016.9 mb 0.00 in0.0 mm 0.00 in0.0 mm 0.00 in0.0 mm
06:06 AM 34.2°F1.2°C 33.9°F1.1°C 99% 3.2 mph W5.1 kmh W 6.3 mph10.1 kmh 30.03 in1016.9 mb 0.00 in0.0 mm 0.00 in0.0 mm 0.00 in0.0 mm
06:07 AM 34.2°F1.2°C 33.9°F1.1°C 99% 3.2 mph W5.1 kmh W 6.3 mph10.1 kmh 30.03 in1016.9 mb 0.00 in0.0 mm 0.00 in0.0 mm 0.00 in0.0 mm
06:08 AM 34.2°F1.2°C 33.9°F1.1°C 99% 4.2 mph NW6.8 kmh NW 6.3 mph10.1 kmh 30.03 in1016.9 mb 0.00 in0.0 mm 0.00 in0.0 mm 0.00 in0.0 mm
06:09 AM 34.2°F1.2°C 33.9°F1.1°C 99% 4.7 mph WNW7.6 kmh WNW 6.3 mph10.1 kmh 30.03 in1016.9 mb 0.00 in0.0 mm 0.00 in0.0 mm 0.00 in0.0 mm
06:10 AM 34.2°F1.2°C 33.9°F1.1°C 99% 3.7 mph WNW6.0 kmh WNW 6.3 mph10.1 kmh 30.03 in1016.9 mb 0.00 in0.0 mm 0.00 in0.0 mm 0.00 in0.0 mm
06:11 AM 34.2°F1.2°C 33.9°F1.1°C 99% 7.3 mph NNW11.7 kmh NNW 7.3 mph11.7 kmh 30.03 in1016.9 mb 0.01 in0.3 mm 0.60 in15.2 mm 0.01 in0.3 mm
06:12 AM 34.2°F1.2°C 33.9°F1.1°C 99% 4.2 mph WNW6.8 kmh WNW 7.3 mph11.7 kmh 30.03 in1016.9 mb 0.01 in0.3 mm 0.00 in0.0 mm 0.01 in0.3 mm
06:13 AM 34.2°F1.2°C 33.9°F1.1°C 99% 6.3 mph W10.1 kmh W 7.8 mph12.6 kmh 30.03 in1016.9 mb 0.01 in0.3 mm 0.00 in0.0 mm 0.01 in0.3 mm
06:14 AM 34.3°F1.3°C 34.0°F1.1°C 99% 4.2 mph W6.8 kmh W 7.8 mph12.6 kmh 30.03 in1016.9 mb 0.01 in0.3 mm 0.00 in0.0 mm 0.01 in0.3 mm
06:15 AM 34.3°F1.3°C 34.0°F1.1°C 99% 3.7 mph WSW6.0 kmh WSW 7.8 mph12.6 kmh 30.03 in1016.9 mb 0.01 in0.3 mm 0.00 in0.0 mm 0.01 in0.3 mm
06:16 AM 34.3°F1.3°C 34.0°F1.1°C 99% 10.4 mph N16.7 kmh N 10.4 mph16.7 kmh 30.03 in1016.9 mb 0.01 in0.3 mm 0.00 in0.0 mm 0.01 in0.3 mm
06:17 AM 34.3°F1.3°C 34.0°F1.1°C 99% 6.3 mph W10.1 kmh W 10.4 mph16.7 kmh 30.03 in1016.9 mb 0.01 in0.3 mm 0.00 in0.0 mm 0.01 in0.3 mm
06:18 AM 34.5°F1.4°C 34.2°F1.2°C 99% 6.3 mph W10.1 kmh W 10.4 mph16.7 kmh 30.03 in1016.9 mb 0.01 in0.3 mm 0.00 in0.0 mm 0.01 in0.3 mm
06:19 AM 34.5°F1.4°C 34.2°F1.2°C 99% 5.3 mph W8.5 kmh W 10.4 mph16.7 kmh 30.03 in1016.9 mb 0.01 in0.3 mm 0.00 in0.0 mm 0.01 in0.3 mm
06:20 AM 34.5°F1.4°C 34.2°F1.2°C 99% 8.9 mph W14.3 kmh W 10.9 mph17.5 kmh 30.03 in1016.9 mb 0.01 in0.3 mm 0.00 in0.0 mm 0.01 in0.3 mm
06:21 AM 34.5°F1.4°C 34.2°F1.2°C 99% 7.3 mph W11.7 kmh W 10.9 mph17.5 kmh 30.03 in1016.9 mb 0.01 in0.3 mm 0.00 in0.0 mm 0.01 in0.3 mm
06:22 AM 34.5°F1.4°C 34.2°F1.2°C 99% 6.8 mph N10.9 kmh N 10.9 mph17.5 kmh 30.03 in1016.9 mb 0.01 in0.3 mm 0.00 in0.0 mm 0.01 in0.3 mm
06:23 AM 34.5°F1.4°C 34.2°F1.2°C 99% 7.8 mph W12.6 kmh W 10.9 mph17.5 kmh 30.03 in1016.9 mb 0.01 in0.3 mm 0.00 in0.0 mm 0.01 in0.3 mm
06:24 AM 34.5°F1.4°C 34.2°F1.2°C 99% 9.9 mph W15.9 kmh W 10.9 mph17.5 kmh 30.03 in1016.9 mb 0.01 in0.3 mm 0.00 in0.0 mm 0.01 in0.3 mm
06:25 AM 34.5°F1.4°C 34.2°F1.2°C 99% 6.3 mph NNW10.1 kmh NNW 10.9 mph17.5 kmh 30.03 in1016.9 mb 0.02 in0.5 mm 0.60 in15.2 mm 0.02 in0.5 mm
06:26 AM 34.5°F1.4°C 34.2°F1.2°C 99% 6.8 mph WSW10.9 kmh WSW 10.9 mph17.5 kmh 30.03 in1016.9 mb 0.02 in0.5 mm 0.00 in0.0 mm 0.02 in0.5 mm
06:27 AM 34.5°F1.4°C 34.2°F1.2°C 99% 7.8 mph WNW12.6 kmh WNW 10.9 mph17.5 kmh 30.03 in1016.9 mb 0.02 in0.5 mm 0.00 in0.0 mm 0.02 in0.5 mm
06:28 AM 34.5°F1.4°C 34.2°F1.2°C 99% 6.3 mph W10.1 kmh W 10.9 mph17.5 kmh 30.03 in1016.9 mb 0.02 in0.5 mm 0.00 in0.0 mm 0.02 in0.5 mm
06:29 AM 34.5°F1.4°C 34.2°F1.2°C 99% 10.9 mph WSW17.5 kmh WSW 12.5 mph20.1 kmh 30.04 in1017.3 mb 0.02 in0.5 mm 0.00 in0.0 mm 0.02 in0.5 mm
06:30 AM 34.3°F1.3°C 34.0°F1.1°C 99% 6.3 mph W10.1 kmh W 12.5 mph20.1 kmh 30.04 in1017.3 mb 0.02 in0.5 mm 0.00 in0.0 mm 0.02 in0.5 mm
06:31 AM 34.3°F1.3°C 34.0°F1.1°C 99% 7.3 mph WNW11.7 kmh WNW 12.5 mph20.1 kmh 30.04 in1017.3 mb 0.02 in0.5 mm 0.00 in0.0 mm 0.02 in0.5 mm
06:32 AM 34.2°F1.2°C 33.9°F1.1°C 99% 6.3 mph W10.1 kmh W 12.5 mph20.1 kmh 30.04 in1017.3 mb 0.02 in0.5 mm 0.00 in0.0 mm 0.02 in0.5 mm
06:33 AM 34.2°F1.2°C 33.9°F1.1°C 99% 8.3 mph NNW13.4 kmh NNW 12.5 mph20.1 kmh 30.04 in1017.3 mb 0.02 in0.5 mm 0.00 in0.0 mm 0.02 in0.5 mm
06:34 AM 34.2°F1.2°C 33.9°F1.1°C 99% 4.7 mph W7.6 kmh W 12.5 mph20.1 kmh 30.04 in1017.3 mb 0.02 in0.5 mm 0.00 in0.0 mm 0.02 in0.5 mm
06:35 AM 34.0°F1.1°C 33.7°F0.9°C 99% 8.3 mph N13.4 kmh N 12.5 mph20.1 kmh 30.04 in1017.3 mb 0.03 in0.8 mm 0.60 in15.2 mm 0.03 in0.8 mm
06:36 AM 33.8°F1.0°C 33.5°F0.8°C 99% 5.3 mph W8.5 kmh W 12.5 mph20.1 kmh 30.04 in1017.3 mb 0.03 in0.8 mm 0.00 in0.0 mm 0.03 in0.8 mm
06:37 AM 33.8°F1.0°C 33.5°F0.8°C 99% 5.8 mph W9.3 kmh W 12.5 mph20.1 kmh 30.04 in1017.3 mb 0.03 in0.8 mm 0.00 in0.0 mm 0.03 in0.8 mm
06:38 AM 33.8°F1.0°C 33.5°F0.8°C 99% 4.2 mph NNE6.8 kmh NNE 12.5 mph20.1 kmh 30.04 in1017.3 mb 0.03 in0.8 mm 0.00 in0.0 mm 0.03 in0.8 mm
06:39 AM 33.8°F1.0°C 33.5°F0.8°C 99% 6.8 mph SW10.9 kmh SW 10.9 mph17.5 kmh 30.04 in1017.3 mb 0.03 in0.8 mm 0.00 in0.0 mm 0.03 in0.8 mm
06:40 AM 33.6°F0.9°C 33.3°F0.7°C 99% 5.3 mph W8.5 kmh W 8.9 mph14.3 kmh 30.04 in1017.3 mb 0.03 in0.8 mm 0.00 in0.0 mm 0.03 in0.8 mm
06:41 AM 33.6°F0.9°C 33.3°F0.7°C 99% 7.3 mph NW11.7 kmh NW 8.9 mph14.3 kmh 30.04 in1017.3 mb 0.03 in0.8 mm 0.00 in0.0 mm 0.03 in0.8 mm
06:42 AM 33.6°F0.9°C 33.3°F0.7°C 99% 4.7 mph ENE7.6 kmh ENE 8.9 mph14.3 kmh 30.04 in1017.3 mb 0.03 in0.8 mm 0.00 in0.0 mm 0.03 in0.8 mm
06:43 AM 33.6°F0.9°C 33.3°F0.7°C 99% 3.7 mph SW6.0 kmh SW 8.3 mph13.4 kmh 30.04 in1017.3 mb 0.03 in0.8 mm 0.00 in0.0 mm 0.03 in0.8 mm
06:44 AM 33.4°F0.8°C 33.1°F0.6°C 99% 5.3 mph W8.5 kmh W 8.3 mph13.4 kmh 30.04 in1017.3 mb 0.03 in0.8 mm 0.00 in0.0 mm 0.03 in0.8 mm
06:45 AM 33.4°F0.8°C 33.1°F0.6°C 99% 4.7 mph SW7.6 kmh SW 8.3 mph13.4 kmh 30.04 in1017.3 mb 0.04 in1.0 mm 0.60 in15.2 mm 0.04 in1.0 mm
06:46 AM 33.4°F0.8°C 33.1°F0.6°C 99% 4.7 mph SSW7.6 kmh SSW 7.8 mph12.6 kmh 30.04 in1017.3 mb 0.04 in1.0 mm 0.00 in0.0 mm 0.04 in1.0 mm
06:47 AM 33.4°F0.8°C 33.1°F0.6°C 99% 2.7 mph NNE4.3 kmh NNE 7.8 mph12.6 kmh 30.04 in1017.3 mb 0.04 in1.0 mm 0.00 in0.0 mm 0.04 in1.0 mm
06:48 AM 33.4°F0.8°C 33.1°F0.6°C 99% 5.3 mph W8.5 kmh W 7.8 mph12.6 kmh 30.04 in1017.3 mb 0.04 in1.0 mm 0.00 in0.0 mm 0.04 in1.0 mm
06:49 AM 33.4°F0.8°C 33.1°F0.6°C 99% 4.7 mph W7.6 kmh W 7.8 mph12.6 kmh 30.04 in1017.3 mb 0.04 in1.0 mm 0.00 in0.0 mm 0.04 in1.0 mm
06:50 AM 33.4°F0.8°C 33.1°F0.6°C 99% 4.7 mph W7.6 kmh W 7.8 mph12.6 kmh 30.04 in1017.3 mb 0.04 in1.0 mm 0.00 in0.0 mm 0.04 in1.0 mm
06:51 AM 33.4°F0.8°C 33.1°F0.6°C 99% 4.7 mph NNW7.6 kmh NNW 7.8 mph12.6 kmh 30.04 in1017.3 mb 0.04 in1.0 mm 0.00 in0.0 mm 0.04 in1.0 mm
06:52 AM 33.4°F0.8°C 33.1°F0.6°C 99% 4.2 mph WSW6.8 kmh WSW 7.8 mph12.6 kmh 30.04 in1017.3 mb 0.04 in1.0 mm 0.00 in0.0 mm 0.04 in1.0 mm
06:53 AM 33.4°F0.8°C 33.1°F0.6°C 99% 4.2 mph NE6.8 kmh NE 7.8 mph12.6 kmh 30.05 in1017.6 mb 0.04 in1.0 mm 0.00 in0.0 mm 0.04 in1.0 mm
06:54 AM 33.4°F0.8°C 33.1°F0.6°C 99% 3.7 mph NNW6.0 kmh NNW 7.8 mph12.6 kmh 30.05 in1017.6 mb 0.04 in1.0 mm 0.00 in0.0 mm 0.04 in1.0 mm
06:55 AM 33.4°F0.8°C 33.1°F0.6°C 99% 4.7 mph NNE7.6 kmh NNE 7.8 mph12.6 kmh 30.05 in1017.6 mb 0.04 in1.0 mm 0.00 in0.0 mm 0.04 in1.0 mm
06:56 AM 33.4°F0.8°C 33.1°F0.6°C 99% 3.7 mph W6.0 kmh W 7.8 mph12.6 kmh 30.05 in1017.6 mb 0.04 in1.0 mm 0.00 in0.0 mm 0.04 in1.0 mm
06:57 AM 33.4°F0.8°C 33.1°F0.6°C 99% 3.2 mph W5.1 kmh W 7.8 mph12.6 kmh 30.05 in1017.6 mb 0.04 in1.0 mm 0.00 in0.0 mm 0.04 in1.0 mm
06:58 AM 33.4°F0.8°C 33.1°F0.6°C 99% 2.7 mph W4.3 kmh W 7.8 mph12.6 kmh 30.05 in1017.6 mb 0.04 in1.0 mm 0.00 in0.0 mm 0.04 in1.0 mm
06:59 AM 33.4°F0.8°C 33.1°F0.6°C 99% 4.7 mph W7.6 kmh W 7.8 mph12.6 kmh 30.05 in1017.6 mb 0.04 in1.0 mm 0.00 in0.0 mm 0.04 in1.0 mm
07:00 AM 33.4°F0.8°C 33.1°F0.6°C 99% 3.7 mph W6.0 kmh W 5.3 mph8.5 kmh 30.05 in1017.6 mb 0.04 in1.0 mm 0.00 in0.0 mm 0.04 in1.0 mm
07:01 AM 33.4°F0.8°C 33.1°F0.6°C 99% 3.7 mph W6.0 kmh W 5.3 mph8.5 kmh 30.05 in1017.6 mb 0.05 in1.3 mm 0.60 in15.2 mm 0.05 in1.3 mm
07:02 AM 33.4°F0.8°C 33.1°F0.6°C 99% 5.8 mph WNW9.3 kmh WNW 5.8 mph9.3 kmh 30.05 in1017.6 mb 0.05 in1.3 mm 0.00 in0.0 mm 0.05 in1.3 mm
07:03 AM 33.4°F0.8°C 33.1°F0.6°C 99% 4.7 mph WNW7.6 kmh WNW 5.8 mph9.3 kmh 30.05 in1017.6 mb 0.05 in1.3 mm 0.00 in0.0 mm 0.05 in1.3 mm
07:04 AM 33.4°F0.8°C 33.1°F0.6°C 99% 4.2 mph SW6.8 kmh SW 5.8 mph9.3 kmh 30.05 in1017.6 mb 0.05 in1.3 mm 0.00 in0.0 mm 0.05 in1.3 mm
07:05 AM 33.4°F0.8°C 33.1°F0.6°C 99% 4.2 mph W6.8 kmh W 5.8 mph9.3 kmh 30.06 in1017.9 mb 0.05 in1.3 mm 0.00 in0.0 mm 0.05 in1.3 mm
07:06 AM 33.4°F0.8°C 33.1°F0.6°C 99% 5.3 mph W8.5 kmh W 7.8 mph12.6 kmh 30.06 in1017.9 mb 0.05 in1.3 mm 0.00 in0.0 mm 0.05 in1.3 mm
07:07 AM 33.4°F0.8°C 33.1°F0.6°C 99% 5.8 mph W9.3 kmh W 7.8 mph12.6 kmh 30.06 in1017.9 mb 0.05 in1.3 mm 0.00 in0.0 mm 0.05 in1.3 mm
07:08 AM 33.4°F0.8°C 33.1°F0.6°C 99% 4.7 mph WNW7.6 kmh WNW 7.8 mph12.6 kmh 30.06 in1017.9 mb 0.05 in1.3 mm 0.00 in0.0 mm 0.05 in1.3 mm
07:09 AM 33.4°F0.8°C 33.1°F0.6°C 99% 3.2 mph NNW5.1 kmh NNW 7.8 mph12.6 kmh 30.06 in1017.9 mb 0.05 in1.3 mm 0.00 in0.0 mm 0.05 in1.3 mm
07:10 AM 33.3°F0.7°C 33.0°F0.6°C 99% 5.8 mph W9.3 kmh W 7.8 mph12.6 kmh 30.06 in1017.9 mb 0.05 in1.3 mm 0.00 in0.0 mm 0.05 in1.3 mm
07:11 AM 33.3°F0.7°C 33.0°F0.6°C 99% 3.7 mph W6.0 kmh W 7.8 mph12.6 kmh 30.06 in1017.9 mb 0.04 in1.0 mm 0.00 in0.0 mm 0.05 in1.3 mm
07:12 AM 33.3°F0.7°C 33.0°F0.6°C 99% 4.2 mph W6.8 kmh W 7.8 mph12.6 kmh 30.06 in1017.9 mb 0.04 in1.0 mm 0.00 in0.0 mm 0.05 in1.3 mm
07:13 AM 33.3°F0.7°C 33.0°F0.6°C 99% 3.7 mph NNW6.0 kmh NNW 7.8 mph12.6 kmh 30.06 in1017.9 mb 0.04 in1.0 mm 0.00 in0.0 mm 0.05 in1.3 mm
07:14 AM 33.1°F0.6°C 32.8°F0.4°C 99% 3.2 mph W5.1 kmh W 7.8 mph12.6 kmh 30.06 in1017.9 mb 0.04 in1.0 mm 0.00 in0.0 mm 0.05 in1.3 mm
07:15 AM 33.1°F0.6°C 32.8°F0.4°C 99% 2.7 mph W4.3 kmh W 7.8 mph12.6 kmh 30.06 in1017.9 mb 0.04 in1.0 mm 0.00 in0.0 mm 0.05 in1.3 mm
07:16 AM 33.1°F0.6°C 32.8°F0.4°C 99% 3.7 mph W6.0 kmh W 7.3 mph11.7 kmh 30.06 in1017.9 mb 0.04 in1.0 mm 0.00 in0.0 mm 0.05 in1.3 mm
07:17 AM 32.9°F0.5°C 32.7°F0.4°C 99% 4.2 mph W6.8 kmh W 6.8 mph10.9 kmh 30.06 in1017.9 mb 0.04 in1.0 mm 0.00 in0.0 mm 0.05 in1.3 mm
07:18 AM 32.9°F0.5°C 32.7°F0.4°C 99% 3.2 mph W5.1 kmh W 6.8 mph10.9 kmh 30.06 in1017.9 mb 0.04 in1.0 mm 0.00 in0.0 mm 0.05 in1.3 mm
07:19 AM 32.9°F0.5°C 32.7°F0.4°C 99% 5.8 mph W9.3 kmh W 6.8 mph10.9 kmh 30.06 in1017.9 mb 0.04 in1.0 mm 0.00 in0.0 mm 0.05 in1.3 mm
07:20 AM 32.9°F0.5°C 32.7°F0.4°C 99% 3.7 mph N6.0 kmh N 5.8 mph9.3 kmh 30.06 in1017.9 mb 0.04 in1.0 mm 0.00 in0.0 mm 0.05 in1.3 mm
07:21 AM 32.9°F0.5°C 32.7°F0.4°C 99% 4.2 mph W6.8 kmh W 5.8 mph9.3 kmh 30.06 in1017.9 mb 0.04 in1.0 mm 0.00 in0.0 mm 0.05 in1.3 mm
07:22 AM 32.9°F0.5°C 32.7°F0.4°C 99% 2.7 mph W4.3 kmh W 5.8 mph9.3 kmh 30.06 in1017.9 mb 0.04 in1.0 mm 0.00 in0.0 mm 0.05 in1.3 mm
07:23 AM 32.7°F0.4°C 32.5°F0.3°C 99% 5.8 mph W9.3 kmh W 5.8 mph9.3 kmh 30.06 in1017.9 mb 0.04 in1.0 mm 0.00 in0.0 mm 0.05 in1.3 mm
07:24 AM 32.7°F0.4°C 32.5°F0.3°C 99% 3.2 mph W5.1 kmh W 5.8 mph9.3 kmh 30.06 in1017.9 mb 0.04 in1.0 mm 0.00 in0.0 mm 0.05 in1.3 mm
07:25 AM 32.7°F0.4°C 32.5°F0.3°C 99% 3.2 mph W5.1 kmh W 5.8 mph9.3 kmh 30.06 in1017.9 mb 0.03 in0.8 mm 0.00 in0.0 mm 0.05 in1.3 mm
07:26 AM 32.7°F0.4°C 32.5°F0.3°C 99% 5.3 mph NNW8.5 kmh NNW 5.8 mph9.3 kmh 30.06 in1017.9 mb 0.03 in0.8 mm 0.00 in0.0 mm 0.05 in1.3 mm
07:27 AM 32.7°F0.4°C 32.5°F0.3°C 99% 4.7 mph NNW7.6 kmh NNW 5.8 mph9.3 kmh 30.06 in1017.9 mb 0.03 in0.8 mm 0.00 in0.0 mm 0.05 in1.3 mm
07:28 AM 32.7°F0.4°C 32.5°F0.3°C 99% 5.8 mph NNW9.3 kmh NNW 5.8 mph9.3 kmh 30.06 in1017.9 mb 0.03 in0.8 mm 0.00 in0.0 mm 0.05 in1.3 mm
07:29 AM 32.7°F0.4°C 32.5°F0.3°C 99% 3.2 mph W5.1 kmh W 5.8 mph9.3 kmh 30.07 in1018.3 mb 0.03 in0.8 mm 0.00 in0.0 mm 0.05 in1.3 mm
07:30 AM 32.5°F0.3°C 32.3°F0.2°C 99% 5.8 mph WNW9.3 kmh WNW 5.8 mph9.3 kmh 30.07 in1018.3 mb 0.03 in0.8 mm 0.00 in0.0 mm 0.05 in1.3 mm
07:31 AM 32.5°F0.3°C 32.3°F0.2°C 99% 3.7 mph W6.0 kmh W 5.8 mph9.3 kmh 30.07 in1018.3 mb 0.03 in0.8 mm 0.00 in0.0 mm 0.05 in1.3 mm
07:32 AM 32.5°F0.3°C 32.3°F0.2°C 99% 3.7 mph NW6.0 kmh NW 5.8 mph9.3 kmh 30.07 in1018.3 mb 0.03 in0.8 mm 0.00 in0.0 mm 0.05 in1.3 mm
07:33 AM 32.5°F0.3°C 32.3°F0.2°C 99% 2.7 mph WSW4.3 kmh WSW 5.8 mph9.3 kmh 30.07 in1018.3 mb 0.03 in0.8 mm 0.00 in0.0 mm 0.05 in1.3 mm
07:34 AM 32.5°F0.3°C 32.3°F0.2°C 99% 4.2 mph W6.8 kmh W 5.8 mph9.3 kmh 30.07 in1018.3 mb 0.03 in0.8 mm 0.00 in0.0 mm 0.05 in1.3 mm
07:35 AM 32.5°F0.3°C 32.3°F0.2°C 99% 5.8 mph WNW9.3 kmh WNW 5.8 mph9.3 kmh 30.07 in1018.3 mb 0.02 in0.5 mm 0.00 in0.0 mm 0.05 in1.3 mm
07:36 AM 32.5°F0.3°C 32.3°F0.2°C 99% 3.7 mph W6.0 kmh W 5.8 mph9.3 kmh 30.07 in1018.3 mb 0.02 in0.5 mm 0.00 in0.0 mm 0.05 in1.3 mm
07:37 AM 32.5°F0.3°C 32.3°F0.2°C 99% 2.2 mph W3.5 kmh W 5.8 mph9.3 kmh 30.07 in1018.3 mb 0.02 in0.5 mm 0.00 in0.0 mm 0.05 in1.3 mm
07:38 AM 32.5°F0.3°C 32.3°F0.2°C 99% 1.7 mph W2.7 kmh W 5.8 mph9.3 kmh 30.07 in1018.3 mb 0.02 in0.5 mm 0.00 in0.0 mm 0.05 in1.3 mm
07:39 AM 32.5°F0.3°C 32.3°F0.2°C 99% 4.7 mph W7.6 kmh W 5.8 mph9.3 kmh 30.07 in1018.3 mb 0.02 in0.5 mm 0.00 in0.0 mm 0.05 in1.3 mm
07:40 AM 32.5°F0.3°C 32.3°F0.2°C 99% 5.3 mph W8.5 kmh W 5.8 mph9.3 kmh 30.07 in1018.3 mb 0.02 in0.5 mm 0.00 in0.0 mm 0.05 in1.3 mm
07:41 AM 32.5°F0.3°C 32.3°F0.2°C 99% 5.3 mph NW8.5 kmh NW 5.8 mph9.3 kmh 30.07 in1018.3 mb 0.02 in0.5 mm 0.00 in0.0 mm 0.05 in1.3 mm
07:42 AM 32.5°F0.3°C 32.3°F0.2°C 99% 6.3 mph NNW10.1 kmh NNW 7.3 mph11.7 kmh 30.07 in1018.3 mb 0.02 in0.5 mm 0.00 in0.0 mm 0.05 in1.3 mm
07:43 AM 32.5°F0.3°C 32.3°F0.2°C 99% 5.8 mph NNE9.3 kmh NNE 7.3 mph11.7 kmh 30.07 in1018.3 mb 0.02 in0.5 mm 0.00 in0.0 mm 0.05 in1.3 mm
07:44 AM 32.5°F0.3°C 32.3°F0.2°C 99% 5.8 mph W9.3 kmh W 7.3 mph11.7 kmh 30.07 in1018.3 mb 0.02 in0.5 mm 0.00 in0.0 mm 0.05 in1.3 mm
07:45 AM 32.5°F0.3°C 32.3°F0.2°C 99% 6.3 mph W10.1 kmh W 7.3 mph11.7 kmh 30.07 in1018.3 mb 0.01 in0.3 mm 0.00 in0.0 mm 0.05 in1.3 mm
07:46 AM 32.5°F0.3°C 32.3°F0.2°C 99% 6.8 mph N10.9 kmh N 7.3 mph11.7 kmh 30.07 in1018.3 mb 0.01 in0.3 mm 0.00 in0.0 mm 0.05 in1.3 mm
07:47 AM 32.5°F0.3°C 32.3°F0.2°C 99% 3.7 mph W6.0 kmh W 7.3 mph11.7 kmh 30.07 in1018.3 mb 0.01 in0.3 mm 0.00 in0.0 mm 0.05 in1.3 mm
07:48 AM 32.5°F0.3°C 32.3°F0.2°C 99% 4.7 mph N7.6 kmh N 7.3 mph11.7 kmh 30.07 in1018.3 mb 0.01 in0.3 mm 0.00 in0.0 mm 0.05 in1.3 mm
07:49 AM 32.4°F0.2°C 32.2°F0.1°C 99% 4.7 mph NNE7.6 kmh NNE 7.3 mph11.7 kmh 30.07 in1018.3 mb 0.01 in0.3 mm 0.00 in0.0 mm 0.05 in1.3 mm
07:50 AM 32.4°F0.2°C 32.2°F0.1°C 99% 4.7 mph WNW7.6 kmh WNW 7.3 mph11.7 kmh 30.07 in1018.3 mb 0.01 in0.3 mm 0.00 in0.0 mm 0.05 in1.3 mm
07:51 AM 32.4°F0.2°C 32.2°F0.1°C 99% 5.3 mph W8.5 kmh W 7.3 mph11.7 kmh 30.07 in1018.3 mb 0.01 in0.3 mm 0.00 in0.0 mm 0.05 in1.3 mm
07:52 AM 32.4°F0.2°C 32.2°F0.1°C 99% 4.2 mph NNW6.8 kmh NNW 7.3 mph11.7 kmh 30.07 in1018.3 mb 0.01 in0.3 mm 0.00 in0.0 mm 0.05 in1.3 mm
07:53 AM 32.4°F0.2°C 32.2°F0.1°C 99% 4.2 mph WNW6.8 kmh WNW 7.3 mph11.7 kmh 30.07 in1018.3 mb 0.01 in0.3 mm 0.00 in0.0 mm 0.05 in1.3 mm
07:54 AM 32.4°F0.2°C 32.2°F0.1°C 99% 5.8 mph W9.3 kmh W 7.3 mph11.7 kmh 30.07 in1018.3 mb 0.01 in0.3 mm 0.00 in0.0 mm 0.05 in1.3 mm
07:55 AM 32.4°F0.2°C 32.2°F0.1°C 99% 4.7 mph NNW7.6 kmh NNW 6.8 mph10.9 kmh 30.07 in1018.3 mb 0.01 in0.3 mm 0.00 in0.0 mm 0.05 in1.3 mm
07:56 AM 32.4°F0.2°C 32.2°F0.1°C 99% 8.9 mph W14.3 kmh W 8.9 mph14.3 kmh 30.07 in1018.3 mb 0.01 in0.3 mm 0.00 in0.0 mm 0.05 in1.3 mm
07:57 AM 32.4°F0.2°C 32.2°F0.1°C 99% 6.3 mph NNW10.1 kmh NNW 8.9 mph14.3 kmh 30.07 in1018.3 mb 0.01 in0.3 mm 0.00 in0.0 mm 0.05 in1.3 mm
07:58 AM 32.4°F0.2°C 32.2°F0.1°C 99% 6.3 mph SW10.1 kmh SW 8.9 mph14.3 kmh 30.07 in1018.3 mb 0.01 in0.3 mm 0.00 in0.0 mm 0.05 in1.3 mm
07:59 AM 32.4°F0.2°C 32.2°F0.1°C 99% 5.8 mph N9.3 kmh N 8.9 mph14.3 kmh 30.07 in1018.3 mb 0.01 in0.3 mm 0.00 in0.0 mm 0.05 in1.3 mm
08:00 AM 32.5°F0.3°C 32.3°F0.2°C 99% 6.3 mph NNW10.1 kmh NNW 8.9 mph14.3 kmh 30.07 in1018.3 mb 0.01 in0.3 mm 0.00 in0.0 mm 0.05 in1.3 mm
08:01 AM 32.5°F0.3°C 32.3°F0.2°C 99% 4.2 mph W6.8 kmh W 8.9 mph14.3 kmh 30.07 in1018.3 mb 0.00 in0.0 mm 0.00 in0.0 mm 0.05 in1.3 mm
08:02 AM 32.5°F0.3°C 32.3°F0.2°C 99% 6.8 mph NNE10.9 kmh NNE 8.9 mph14.3 kmh 30.07 in1018.3 mb 0.00 in0.0 mm 0.00 in0.0 mm 0.05 in1.3 mm
08:03 AM 32.5°F0.3°C 32.3°F0.2°C 99% 8.3 mph NNW13.4 kmh NNW 9.9 mph15.9 kmh 30.07 in1018.3 mb 0.00 in0.0 mm 0.00 in0.0 mm 0.05 in1.3 mm
08:04 AM 32.5°F0.3°C 32.3°F0.2°C 99% 10.4 mph NNE16.7 kmh NNE 14.0 mph22.5 kmh 30.07 in1018.3 mb 0.00 in0.0 mm 0.00 in0.0 mm 0.05 in1.3 mm
08:05 AM 32.7°F0.4°C 32.5°F0.3°C 99% 6.8 mph N10.9 kmh N 14.0 mph22.5 kmh 30.08 in1018.6 mb 0.00 in0.0 mm 0.00 in0.0 mm 0.05 in1.3 mm
08:06 AM 32.7°F0.4°C 32.5°F0.3°C 99% 9.9 mph NE15.9 kmh NE 14.0 mph22.5 kmh 30.08 in1018.6 mb 0.00 in0.0 mm 0.00 in0.0 mm 0.05 in1.3 mm
08:07 AM 32.7°F0.4°C 32.5°F0.3°C 99% 7.3 mph N11.7 kmh N 14.0 mph22.5 kmh 30.08 in1018.6 mb 0.00 in0.0 mm 0.00 in0.0 mm 0.05 in1.3 mm
08:08 AM 32.7°F0.4°C 32.5°F0.3°C 99% 7.8 mph N12.6 kmh N 14.0 mph22.5 kmh 30.08 in1018.6 mb 0.00 in0.0 mm 0.00 in0.0 mm 0.05 in1.3 mm
08:09 AM 32.7°F0.4°C 32.5°F0.3°C 99% 7.3 mph NNW11.7 kmh NNW 14.0 mph22.5 kmh 30.08 in1018.6 mb 0.00 in0.0 mm 0.00 in0.0 mm 0.05 in1.3 mm
08:10 AM 32.7°F0.4°C 32.5°F0.3°C 99% 4.2 mph NNE6.8 kmh NNE 14.0 mph22.5 kmh 30.08 in1018.6 mb 0.00 in0.0 mm 0.00 in0.0 mm 0.05 in1.3 mm
08:11 AM 32.7°F0.4°C 32.5°F0.3°C 99% 5.8 mph NNW9.3 kmh NNW 14.0 mph22.5 kmh 30.08 in1018.6 mb 0.00 in0.0 mm 0.00 in0.0 mm 0.05 in1.3 mm
08:12 AM 32.9°F0.5°C 32.7°F0.4°C 99% 4.7 mph NNE7.6 kmh NNE 14.0 mph22.5 kmh 30.08 in1018.6 mb 0.00 in0.0 mm 0.00 in0.0 mm 0.05 in1.3 mm
08:13 AM 32.9°F0.5°C 32.7°F0.4°C 99% 6.3 mph NNE10.1 kmh NNE 14.0 mph22.5 kmh 30.08 in1018.6 mb 0.00 in0.0 mm 0.00 in0.0 mm 0.05 in1.3 mm
08:14 AM 32.9°F0.5°C 32.7°F0.4°C 99% 7.3 mph NNE11.7 kmh NNE 9.9 mph15.9 kmh 30.08 in1018.6 mb 0.00 in0.0 mm 0.00 in0.0 mm 0.05 in1.3 mm
08:15 AM 32.9°F0.5°C 32.4°F0.2°C 98% 8.3 mph NNW13.4 kmh NNW 9.9 mph15.9 kmh 30.08 in1018.6 mb 0.00 in0.0 mm 0.00 in0.0 mm 0.05 in1.3 mm
08:16 AM 32.9°F0.5°C 32.4°F0.2°C 98% 3.2 mph N5.1 kmh N 9.9 mph15.9 kmh 30.09 in1019.0 mb 0.00 in0.0 mm 0.00 in0.0 mm 0.05 in1.3 mm
08:17 AM 33.1°F0.6°C 32.6°F0.3°C 98% 5.8 mph N9.3 kmh N 8.3 mph13.4 kmh 30.09 in1019.0 mb 0.00 in0.0 mm 0.00 in0.0 mm 0.05 in1.3 mm
08:18 AM 33.1°F0.6°C 32.6°F0.3°C 98% 6.8 mph NW10.9 kmh NW 8.3 mph13.4 kmh 30.09 in1019.0 mb 0.00 in0.0 mm 0.00 in0.0 mm 0.05 in1.3 mm
08:19 AM 33.1°F0.6°C 32.6°F0.3°C 98% 6.8 mph W10.9 kmh W 8.3 mph13.4 kmh 30.09 in1019.0 mb 0.00 in0.0 mm 0.00 in0.0 mm 0.05 in1.3 mm
08:20 AM 33.1°F0.6°C 32.3°F0.2°C 97% 7.8 mph NNE12.6 kmh NNE 8.9 mph14.3 kmh 30.09 in1019.0 mb 0.00 in0.0 mm 0.00 in0.0 mm 0.05 in1.3 mm
08:21 AM 33.1°F0.6°C 32.3°F0.2°C 97% 6.8 mph NNE10.9 kmh NNE 8.9 mph14.3 kmh 30.09 in1019.0 mb 0.00 in0.0 mm 0.00 in0.0 mm 0.05 in1.3 mm
08:22 AM 33.1°F0.6°C 32.3°F0.2°C 97% 5.3 mph N8.5 kmh N 8.9 mph14.3 kmh 30.09 in1019.0 mb 0.00 in0.0 mm 0.00 in0.0 mm 0.05 in1.3 mm
08:23 AM 33.1°F0.6°C 32.3°F0.2°C 97% 7.8 mph NNE12.6 kmh NNE 8.9 mph14.3 kmh 30.09 in1019.0 mb 0.00 in0.0 mm 0.00 in0.0 mm 0.05 in1.3 mm
08:24 AM 33.1°F0.6°C 32.3°F0.2°C 97% 4.7 mph ENE7.6 kmh ENE 8.9 mph14.3 kmh 30.09 in1019.0 mb 0.00 in0.0 mm 0.00 in0.0 mm 0.05 in1.3 mm
08:25 AM 33.1°F0.6°C 32.3°F0.2°C 97% 7.3 mph NNE11.7 kmh NNE 8.9 mph14.3 kmh 30.09 in1019.0 mb 0.00 in0.0 mm 0.00 in0.0 mm 0.05 in1.3 mm
08:26 AM 33.1°F0.6°C 32.3°F0.2°C 97% 4.7 mph NE7.6 kmh NE 9.9 mph15.9 kmh 30.09 in1019.0 mb 0.00 in0.0 mm 0.00 in0.0 mm 0.05 in1.3 mm
08:27 AM 33.1°F0.6°C 32.3°F0.2°C 97% 2.7 mph SSW4.3 kmh SSW 9.9 mph15.9 kmh 30.09 in1019.0 mb 0.00 in0.0 mm 0.00 in0.0 mm 0.05 in1.3 mm
08:28 AM 33.1°F0.6°C 32.3°F0.2°C 97% 3.2 mph NNE5.1 kmh NNE 9.9 mph15.9 kmh 30.09 in1019.0 mb 0.01 in0.3 mm 0.60 in15.2 mm 0.06 in1.5 mm
08:29 AM 33.1°F0.6°C 32.3°F0.2°C 97% 6.3 mph NNE10.1 kmh NNE 9.9 mph15.9 kmh 30.09 in1019.0 mb 0.01 in0.3 mm 0.00 in0.0 mm 0.06 in1.5 mm
08:30 AM 33.1°F0.6°C 32.1°F0.1°C 96% 5.3 mph NE8.5 kmh NE 9.9 mph15.9 kmh 30.09 in1019.0 mb 0.01 in0.3 mm 0.00 in0.0 mm 0.06 in1.5 mm
08:31 AM 33.1°F0.6°C 32.1°F0.1°C 96% 9.4 mph NNE15.1 kmh NNE 9.9 mph15.9 kmh 30.09 in1019.0 mb 0.01 in0.3 mm 0.00 in0.0 mm 0.06 in1.5 mm
08:32 AM 33.1°F0.6°C 31.8°F-0.1°C 95% 11.9 mph N19.2 kmh N 11.9 mph19.2 kmh 30.09 in1019.0 mb 0.01 in0.3 mm 0.00 in0.0 mm 0.06 in1.5 mm
08:33 AM 33.3°F0.7°C 31.8°F-0.1°C 94% 5.8 mph N9.3 kmh N 11.9 mph19.2 kmh 30.09 in1019.0 mb 0.01 in0.3 mm 0.00 in0.0 mm 0.06 in1.5 mm
08:34 AM 33.4°F0.8°C 31.9°F-0.1°C 94% 6.3 mph NNW10.1 kmh NNW 11.9 mph19.2 kmh 30.09 in1019.0 mb 0.01 in0.3 mm 0.00 in0.0 mm 0.06 in1.5 mm
08:35 AM 33.4°F0.8°C 31.9°F-0.1°C 94% 7.3 mph NE11.7 kmh NE 11.9 mph19.2 kmh 30.09 in1019.0 mb 0.01 in0.3 mm 0.00 in0.0 mm 0.06 in1.5 mm
08:36 AM 33.4°F0.8°C 31.9°F-0.1°C 94% 6.3 mph NNW10.1 kmh NNW 11.9 mph19.2 kmh 30.09 in1019.0 mb 0.01 in0.3 mm 0.00 in0.0 mm 0.06 in1.5 mm
08:37 AM 33.4°F0.8°C 31.9°F-0.1°C 94% 7.8 mph NNE12.6 kmh NNE 11.9 mph19.2 kmh 30.09 in1019.0 mb 0.01 in0.3 mm 0.00 in0.0 mm 0.06 in1.5 mm
08:38 AM 33.4°F0.8°C 31.9°F-0.1°C 94% 5.3 mph NNE8.5 kmh NNE 11.9 mph19.2 kmh 30.09 in1019.0 mb 0.01 in0.3 mm 0.00 in0.0 mm 0.06 in1.5 mm
08:39 AM 33.4°F0.8°C 31.9°F-0.1°C 94% 9.9 mph NE15.9 kmh NE 11.9 mph19.2 kmh 30.09 in1019.0 mb 0.01 in0.3 mm 0.00 in0.0 mm 0.06 in1.5 mm
08:40 AM 33.4°F0.8°C 31.9°F-0.1°C 94% 6.3 mph NNE10.1 kmh NNE 11.9 mph19.2 kmh 30.09 in1019.0 mb 0.01 in0.3 mm 0.00 in0.0 mm 0.06 in1.5 mm
08:41 AM 33.4°F0.8°C 31.9°F-0.1°C 94% 4.7 mph NNE7.6 kmh NNE 11.9 mph19.2 kmh 30.10 in1019.3 mb 0.01 in0.3 mm 0.00 in0.0 mm 0.06 in1.5 mm
08:42 AM 33.6°F0.9°C 32.1°F0.1°C 94% 4.2 mph NNE6.8 kmh NNE 9.9 mph15.9 kmh 30.10 in1019.3 mb 0.01 in0.3 mm 0.00 in0.0 mm 0.06 in1.5 mm
08:43 AM 33.6°F0.9°C 32.1°F0.1°C 94% 9.9 mph N15.9 kmh N 9.9 mph15.9 kmh 30.10 in1019.3 mb 0.01 in0.3 mm 0.00 in0.0 mm 0.06 in1.5 mm
08:44 AM 33.6°F0.9°C 32.1°F0.1°C 94% 6.3 mph NNE10.1 kmh NNE 9.9 mph15.9 kmh 30.10 in1019.3 mb 0.01 in0.3 mm 0.00 in0.0 mm 0.06 in1.5 mm
08:45 AM 33.6°F0.9°C 32.1°F0.1°C 94% 6.3 mph NNE10.1 kmh NNE 9.9 mph15.9 kmh 30.10 in1019.3 mb 0.01 in0.3 mm 0.00 in0.0 mm 0.06 in1.5 mm
08:46 AM 33.6°F0.9°C 32.1°F0.1°C 94% 4.2 mph N6.8 kmh N 9.9 mph15.9 kmh 30.10 in1019.3 mb 0.01 in0.3 mm 0.00 in0.0 mm 0.06 in1.5 mm
08:47 AM 33.6°F0.9°C 32.1°F0.1°C 94% 5.3 mph NE8.5 kmh NE 9.9 mph15.9 kmh 30.10 in1019.3 mb 0.01 in0.3 mm 0.00 in0.0 mm 0.06 in1.5 mm
08:48 AM 33.6°F0.9°C 32.1°F0.1°C 94% 5.3 mph W8.5 kmh W 9.9 mph15.9 kmh 30.10 in1019.3 mb 0.01 in0.3 mm 0.00 in0.0 mm 0.06 in1.5 mm
08:49 AM 33.6°F0.9°C 32.1°F0.1°C 94% 5.3 mph N8.5 kmh N 9.9 mph15.9 kmh 30.10 in1019.3 mb 0.01 in0.3 mm 0.00 in0.0 mm 0.06 in1.5 mm
08:50 AM 33.6°F0.9°C 32.1°F0.1°C 94% 4.7 mph NNE7.6 kmh NNE 9.9 mph15.9 kmh 30.10 in1019.3 mb 0.02 in0.5 mm 0.60 in15.2 mm 0.07 in1.8 mm
08:51 AM 33.6°F0.9°C 32.1°F0.1°C 94% 2.7 mph NNW4.3 kmh NNW 9.9 mph15.9 kmh 30.10 in1019.3 mb 0.02 in0.5 mm 0.00 in0.0 mm 0.07 in1.8 mm
08:52 AM 33.6°F0.9°C 32.1°F0.1°C 94% 4.7 mph WNW7.6 kmh WNW 9.9 mph15.9 kmh 30.10 in1019.3 mb 0.02 in0.5 mm 0.00 in0.0 mm 0.07 in1.8 mm
08:53 AM 33.6°F0.9°C 32.1°F0.1°C 94% 2.2 mph WNW3.5 kmh WNW 9.9 mph15.9 kmh 30.11 in1019.6 mb 0.02 in0.5 mm 0.00 in0.0 mm 0.07 in1.8 mm
08:54 AM 33.6°F0.9°C 32.1°F0.1°C 94% 4.2 mph WNW6.8 kmh WNW 6.8 mph10.9 kmh 30.11 in1019.6 mb 0.02 in0.5 mm 0.00 in0.0 mm 0.07 in1.8 mm
08:55 AM 33.6°F0.9°C 32.1°F0.1°C 94% 2.2 mph N3.5 kmh N 6.8 mph10.9 kmh 30.11 in1019.6 mb 0.02 in0.5 mm 0.00 in0.0 mm 0.07 in1.8 mm
08:56 AM 33.6°F0.9°C 32.1°F0.1°C 94% 2.2 mph NNW3.5 kmh NNW 6.8 mph10.9 kmh 30.11 in1019.6 mb 0.02 in0.5 mm 0.00 in0.0 mm 0.07 in1.8 mm
08:57 AM 33.6°F0.9°C 32.1°F0.1°C 94% 4.2 mph NNE6.8 kmh NNE 6.8 mph10.9 kmh 30.11 in1019.6 mb 0.02 in0.5 mm 0.00 in0.0 mm 0.07 in1.8 mm
08:58 AM 33.6°F0.9°C 32.1°F0.1°C 94% 3.7 mph WNW6.0 kmh WNW 6.8 mph10.9 kmh 30.11 in1019.6 mb 0.02 in0.5 mm 0.00 in0.0 mm 0.07 in1.8 mm
08:59 AM 33.6°F0.9°C 32.1°F0.1°C 94% 3.2 mph W5.1 kmh W 5.8 mph9.3 kmh 30.11 in1019.6 mb 0.02 in0.5 mm 0.00 in0.0 mm 0.07 in1.8 mm
09:00 AM 33.6°F0.9°C 32.1°F0.1°C 94% 3.7 mph NNW6.0 kmh NNW 5.3 mph8.5 kmh 30.11 in1019.6 mb 0.02 in0.5 mm 0.00 in0.0 mm 0.07 in1.8 mm
09:01 AM 33.6°F0.9°C 32.1°F0.1°C 94% 3.7 mph WNW6.0 kmh WNW 5.3 mph8.5 kmh 30.11 in1019.6 mb 0.02 in0.5 mm 0.00 in0.0 mm 0.07 in1.8 mm
09:02 AM 33.6°F0.9°C 32.1°F0.1°C 94% 3.7 mph W6.0 kmh W 4.7 mph7.6 kmh 30.11 in1019.6 mb 0.02 in0.5 mm 0.00 in0.0 mm 0.07 in1.8 mm
09:03 AM 33.6°F0.9°C 32.1°F0.1°C 94% 3.2 mph W5.1 kmh W 4.7 mph7.6 kmh 30.11 in1019.6 mb 0.02 in0.5 mm 0.00 in0.0 mm 0.07 in1.8 mm
09:04 AM 33.6°F0.9°C 32.1°F0.1°C 94% 2.7 mph NE4.3 kmh NE 4.7 mph7.6 kmh 30.11 in1019.6 mb 0.02 in0.5 mm 0.00 in0.0 mm 0.07 in1.8 mm
09:05 AM 33.6°F0.9°C 32.1°F0.1°C 94% 3.2 mph W5.1 kmh W 4.7 mph7.6 kmh 30.12 in1020.0 mb 0.02 in0.5 mm 0.00 in0.0 mm 0.07 in1.8 mm
09:11 AM 33.6°F0.9°C 32.1°F0.1°C 94% 3.2 mph W5.1 kmh W 4.7 mph7.6 kmh 30.12 in1020.0 mb 0.02 in0.5 mm 0.00 in0.0 mm 0.07 in1.8 mm
09:12 AM 33.6°F0.9°C 32.1°F0.1°C 94% 2.7 mph N4.3 kmh N 3.7 mph6.0 kmh 30.12 in1020.0 mb 0.03 in0.8 mm 0.60 in15.2 mm 0.08 in2.0 mm
09:13 AM 33.6°F0.9°C 32.3°F0.2°C 95% 2.2 mph NNE3.5 kmh NNE 3.7 mph6.0 kmh 30.12 in1020.0 mb 0.03 in0.8 mm 0.00 in0.0 mm 0.08 in2.0 mm
09:14 AM 33.6°F0.9°C 32.3°F0.2°C 95% 3.2 mph NNE5.1 kmh NNE 3.2 mph5.1 kmh 30.12 in1020.0 mb 0.03 in0.8 mm 0.00 in0.0 mm 0.08 in2.0 mm
09:15 AM 33.6°F0.9°C 32.3°F0.2°C 95% 4.2 mph ESE6.8 kmh ESE 4.2 mph6.8 kmh 30.12 in1020.0 mb 0.03 in0.8 mm 0.00 in0.0 mm 0.08 in2.0 mm
09:16 AM 33.6°F0.9°C 32.3°F0.2°C 95% 3.7 mph W6.0 kmh W 4.2 mph6.8 kmh 30.13 in1020.3 mb 0.03 in0.8 mm 0.00 in0.0 mm 0.08 in2.0 mm
09:17 AM 33.6°F0.9°C 32.3°F0.2°C 95% 2.2 mph N3.5 kmh N 4.2 mph6.8 kmh 30.13 in1020.3 mb 0.03 in0.8 mm 0.00 in0.0 mm 0.08 in2.0 mm
09:18 AM 33.6°F0.9°C 32.3°F0.2°C 95% 2.2 mph WNW3.5 kmh WNW 4.2 mph6.8 kmh 30.13 in1020.3 mb 0.03 in0.8 mm 0.00 in0.0 mm 0.08 in2.0 mm
09:19 AM 33.6°F0.9°C 32.3°F0.2°C 95% 2.2 mph WSW3.5 kmh WSW 4.2 mph6.8 kmh 30.13 in1020.3 mb 0.03 in0.8 mm 0.00 in0.0 mm 0.08 in2.0 mm
09:20 AM 33.6°F0.9°C 32.3°F0.2°C 95% 2.7 mph W4.3 kmh W 4.2 mph6.8 kmh 30.13 in1020.3 mb 0.03 in0.8 mm 0.00 in0.0 mm 0.08 in2.0 mm
09:21 AM 33.6°F0.9°C 32.3°F0.2°C 95% 3.7 mph NW6.0 kmh NW 4.2 mph6.8 kmh 30.13 in1020.3 mb 0.03 in0.8 mm 0.00 in0.0 mm 0.08 in2.0 mm
09:22 AM 33.6°F0.9°C 32.3°F0.2°C 95% 2.7 mph SSW4.3 kmh SSW 4.2 mph6.8 kmh 30.13 in1020.3 mb 0.03 in0.8 mm 0.00 in0.0 mm 0.08 in2.0 mm
09:23 AM 33.6°F0.9°C 32.3°F0.2°C 95% 3.7 mph SSW6.0 kmh SSW 4.2 mph6.8 kmh 30.13 in1020.3 mb 0.03 in0.8 mm 0.00 in0.0 mm 0.08 in2.0 mm
09:24 AM 33.6°F0.9°C 32.3°F0.2°C 95% 4.7 mph W7.6 kmh W 5.3 mph8.5 kmh 30.13 in1020.3 mb 0.03 in0.8 mm 0.00 in0.0 mm 0.08 in2.0 mm
09:25 AM 33.6°F0.9°C 32.3°F0.2°C 95% 3.2 mph NNW5.1 kmh NNW 5.3 mph8.5 kmh 30.13 in1020.3 mb 0.03 in0.8 mm 0.00 in0.0 mm 0.08 in2.0 mm
09:26 AM 33.6°F0.9°C 32.3°F0.2°C 95% 3.7 mph NNW6.0 kmh NNW 5.3 mph8.5 kmh 30.13 in1020.3 mb 0.03 in0.8 mm 0.00 in0.0 mm 0.08 in2.0 mm
09:27 AM 33.8°F1.0°C 32.5°F0.3°C 95% 5.8 mph N9.3 kmh N 7.3 mph11.7 kmh 30.13 in1020.3 mb 0.03 in0.8 mm 0.00 in0.0 mm 0.08 in2.0 mm
09:28 AM 33.8°F1.0°C 32.5°F0.3°C 95% 7.3 mph SW11.7 kmh SW 7.3 mph11.7 kmh 30.13 in1020.3 mb 0.02 in0.5 mm 0.00 in0.0 mm 0.08 in2.0 mm
09:29 AM 34.0°F1.1°C 32.2°F0.1°C 93% 4.7 mph NW7.6 kmh NW 7.3 mph11.7 kmh 30.13 in1020.3 mb 0.02 in0.5 mm 0.00 in0.0 mm 0.08 in2.0 mm
09:30 AM 34.0°F1.1°C 32.2°F0.1°C 93% 4.7 mph N7.6 kmh N 7.3 mph11.7 kmh 30.13 in1020.3 mb 0.02 in0.5 mm 0.00 in0.0 mm 0.08 in2.0 mm
09:31 AM 34.0°F1.1°C 32.2°F0.1°C 93% 3.7 mph NE6.0 kmh NE 7.3 mph11.7 kmh 30.13 in1020.3 mb 0.02 in0.5 mm 0.00 in0.0 mm 0.08 in2.0 mm
09:32 AM 34.0°F1.1°C 32.2°F0.1°C 93% 5.3 mph W8.5 kmh W 7.3 mph11.7 kmh 30.13 in1020.3 mb 0.02 in0.5 mm 0.00 in0.0 mm 0.08 in2.0 mm
09:33 AM 34.2°F1.2°C 32.4°F0.2°C 93% 5.8 mph SW9.3 kmh SW 7.3 mph11.7 kmh 30.13 in1020.3 mb 0.02 in0.5 mm 0.00 in0.0 mm 0.08 in2.0 mm
09:34 AM 34.2°F1.2°C 32.1°F0.1°C 92% 4.7 mph WNW7.6 kmh WNW 7.3 mph11.7 kmh 30.13 in1020.3 mb 0.02 in0.5 mm 0.00 in0.0 mm 0.08 in2.0 mm
09:35 AM 34.2°F1.2°C 31.9°F-0.1°C 91% 8.3 mph WNW13.4 kmh WNW 11.4 mph18.3 kmh 30.13 in1020.3 mb 0.02 in0.5 mm 0.00 in0.0 mm 0.08 in2.0 mm
09:36 AM 34.2°F1.2°C 31.6°F-0.2°C 90% 6.3 mph W10.1 kmh W 11.4 mph18.3 kmh 30.13 in1020.3 mb 0.02 in0.5 mm 0.00 in0.0 mm 0.08 in2.0 mm
09:37 AM 34.3°F1.3°C 31.7°F-0.2°C 90% 7.3 mph WNW11.7 kmh WNW 11.4 mph18.3 kmh 30.13 in1020.3 mb 0.02 in0.5 mm 0.00 in0.0 mm 0.08 in2.0 mm
09:38 AM 34.3°F1.3°C 31.1°F-0.5°C 88% 11.9 mph NNE19.2 kmh NNE 11.9 mph19.2 kmh 30.13 in1020.3 mb 0.03 in0.8 mm 0.60 in15.2 mm 0.09 in2.3 mm
09:39 AM 34.3°F1.3°C 31.1°F-0.5°C 88% 10.4 mph NNW16.7 kmh NNW 11.9 mph19.2 kmh 30.13 in1020.3 mb 0.03 in0.8 mm 0.00 in0.0 mm 0.09 in2.3 mm
09:40 AM 34.5°F1.4°C 31.0°F-0.6°C 87% 5.8 mph WSW9.3 kmh WSW 11.9 mph19.2 kmh 30.13 in1020.3 mb 0.03 in0.8 mm 0.00 in0.0 mm 0.09 in2.3 mm
09:41 AM 34.5°F1.4°C 31.0°F-0.6°C 87% 3.7 mph NNW6.0 kmh NNW 11.9 mph19.2 kmh 30.13 in1020.3 mb 0.03 in0.8 mm 0.00 in0.0 mm 0.09 in2.3 mm
09:42 AM 34.5°F1.4°C 31.0°F-0.6°C 87% 9.4 mph N15.1 kmh N 11.9 mph19.2 kmh 30.13 in1020.3 mb 0.03 in0.8 mm 0.00 in0.0 mm 0.09 in2.3 mm
09:43 AM 34.5°F1.4°C 30.8°F-0.7°C 86% 7.8 mph ENE12.6 kmh ENE 12.5 mph20.1 kmh 30.13 in1020.3 mb 0.03 in0.8 mm 0.00 in0.0 mm 0.09 in2.3 mm
09:44 AM 34.5°F1.4°C 30.8°F-0.7°C 86% 7.3 mph NNE11.7 kmh NNE 12.5 mph20.1 kmh 30.13 in1020.3 mb 0.03 in0.8 mm 0.00 in0.0 mm 0.09 in2.3 mm
09:45 AM 34.7°F1.5°C 30.9°F-0.6°C 86% 6.3 mph W10.1 kmh W 12.5 mph20.1 kmh 30.13 in1020.3 mb 0.03 in0.8 mm 0.00 in0.0 mm 0.09 in2.3 mm
09:46 AM 34.7°F1.5°C 30.9°F-0.6°C 86% 6.3 mph NW10.1 kmh NW 12.5 mph20.1 kmh 30.13 in1020.3 mb 0.03 in0.8 mm 0.00 in0.0 mm 0.09 in2.3 mm
09:47 AM 34.7°F1.5°C 30.9°F-0.6°C 86% 7.8 mph WNW12.6 kmh WNW 12.5 mph20.1 kmh 30.13 in1020.3 mb 0.03 in0.8 mm 0.00 in0.0 mm 0.09 in2.3 mm
09:48 AM 34.7°F1.5°C 30.7°F-0.7°C 85% 11.4 mph NNW18.3 kmh NNW 12.5 mph20.1 kmh 30.13 in1020.3 mb 0.03 in0.8 mm 0.00 in0.0 mm 0.09 in2.3 mm
09:49 AM 34.7°F1.5°C 30.1°F-1.1°C 83% 12.5 mph NNW20.1 kmh NNW 16.1 mph25.9 kmh 30.13 in1020.3 mb 0.03 in0.8 mm 0.00 in0.0 mm 0.09 in2.3 mm
09:50 AM 34.7°F1.5°C 29.8°F-1.2°C 82% 3.7 mph NNW6.0 kmh NNW 16.1 mph25.9 kmh 30.13 in1020.3 mb 0.02 in0.5 mm 0.00 in0.0 mm 0.09 in2.3 mm
09:51 AM 34.7°F1.5°C 29.8°F-1.2°C 82% 8.9 mph W14.3 kmh W 16.1 mph25.9 kmh 30.13 in1020.3 mb 0.02 in0.5 mm 0.00 in0.0 mm 0.09 in2.3 mm
09:52 AM 34.7°F1.5°C 30.1°F-1.1°C 83% 8.3 mph WNW13.4 kmh WNW 16.1 mph25.9 kmh 30.13 in1020.3 mb 0.02 in0.5 mm 0.00 in0.0 mm 0.09 in2.3 mm
09:53 AM 34.7°F1.5°C 30.1°F-1.1°C 83% 5.8 mph W9.3 kmh W 16.1 mph25.9 kmh 30.14 in1020.7 mb 0.02 in0.5 mm 0.00 in0.0 mm 0.09 in2.3 mm
09:54 AM 34.7°F1.5°C 30.1°F-1.1°C 83% 12.5 mph NNE20.1 kmh NNE 16.1 mph25.9 kmh 30.14 in1020.7 mb 0.03 in0.8 mm 0.60 in15.2 mm 0.10 in2.5 mm
09:55 AM 34.7°F1.5°C 29.8°F-1.2°C 82% 7.8 mph NW12.6 kmh NW 16.1 mph25.9 kmh 30.14 in1020.7 mb 0.03 in0.8 mm 0.00 in0.0 mm 0.10 in2.5 mm
09:56 AM 34.7°F1.5°C 29.8°F-1.2°C 82% 6.8 mph N10.9 kmh N 16.1 mph25.9 kmh 30.14 in1020.7 mb 0.03 in0.8 mm 0.00 in0.0 mm 0.10 in2.5 mm
09:57 AM 34.7°F1.5°C 29.8°F-1.2°C 82% 6.3 mph SW10.1 kmh SW 16.1 mph25.9 kmh 30.14 in1020.7 mb 0.03 in0.8 mm 0.00 in0.0 mm 0.10 in2.5 mm
09:58 AM 34.7°F1.5°C 30.1°F-1.1°C 83% 6.3 mph NW10.1 kmh NW 16.1 mph25.9 kmh 30.14 in1020.7 mb 0.03 in0.8 mm 0.00 in0.0 mm 0.10 in2.5 mm
09:59 AM 34.7°F1.5°C 30.1°F-1.1°C 83% 5.3 mph WNW8.5 kmh WNW 12.5 mph20.1 kmh 30.14 in1020.7 mb 0.03 in0.8 mm 0.00 in0.0 mm 0.10 in2.5 mm
10:00 AM 34.7°F1.5°C 29.8°F-1.2°C 82% 9.9 mph NNE15.9 kmh NNE 12.5 mph20.1 kmh 30.14 in1020.7 mb 0.03 in0.8 mm 0.00 in0.0 mm 0.10 in2.5 mm
10:01 AM 34.7°F1.5°C 29.8°F-1.2°C 82% 8.3 mph NNW13.4 kmh NNW 12.5 mph20.1 kmh 30.14 in1020.7 mb 0.03 in0.8 mm 0.00 in0.0 mm 0.10 in2.5 mm
10:02 AM 34.7°F1.5°C 29.8°F-1.2°C 82% 5.3 mph W8.5 kmh W 12.5 mph20.1 kmh 30.14 in1020.7 mb 0.03 in0.8 mm 0.00 in0.0 mm 0.10 in2.5 mm
10:03 AM 34.7°F1.5°C 29.8°F-1.2°C 82% 4.7 mph NNE7.6 kmh NNE 12.5 mph20.1 kmh 30.14 in1020.7 mb 0.03 in0.8 mm 0.00 in0.0 mm 0.10 in2.5 mm
10:04 AM 34.7°F1.5°C 29.8°F-1.2°C 82% 8.3 mph WSW13.4 kmh WSW 10.9 mph17.5 kmh 30.14 in1020.7 mb 0.03 in0.8 mm 0.00 in0.0 mm 0.10 in2.5 mm
10:05 AM 34.7°F1.5°C 29.5°F-1.4°C 81% 9.4 mph N15.1 kmh N 10.9 mph17.5 kmh 30.14 in1020.7 mb 0.03 in0.8 mm 0.00 in0.0 mm 0.10 in2.5 mm
10:06 AM 34.7°F1.5°C 29.5°F-1.4°C 81% 6.3 mph NNW10.1 kmh NNW 10.9 mph17.5 kmh 30.14 in1020.7 mb 0.03 in0.8 mm 0.00 in0.0 mm 0.10 in2.5 mm
10:07 AM 34.7°F1.5°C 29.5°F-1.4°C 81% 10.4 mph N16.7 kmh N 10.9 mph17.5 kmh 30.14 in1020.7 mb 0.03 in0.8 mm 0.00 in0.0 mm 0.10 in2.5 mm
10:08 AM 34.7°F1.5°C 29.5°F-1.4°C 81% 8.3 mph NNW13.4 kmh NNW 10.9 mph17.5 kmh 30.14 in1020.7 mb 0.03 in0.8 mm 0.00 in0.0 mm 0.10 in2.5 mm
10:09 AM 34.7°F1.5°C 29.5°F-1.4°C 81% 6.3 mph NNE10.1 kmh NNE 10.9 mph17.5 kmh 30.14 in1020.7 mb 0.03 in0.8 mm 0.00 in0.0 mm 0.10 in2.5 mm
10:10 AM 34.7°F1.5°C 29.5°F-1.4°C 81% 4.7 mph NNE7.6 kmh NNE 10.9 mph17.5 kmh 30.14 in1020.7 mb 0.03 in0.8 mm 0.00 in0.0 mm 0.10 in2.5 mm
10:11 AM 34.7°F1.5°C 29.5°F-1.4°C 81% 4.7 mph SSW7.6 kmh SSW 10.9 mph17.5 kmh 30.14 in1020.7 mb 0.03 in0.8 mm 0.00 in0.0 mm 0.10 in2.5 mm
10:12 AM 34.7°F1.5°C 29.5°F-1.4°C 81% 5.3 mph W8.5 kmh W 10.4 mph16.7 kmh 30.14 in1020.7 mb 0.02 in0.5 mm 0.00 in0.0 mm 0.10 in2.5 mm
10:13 AM 34.7°F1.5°C 29.5°F-1.4°C 81% 6.3 mph N10.1 kmh N 10.4 mph16.7 kmh 30.14 in1020.7 mb 0.02 in0.5 mm 0.00 in0.0 mm 0.10 in2.5 mm
10:14 AM 34.7°F1.5°C 29.2°F-1.6°C 80% 8.9 mph N14.3 kmh N 10.4 mph16.7 kmh 30.14 in1020.7 mb 0.02 in0.5 mm 0.00 in0.0 mm 0.10 in2.5 mm
10:15 AM 34.7°F1.5°C 29.2°F-1.6°C 80% 9.9 mph N15.9 kmh N 10.4 mph16.7 kmh 30.14 in1020.7 mb 0.02 in0.5 mm 0.00 in0.0 mm 0.10 in2.5 mm
10:16 AM 34.9°F1.6°C 29.1°F-1.6°C 79% 7.3 mph N11.7 kmh N 10.4 mph16.7 kmh 30.15 in1021.0 mb 0.02 in0.5 mm 0.00 in0.0 mm 0.10 in2.5 mm
10:17 AM 35.1°F1.7°C 29.3°F-1.5°C 79% 8.9 mph N14.3 kmh N 11.9 mph19.2 kmh 30.15 in1021.0 mb 0.02 in0.5 mm 0.00 in0.0 mm 0.10 in2.5 mm
10:18 AM 35.4°F1.9°C 28.9°F-1.7°C 77% 7.3 mph NNW11.7 kmh NNW 11.9 mph19.2 kmh 30.15 in1021.0 mb 0.02 in0.5 mm 0.00 in0.0 mm 0.10 in2.5 mm
10:19 AM 35.4°F1.9°C 28.9°F-1.7°C 77% 9.9 mph NNE15.9 kmh NNE 11.9 mph19.2 kmh 30.15 in1021.0 mb 0.02 in0.5 mm 0.00 in0.0 mm 0.10 in2.5 mm
10:20 AM 35.6°F2.0°C 28.8°F-1.8°C 76% 10.4 mph NNE16.7 kmh NNE 11.9 mph19.2 kmh 30.15 in1021.0 mb 0.02 in0.5 mm 0.00 in0.0 mm 0.10 in2.5 mm
10:21 AM 35.6°F2.0°C 28.8°F-1.8°C 76% 7.3 mph NNE11.7 kmh NNE 14.0 mph22.5 kmh 30.15 in1021.0 mb 0.02 in0.5 mm 0.00 in0.0 mm 0.10 in2.5 mm
10:22 AM 35.6°F2.0°C 28.8°F-1.8°C 76% 8.9 mph N14.3 kmh N 14.0 mph22.5 kmh 30.15 in1021.0 mb 0.02 in0.5 mm 0.00 in0.0 mm 0.10 in2.5 mm
10:23 AM 35.8°F2.1°C 29.0°F-1.7°C 76% 8.3 mph WNW13.4 kmh WNW 14.0 mph22.5 kmh 30.15 in1021.0 mb 0.02 in0.5 mm 0.00 in0.0 mm 0.10 in2.5 mm
10:24 AM 36.0°F2.2°C 29.2°F-1.6°C 76% 17.1 mph NNW27.5 kmh NNW 17.1 mph27.5 kmh 30.15 in1021.0 mb 0.02 in0.5 mm 0.00 in0.0 mm 0.10 in2.5 mm
10:25 AM 36.0°F2.2°C 28.2°F-2.1°C 73% 10.4 mph N16.7 kmh N 17.1 mph27.5 kmh 30.15 in1021.0 mb 0.02 in0.5 mm 0.00 in0.0 mm 0.10 in2.5 mm
10:26 AM 36.3°F2.4°C 29.1°F-1.6°C 75% 8.3 mph N13.4 kmh N 17.1 mph27.5 kmh 30.15 in1021.0 mb 0.02 in0.5 mm 0.00 in0.0 mm 0.10 in2.5 mm
10:27 AM 36.3°F2.4°C 28.5°F-1.9°C 73% 10.4 mph NNE16.7 kmh NNE 17.1 mph27.5 kmh 30.15 in1021.0 mb 0.02 in0.5 mm 0.00 in0.0 mm 0.10 in2.5 mm
10:28 AM 36.3°F2.4°C 28.5°F-1.9°C 73% 6.3 mph NNE10.1 kmh NNE 17.1 mph27.5 kmh 30.15 in1021.0 mb 0.02 in0.5 mm 0.00 in0.0 mm 0.10 in2.5 mm
10:29 AM 36.3°F2.4°C 28.2°F-2.1°C 72% 9.9 mph NNW15.9 kmh NNW 17.1 mph27.5 kmh 30.15 in1021.0 mb 0.02 in0.5 mm 0.00 in0.0 mm 0.10 in2.5 mm
10:30 AM 36.5°F2.5°C 28.3°F-2.1°C 72% 9.9 mph SW15.9 kmh SW 17.1 mph27.5 kmh 30.15 in1021.0 mb 0.02 in0.5 mm 0.00 in0.0 mm 0.10 in2.5 mm
10:31 AM 36.5°F2.5°C 27.7°F-2.4°C 70% 10.4 mph S16.7 kmh S 17.1 mph27.5 kmh 30.15 in1021.0 mb 0.02 in0.5 mm 0.00 in0.0 mm 0.10 in2.5 mm
10:32 AM 36.5°F2.5°C 27.7°F-2.4°C 70% 8.9 mph NNW14.3 kmh NNW 17.1 mph27.5 kmh 30.15 in1021.0 mb 0.02 in0.5 mm 0.00 in0.0 mm 0.10 in2.5 mm
10:33 AM 36.7°F2.6°C 28.2°F-2.1°C 71% 11.9 mph NNE19.2 kmh NNE 17.1 mph27.5 kmh 30.15 in1021.0 mb 0.02 in0.5 mm 0.00 in0.0 mm 0.10 in2.5 mm
10:34 AM 36.7°F2.6°C 27.9°F-2.3°C 70% 12.5 mph N20.1 kmh N 17.1 mph27.5 kmh 30.15 in1021.0 mb 0.02 in0.5 mm 0.00 in0.0 mm 0.10 in2.5 mm
10:35 AM 36.7°F2.6°C 27.9°F-2.3°C 70% 12.5 mph NNW20.1 kmh NNW 14.5 mph23.3 kmh 30.15 in1021.0 mb 0.02 in0.5 mm 0.00 in0.0 mm 0.10 in2.5 mm
10:36 AM 36.7°F2.6°C 27.5°F-2.5°C 69% 15.5 mph NNE24.9 kmh NNE 15.5 mph24.9 kmh 30.15 in1021.0 mb 0.02 in0.5 mm 0.00 in0.0 mm 0.10 in2.5 mm
10:37 AM 36.7°F2.6°C 28.2°F-2.1°C 71% 7.8 mph N12.6 kmh N 15.5 mph24.9 kmh 30.15 in1021.0 mb 0.02 in0.5 mm 0.00 in0.0 mm 0.10 in2.5 mm
10:38 AM 36.9°F2.7°C 28.4°F-2.0°C 71% 10.4 mph NNW16.7 kmh NNW 15.5 mph24.9 kmh 30.15 in1021.0 mb 0.01 in0.3 mm 0.00 in0.0 mm 0.10 in2.5 mm
10:39 AM 36.9°F2.7°C 28.4°F-2.0°C 71% 6.8 mph N10.9 kmh N 15.5 mph24.9 kmh 30.15 in1021.0 mb 0.01 in0.3 mm 0.00 in0.0 mm 0.10 in2.5 mm
10:40 AM 36.9°F2.7°C 28.0°F-2.2°C 70% 8.9 mph W14.3 kmh W 15.5 mph24.9 kmh 30.15 in1021.0 mb 0.02 in0.5 mm 0.60 in15.2 mm 0.11 in2.8 mm
10:41 AM 36.9°F2.7°C 28.0°F-2.2°C 70% 6.8 mph W10.9 kmh W 15.5 mph24.9 kmh 30.15 in1021.0 mb 0.02 in0.5 mm 0.00 in0.0 mm 0.11 in2.8 mm
10:47 AM 36.9°F2.7°C 28.0°F-2.2°C 70% 11.9 mph NE19.2 kmh NE 11.9 mph19.2 kmh 30.15 in1021.0 mb 0.02 in0.5 mm 0.00 in0.0 mm 0.11 in2.8 mm
10:48 AM 37.6°F3.1°C 28.0°F-2.2°C 68% 8.9 mph NNE14.3 kmh NNE 13.5 mph21.7 kmh 30.15 in1021.0 mb 0.02 in0.5 mm 0.00 in0.0 mm 0.11 in2.8 mm
10:49 AM 37.6°F3.1°C 28.4°F-2.0°C 69% 8.9 mph NNE14.3 kmh NNE 13.5 mph21.7 kmh 30.15 in1021.0 mb 0.02 in0.5 mm 0.00 in0.0 mm 0.11 in2.8 mm
10:50 AM 37.6°F3.1°C 28.4°F-2.0°C 69% 8.3 mph NNE13.4 kmh NNE 13.5 mph21.7 kmh 30.15 in1021.0 mb 0.02 in0.5 mm 0.00 in0.0 mm 0.11 in2.8 mm
10:51 AM 37.4°F3.0°C 27.8°F-2.3°C 68% 6.8 mph NW10.9 kmh NW 13.5 mph21.7 kmh 30.15 in1021.0 mb 0.02 in0.5 mm 0.00 in0.0 mm 0.11 in2.8 mm
10:52 AM 37.6°F3.1°C 28.4°F-2.0°C 69% 8.3 mph NNE13.4 kmh NNE 13.5 mph21.7 kmh 30.15 in1021.0 mb 0.02 in0.5 mm 0.00 in0.0 mm 0.11 in2.8 mm
10:53 AM 37.6°F3.1°C 28.0°F-2.2°C 68% 6.8 mph NNW10.9 kmh NNW 13.5 mph21.7 kmh 30.15 in1021.0 mb 0.02 in0.5 mm 0.00 in0.0 mm 0.11 in2.8 mm
10:54 AM 37.8°F3.2°C 27.8°F-2.3°C 67% 11.4 mph W18.3 kmh W 17.1 mph27.5 kmh 30.15 in1021.0 mb 0.01 in0.3 mm 0.00 in0.0 mm 0.11 in2.8 mm
10:55 AM 37.9°F3.3°C 27.6°F-2.4°C 66% 12.5 mph NW20.1 kmh NW 17.1 mph27.5 kmh 30.15 in1021.0 mb 0.01 in0.3 mm 0.00 in0.0 mm 0.11 in2.8 mm
10:56 AM 37.9°F3.3°C 27.6°F-2.4°C 66% 5.8 mph W9.3 kmh W 17.1 mph27.5 kmh 30.15 in1021.0 mb 0.01 in0.3 mm 0.00 in0.0 mm 0.11 in2.8 mm
10:57 AM 37.9°F3.3°C 27.9°F-2.3°C 67% 9.4 mph WSW15.1 kmh WSW 17.1 mph27.5 kmh 30.15 in1021.0 mb 0.01 in0.3 mm 0.00 in0.0 mm 0.11 in2.8 mm
10:58 AM 38.1°F3.4°C 28.1°F-2.2°C 67% 11.4 mph NW18.3 kmh NW 17.1 mph27.5 kmh 30.15 in1021.0 mb 0.01 in0.3 mm 0.00 in0.0 mm 0.11 in2.8 mm
10:59 AM 38.1°F3.4°C 28.1°F-2.2°C 67% 11.4 mph NW18.3 kmh NW 17.1 mph27.5 kmh 30.15 in1021.0 mb 0.01 in0.3 mm 0.00 in0.0 mm 0.11 in2.8 mm
11:04 AM 38.1°F3.4°C 28.1°F-2.2°C 67% 10.9 mph NNW17.5 kmh NNW 14.5 mph23.3 kmh 30.15 in1021.0 mb 0.02 in0.5 mm 0.01 in0.3 mm 0.12 in3.0 mm
11:05 AM 38.3°F3.5°C 27.2°F-2.7°C 64% 13.0 mph NNW20.9 kmh NNW 14.5 mph23.3 kmh 30.15 in1021.0 mb 0.02 in0.5 mm 0.00 in0.0 mm 0.12 in3.0 mm
11:06 AM 38.1°F3.4°C 26.3°F-3.2°C 62% 13.5 mph W21.7 kmh W 14.5 mph23.3 kmh 30.15 in1021.0 mb 0.02 in0.5 mm 0.00 in0.0 mm 0.12 in3.0 mm
11:07 AM 37.9°F3.3°C 26.4°F-3.1°C 63% 8.9 mph W14.3 kmh W 13.5 mph21.7 kmh 30.15 in1021.0 mb 0.02 in0.5 mm 0.00 in0.0 mm 0.12 in3.0 mm
11:08 AM 37.8°F3.2°C 26.7°F-2.9°C 64% 7.8 mph W12.6 kmh W 13.5 mph21.7 kmh 30.15 in1021.0 mb 0.02 in0.5 mm 0.00 in0.0 mm 0.12 in3.0 mm
11:09 AM 37.8°F3.2°C 27.1°F-2.7°C 65% 7.8 mph N12.6 kmh N 13.5 mph21.7 kmh 30.15 in1021.0 mb 0.02 in0.5 mm 0.00 in0.0 mm 0.12 in3.0 mm
11:10 AM 37.8°F3.2°C 27.1°F-2.7°C 65% 10.9 mph NNE17.5 kmh NNE 13.5 mph21.7 kmh 30.15 in1021.0 mb 0.02 in0.5 mm 0.00 in0.0 mm 0.12 in3.0 mm
11:11 AM 37.8°F3.2°C 27.8°F-2.3°C 67% 14.0 mph NNW22.5 kmh NNW 14.5 mph23.3 kmh 30.15 in1021.0 mb 0.02 in0.5 mm 0.00 in0.0 mm 0.12 in3.0 mm
11:12 AM 37.6°F3.1°C 27.3°F-2.6°C 66% 9.4 mph NNE15.1 kmh NNE 14.5 mph23.3 kmh 30.15 in1021.0 mb 0.02 in0.5 mm 0.00 in0.0 mm 0.12 in3.0 mm
11:13 AM 37.6°F3.1°C 27.3°F-2.6°C 66% 9.4 mph NNE15.1 kmh NNE 14.5 mph23.3 kmh 30.15 in1021.0 mb 0.02 in0.5 mm 0.00 in0.0 mm 0.12 in3.0 mm
11:14 AM 37.2°F2.9°C 26.9°F-2.8°C 66% 10.4 mph N16.7 kmh N 14.5 mph23.3 kmh 30.15 in1021.0 mb 0.02 in0.5 mm 0.00 in0.0 mm 0.12 in3.0 mm
11:15 AM 37.2°F2.9°C 26.2°F-3.2°C 64% 12.5 mph N20.1 kmh N 14.5 mph23.3 kmh 30.15 in1021.0 mb 0.02 in0.5 mm 0.00 in0.0 mm 0.12 in3.0 mm
11:16 AM 37.2°F2.9°C 25.8°F-3.4°C 63% 6.8 mph WNW10.9 kmh WNW 14.5 mph23.3 kmh 30.15 in1021.0 mb 0.02 in0.5 mm 0.00 in0.0 mm 0.12 in3.0 mm
11:17 AM 37.0°F2.8°C 26.0°F-3.3°C 64% 11.9 mph N19.2 kmh N 14.5 mph23.3 kmh 30.16 in1021.3 mb 0.02 in0.5 mm 0.00 in0.0 mm 0.12 in3.0 mm
11:18 AM 37.0°F2.8°C 26.0°F-3.3°C 64% 11.9 mph NNE19.2 kmh NNE 14.5 mph23.3 kmh 30.16 in1021.3 mb 0.02 in0.5 mm 0.00 in0.0 mm 0.12 in3.0 mm
11:19 AM 37.2°F2.9°C 26.2°F-3.2°C 64% 11.9 mph NW19.2 kmh NW 14.5 mph23.3 kmh 30.16 in1021.3 mb 0.02 in0.5 mm 0.00 in0.0 mm 0.12 in3.0 mm
11:20 AM 37.4°F3.0°C 26.0°F-3.3°C 63% 9.4 mph NW15.1 kmh NW 14.5 mph23.3 kmh 30.16 in1021.3 mb 0.02 in0.5 mm 0.00 in0.0 mm 0.12 in3.0 mm
11:21 AM 37.4°F3.0°C 26.0°F-3.3°C 63% 12.5 mph E20.1 kmh E 14.5 mph23.3 kmh 30.16 in1021.3 mb 0.02 in0.5 mm 0.00 in0.0 mm 0.12 in3.0 mm
11:22 AM 37.6°F3.1°C 25.8°F-3.4°C 62% 13.0 mph NW20.9 kmh NW 14.5 mph23.3 kmh 30.16 in1021.3 mb 0.02 in0.5 mm 0.00 in0.0 mm 0.12 in3.0 mm
11:23 AM 37.9°F3.3°C 25.7°F-3.5°C 61% 7.3 mph W11.7 kmh W 14.5 mph23.3 kmh 30.16 in1021.3 mb 0.02 in0.5 mm 0.00 in0.0 mm 0.12 in3.0 mm
11:24 AM 37.6°F3.1°C 25.0°F-3.9°C 60% 9.9 mph NNE15.9 kmh NNE 14.5 mph23.3 kmh 30.16 in1021.3 mb 0.02 in0.5 mm 0.00 in0.0 mm 0.12 in3.0 mm
11:25 AM 37.6°F3.1°C 24.6°F-4.1°C 59% 9.4 mph W15.1 kmh W 14.5 mph23.3 kmh 30.16 in1021.3 mb 0.02 in0.5 mm 0.00 in0.0 mm 0.12 in3.0 mm
11:26 AM 37.6°F3.1°C 24.6°F-4.1°C 59% 8.9 mph WNW14.3 kmh WNW 15.5 mph24.9 kmh 30.16 in1021.3 mb 0.02 in0.5 mm 0.00 in0.0 mm 0.12 in3.0 mm
11:27 AM 37.9°F3.3°C 25.3°F-3.7°C 60% 11.4 mph NW18.3 kmh NW 15.5 mph24.9 kmh 30.16 in1021.3 mb 0.02 in0.5 mm 0.00 in0.0 mm 0.12 in3.0 mm
11:28 AM 37.9°F3.3°C 25.3°F-3.7°C 60% 9.9 mph W15.9 kmh W 15.5 mph24.9 kmh 30.16 in1021.3 mb 0.02 in0.5 mm 0.00 in0.0 mm 0.12 in3.0 mm
11:29 AM 37.9°F3.3°C 24.9°F-3.9°C 59% 9.9 mph W15.9 kmh W 15.5 mph24.9 kmh 30.15 in1021.0 mb 0.02 in0.5 mm 0.00 in0.0 mm 0.12 in3.0 mm
11:30 AM 38.1°F3.4°C 25.5°F-3.6°C 60% 8.9 mph NNW14.3 kmh NNW 15.5 mph24.9 kmh 30.15 in1021.0 mb 0.02 in0.5 mm 0.00 in0.0 mm 0.12 in3.0 mm
11:31 AM 38.3°F3.5°C 25.6°F-3.6°C 60% 11.9 mph NNW19.2 kmh NNW 15.5 mph24.9 kmh 30.15 in1021.0 mb 0.02 in0.5 mm 0.00 in0.0 mm 0.12 in3.0 mm
11:32 AM 38.3°F3.5°C 25.6°F-3.6°C 60% 9.9 mph WNW15.9 kmh WNW 15.5 mph24.9 kmh 30.15 in1021.0 mb 0.02 in0.5 mm 0.00 in0.0 mm 0.12 in3.0 mm
11:33 AM 39.0°F3.9°C 25.9°F-3.4°C 59% 11.4 mph NNE18.3 kmh NNE 15.5 mph24.9 kmh 30.15 in1021.0 mb 0.02 in0.5 mm 0.00 in0.0 mm 0.12 in3.0 mm
11:34 AM 39.0°F3.9°C 25.9°F-3.4°C 59% 11.4 mph NNW18.3 kmh NNW 15.5 mph24.9 kmh 30.15 in1021.0 mb 0.02 in0.5 mm 0.00 in0.0 mm 0.12 in3.0 mm
11:35 AM 38.8°F3.8°C 25.3°F-3.7°C 58% 14.5 mph NNW23.3 kmh NNW 15.5 mph24.9 kmh 30.15 in1021.0 mb 0.02 in0.5 mm 0.00 in0.0 mm 0.12 in3.0 mm
11:36 AM 38.7°F3.7°C 24.8°F-4.0°C 57% 10.9 mph N17.5 kmh N 15.5 mph24.9 kmh 30.15 in1021.0 mb 0.02 in0.5 mm 0.00 in0.0 mm 0.12 in3.0 mm
11:37 AM 38.7°F3.7°C 24.8°F-4.0°C 57% 16.1 mph NNW25.9 kmh NNW 16.1 mph25.9 kmh 30.15 in1021.0 mb 0.02 in0.5 mm 0.00 in0.0 mm 0.12 in3.0 mm
11:42 AM 38.7°F3.7°C 24.8°F-4.0°C 57% 10.4 mph NE16.7 kmh NE 16.1 mph25.9 kmh 30.15 in1021.0 mb 0.01 in0.3 mm 0.00 in0.0 mm 0.12 in3.0 mm
11:43 AM 38.3°F3.5°C 24.4°F-4.2°C 57% 8.9 mph NE14.3 kmh NE 16.1 mph25.9 kmh 30.15 in1021.0 mb 0.01 in0.3 mm 0.00 in0.0 mm 0.12 in3.0 mm
11:44 AM 38.3°F3.5°C 24.4°F-4.2°C 57% 6.8 mph NW10.9 kmh NW 16.1 mph25.9 kmh 30.15 in1021.0 mb 0.01 in0.3 mm 0.00 in0.0 mm 0.12 in3.0 mm
11:45 AM 38.3°F3.5°C 24.0°F-4.4°C 56% 14.5 mph W23.3 kmh W 16.1 mph25.9 kmh 30.15 in1021.0 mb 0.01 in0.3 mm 0.00 in0.0 mm 0.12 in3.0 mm
11:46 AM 38.3°F3.5°C 24.0°F-4.4°C 56% 12.5 mph W20.1 kmh W 16.1 mph25.9 kmh 30.15 in1021.0 mb 0.01 in0.3 mm 0.00 in0.0 mm 0.12 in3.0 mm
11:47 AM 38.1°F3.4°C 22.9°F-5.1°C 54% 14.0 mph SW22.5 kmh SW 16.1 mph25.9 kmh 30.15 in1021.0 mb 0.01 in0.3 mm 0.00 in0.0 mm 0.12 in3.0 mm
11:48 AM 38.1°F3.4°C 23.4°F-4.8°C 55% 10.9 mph WNW17.5 kmh WNW 14.5 mph23.3 kmh 30.15 in1021.0 mb 0.01 in0.3 mm 0.00 in0.0 mm 0.12 in3.0 mm
11:49 AM 38.1°F3.4°C 23.4°F-4.8°C 55% 12.5 mph W20.1 kmh W 15.0 mph24.1 kmh 30.15 in1021.0 mb 0.01 in0.3 mm 0.00 in0.0 mm 0.12 in3.0 mm
11:50 AM 38.1°F3.4°C 22.9°F-5.1°C 54% 10.9 mph WNW17.5 kmh WNW 15.0 mph24.1 kmh 30.15 in1021.0 mb 0.01 in0.3 mm 0.00 in0.0 mm 0.12 in3.0 mm
11:51 AM 38.5°F3.6°C 23.3°F-4.8°C 54% 6.3 mph W10.1 kmh W 15.0 mph24.1 kmh 30.15 in1021.0 mb 0.01 in0.3 mm 0.00 in0.0 mm 0.12 in3.0 mm
11:52 AM 38.7°F3.7°C 23.5°F-4.7°C 54% 9.4 mph NNW15.1 kmh NNW 15.0 mph24.1 kmh 30.15 in1021.0 mb 0.01 in0.3 mm 0.00 in0.0 mm 0.12 in3.0 mm
11:53 AM 39.0°F3.9°C 23.8°F-4.6°C 54% 6.8 mph N10.9 kmh N 15.0 mph24.1 kmh 30.15 in1021.0 mb 0.01 in0.3 mm 0.00 in0.0 mm 0.12 in3.0 mm
11:54 AM 39.2°F4.0°C 23.5°F-4.7°C 53% 6.8 mph WNW10.9 kmh WNW 15.0 mph24.1 kmh 30.15 in1021.0 mb 0.01 in0.3 mm 0.00 in0.0 mm 0.12 in3.0 mm
11:55 AM 39.2°F4.0°C 23.5°F-4.7°C 53% 8.3 mph N13.4 kmh N 15.0 mph24.1 kmh 30.15 in1021.0 mb 0.01 in0.3 mm 0.00 in0.0 mm 0.12 in3.0 mm
11:56 AM 39.2°F4.0°C 24.4°F-4.2°C 55% 10.4 mph N16.7 kmh N 15.0 mph24.1 kmh 30.15 in1021.0 mb 0.01 in0.3 mm 0.00 in0.0 mm 0.12 in3.0 mm
11:57 AM 39.2°F4.0°C 24.0°F-4.4°C 54% 16.1 mph NNE25.9 kmh NNE 16.1 mph25.9 kmh 30.15 in1021.0 mb 0.01 in0.3 mm 0.00 in0.0 mm 0.12 in3.0 mm
11:58 AM 39.0°F3.9°C 23.3°F-4.8°C 53% 7.8 mph WNW12.6 kmh WNW 16.1 mph25.9 kmh 30.15 in1021.0 mb 0.01 in0.3 mm 0.00 in0.0 mm 0.12 in3.0 mm
12:04 PM 38.5°F3.6°C 22.4°F-5.3°C 52% 13.0 mph WNW20.9 kmh WNW 16.1 mph25.9 kmh 30.15 in1021.0 mb 0.01 in0.3 mm 0.00 in0.0 mm 0.12 in3.0 mm
12:05 PM 38.3°F3.5°C 21.8°F-5.7°C 51% 15.0 mph NNW24.1 kmh NNW 16.1 mph25.9 kmh 30.15 in1021.0 mb 0.00 in0.0 mm 0.00 in0.0 mm 0.12 in3.0 mm
12:06 PM 37.9°F3.3°C 21.4°F-5.9°C 51% 12.5 mph W20.1 kmh W 16.1 mph25.9 kmh 30.15 in1021.0 mb 0.00 in0.0 mm 0.00 in0.0 mm 0.12 in3.0 mm
12:07 PM 37.9°F3.3°C 21.4°F-5.9°C 51% 7.8 mph NE12.6 kmh NE 15.0 mph24.1 kmh 30.15 in1021.0 mb 0.00 in0.0 mm 0.00 in0.0 mm 0.12 in3.0 mm
12:08 PM 37.9°F3.3°C 21.9°F-5.6°C 52% 9.4 mph N15.1 kmh N 15.0 mph24.1 kmh 30.15 in1021.0 mb 0.00 in0.0 mm 0.00 in0.0 mm 0.12 in3.0 mm
12:09 PM 38.3°F3.5°C 22.2°F-5.4°C 52% 12.5 mph NNE20.1 kmh NNE 15.0 mph24.1 kmh 30.15 in1021.0 mb 0.00 in0.0 mm 0.00 in0.0 mm 0.12 in3.0 mm
12:10 PM 38.3°F3.5°C 22.2°F-5.4°C 52% 12.5 mph NNE20.1 kmh NNE 15.0 mph24.1 kmh 30.15 in1021.0 mb 0.00 in0.0 mm 0.00 in0.0 mm 0.12 in3.0 mm
12:11 PM 38.7°F3.7°C 22.1°F-5.5°C 51% 11.4 mph W18.3 kmh W 15.0 mph24.1 kmh 30.15 in1021.0 mb 0.00 in0.0 mm 0.00 in0.0 mm 0.12 in3.0 mm
12:12 PM 38.8°F3.8°C 23.2°F-4.9°C 53% 8.9 mph W14.3 kmh W 15.0 mph24.1 kmh 30.15 in1021.0 mb 0.00 in0.0 mm 0.00 in0.0 mm 0.12 in3.0 mm
12:13 PM 39.2°F4.0°C 23.5°F-4.7°C 53% 18.6 mph NW29.9 kmh NW 18.6 mph29.9 kmh 30.15 in1021.0 mb 0.00 in0.0 mm 0.00 in0.0 mm 0.12 in3.0 mm
12:14 PM 39.2°F4.0°C 23.1°F-4.9°C 52% 19.1 mph NNW30.7 kmh NNW 19.1 mph30.7 kmh 30.15 in1021.0 mb 0.00 in0.0 mm 0.00 in0.0 mm 0.12 in3.0 mm
12:15 PM 39.2°F4.0°C 22.6°F-5.2°C 51% 9.9 mph NNW15.9 kmh NNW 19.1 mph30.7 kmh 30.15 in1021.0 mb 0.00 in0.0 mm 0.00 in0.0 mm 0.12 in3.0 mm
12:16 PM 39.2°F4.0°C 23.1°F-4.9°C 52% 10.4 mph WSW16.7 kmh WSW 19.1 mph30.7 kmh 30.15 in1021.0 mb 0.00 in0.0 mm 0.00 in0.0 mm 0.12 in3.0 mm
12:17 PM 38.8°F3.8°C 22.7°F-5.2°C 52% 7.3 mph W11.7 kmh W 19.1 mph30.7 kmh 30.16 in1021.3 mb 0.00 in0.0 mm 0.00 in0.0 mm 0.12 in3.0 mm
12:18 PM 38.7°F3.7°C 21.7°F-5.7°C 50% 6.8 mph W10.9 kmh W 19.1 mph30.7 kmh 30.16 in1021.3 mb 0.00 in0.0 mm 0.00 in0.0 mm 0.12 in3.0 mm
12:19 PM 38.8°F3.8°C 22.2°F-5.4°C 51% 6.8 mph W10.9 kmh W 19.1 mph30.7 kmh 30.16 in1021.3 mb 0.00 in0.0 mm 0.00 in0.0 mm 0.12 in3.0 mm
12:20 PM 39.0°F3.9°C 22.4°F-5.3°C 51% 5.8 mph WSW9.3 kmh WSW 19.1 mph30.7 kmh 30.16 in1021.3 mb 0.00 in0.0 mm 0.00 in0.0 mm 0.12 in3.0 mm
12:21 PM 39.0°F3.9°C 22.0°F-5.6°C 50% 14.5 mph WNW23.3 kmh WNW 19.1 mph30.7 kmh 30.16 in1021.3 mb 0.00 in0.0 mm 0.00 in0.0 mm 0.12 in3.0 mm
12:22 PM 39.0°F3.9°C 21.5°F-5.8°C 49% 12.5 mph N20.1 kmh N 19.1 mph30.7 kmh 30.16 in1021.3 mb 0.00 in0.0 mm 0.00 in0.0 mm 0.12 in3.0 mm
12:23 PM 38.7°F3.7°C 21.2°F-6.0°C 49% 9.4 mph W15.1 kmh W 19.1 mph30.7 kmh 30.16 in1021.3 mb 0.00 in0.0 mm 0.00 in0.0 mm 0.12 in3.0 mm
12:24 PM 38.7°F3.7°C 21.2°F-6.0°C 49% 9.4 mph W15.1 kmh W 19.1 mph30.7 kmh 30.16 in1021.3 mb 0.00 in0.0 mm 0.00 in0.0 mm 0.12 in3.0 mm
12:25 PM 38.7°F3.7°C 21.7°F-5.7°C 50% 6.8 mph N10.9 kmh N 16.1 mph25.9 kmh 30.16 in1021.3 mb 0.00 in0.0 mm 0.00 in0.0 mm 0.12 in3.0 mm
12:26 PM 38.5°F3.6°C 21.0°F-6.1°C 49% 7.3 mph W11.7 kmh W 16.1 mph25.9 kmh 30.16 in1021.3 mb 0.00 in0.0 mm 0.00 in0.0 mm 0.12 in3.0 mm
12:27 PM 38.3°F3.5°C 21.3°F-5.9°C 50% 10.9 mph WNW17.5 kmh WNW 16.1 mph25.9 kmh 30.16 in1021.3 mb 0.00 in0.0 mm 0.00 in0.0 mm 0.12 in3.0 mm
12:28 PM 38.1°F3.4°C 21.6°F-5.8°C 51% 13.0 mph NNW20.9 kmh NNW 16.1 mph25.9 kmh 30.15 in1021.0 mb 0.00 in0.0 mm 0.00 in0.0 mm 0.12 in3.0 mm
12:29 PM 38.1°F3.4°C 21.6°F-5.8°C 51% 18.1 mph NNW29.1 kmh NNW 18.1 mph29.1 kmh 30.15 in1021.0 mb 0.00 in0.0 mm 0.00 in0.0 mm 0.12 in3.0 mm
12:30 PM 38.1°F3.4°C 22.5°F-5.3°C 53% 10.4 mph W16.7 kmh W 18.1 mph29.1 kmh 30.15 in1021.0 mb 0.00 in0.0 mm 0.00 in0.0 mm 0.12 in3.0 mm
12:31 PM 38.3°F3.5°C 23.1°F-4.9°C 54% 15.5 mph W24.9 kmh W 18.1 mph29.1 kmh 30.15 in1021.0 mb 0.00 in0.0 mm 0.00 in0.0 mm 0.12 in3.0 mm
12:35 PM 37.6°F3.1°C 21.6°F-5.8°C 52% 16.6 mph W26.7 kmh W 18.1 mph29.1 kmh 30.15 in1021.0 mb 0.00 in0.0 mm 0.00 in0.0 mm 0.12 in3.0 mm
12:36 PM 37.6°F3.1°C 21.6°F-5.8°C 52% 12.5 mph NW20.1 kmh NW 18.1 mph29.1 kmh 30.15 in1021.0 mb 0.00 in0.0 mm 0.00 in0.0 mm 0.12 in3.0 mm
12:37 PM 37.9°F3.3°C 21.9°F-5.6°C 52% 5.8 mph W9.3 kmh W 18.1 mph29.1 kmh 30.15 in1021.0 mb 0.00 in0.0 mm 0.00 in0.0 mm 0.12 in3.0 mm
12:38 PM 38.1°F3.4°C 21.6°F-5.8°C 51% 7.3 mph NNE11.7 kmh NNE 18.1 mph29.1 kmh 30.15 in1021.0 mb 0.00 in0.0 mm 0.00 in0.0 mm 0.12 in3.0 mm
12:39 PM 38.1°F3.4°C 21.1°F-6.1°C 50% 8.9 mph NNE14.3 kmh NNE 18.1 mph29.1 kmh 30.15 in1021.0 mb 0.00 in0.0 mm 0.00 in0.0 mm 0.12 in3.0 mm
12:40 PM 37.9°F3.3°C 20.9°F-6.2°C 50% 11.4 mph W18.3 kmh W 16.6 mph26.7 kmh 30.15 in1021.0 mb 0.00 in0.0 mm 0.00 in0.0 mm 0.12 in3.0 mm
12:41 PM 37.9°F3.3°C 20.9°F-6.2°C 50% 9.4 mph WNW15.1 kmh WNW 16.6 mph26.7 kmh 30.14 in1020.7 mb 0.00 in0.0 mm 0.00 in0.0 mm 0.12 in3.0 mm
12:42 PM 38.1°F3.4°C 21.6°F-5.8°C 51% 10.4 mph NNE16.7 kmh NNE 16.6 mph26.7 kmh 30.14 in1020.7 mb 0.00 in0.0 mm 0.00 in0.0 mm 0.12 in3.0 mm
12:43 PM 38.5°F3.6°C 22.0°F-5.6°C 51% 13.0 mph NNW20.9 kmh NNW 16.6 mph26.7 kmh 30.14 in1020.7 mb 0.00 in0.0 mm 0.00 in0.0 mm 0.12 in3.0 mm
12:44 PM 38.5°F3.6°C 22.0°F-5.6°C 51% 16.1 mph WSW25.9 kmh WSW 16.6 mph26.7 kmh 30.14 in1020.7 mb 0.00 in0.0 mm 0.00 in0.0 mm 0.12 in3.0 mm
12:45 PM 38.5°F3.6°C 21.5°F-5.8°C 50% 10.4 mph W16.7 kmh W 16.6 mph26.7 kmh 30.14 in1020.7 mb 0.00 in0.0 mm 0.00 in0.0 mm 0.12 in3.0 mm
12:46 PM 38.7°F3.7°C 21.7°F-5.7°C 50% 18.1 mph NNW29.1 kmh NNW 18.1 mph29.1 kmh 30.14 in1020.7 mb 0.00 in0.0 mm 0.00 in0.0 mm 0.12 in3.0 mm
12:47 PM 38.7°F3.7°C 21.7°F-5.7°C 50% 9.9 mph NE15.9 kmh NE 18.1 mph29.1 kmh 30.14 in1020.7 mb 0.00 in0.0 mm 0.00 in0.0 mm 0.12 in3.0 mm
12:48 PM 39.0°F3.9°C 22.9°F-5.1°C 52% 8.9 mph NNW14.3 kmh NNW 18.1 mph29.1 kmh 30.14 in1020.7 mb 0.00 in0.0 mm 0.00 in0.0 mm 0.12 in3.0 mm
12:49 PM 39.0°F3.9°C 22.4°F-5.3°C 51% 16.6 mph W26.7 kmh W 18.1 mph29.1 kmh 30.14 in1020.7 mb 0.00 in0.0 mm 0.00 in0.0 mm 0.12 in3.0 mm
12:50 PM 39.0°F3.9°C 22.0°F-5.6°C 50% 11.4 mph N18.3 kmh N 18.1 mph29.1 kmh 30.14 in1020.7 mb 0.00 in0.0 mm 0.00 in0.0 mm 0.12 in3.0 mm
12:51 PM 38.8°F3.8°C 20.8°F-6.2°C 48% 13.0 mph NNE20.9 kmh NNE 18.1 mph29.1 kmh 30.14 in1020.7 mb 0.00 in0.0 mm 0.00 in0.0 mm 0.12 in3.0 mm
12:52 PM 38.8°F3.8°C 21.3°F-5.9°C 49% 14.5 mph NNE23.3 kmh NNE 18.1 mph29.1 kmh 30.14 in1020.7 mb 0.00 in0.0 mm 0.00 in0.0 mm 0.12 in3.0 mm
12:53 PM 38.8°F3.8°C 21.3°F-5.9°C 49% 7.8 mph N12.6 kmh N 18.1 mph29.1 kmh 30.14 in1020.7 mb 0.00 in0.0 mm 0.00 in0.0 mm 0.12 in3.0 mm
12:54 PM 39.0°F3.9°C 22.0°F-5.6°C 50% 10.9 mph NNW17.5 kmh NNW 18.1 mph29.1 kmh 30.14 in1020.7 mb 0.00 in0.0 mm 0.00 in0.0 mm 0.12 in3.0 mm
12:55 PM 39.0°F3.9°C 22.0°F-5.6°C 50% 11.4 mph WNW18.3 kmh WNW 18.1 mph29.1 kmh 30.14 in1020.7 mb 0.00 in0.0 mm 0.00 in0.0 mm 0.12 in3.0 mm
12:56 PM 38.8°F3.8°C 21.8°F-5.7°C 50% 12.5 mph W20.1 kmh W 18.1 mph29.1 kmh 30.14 in1020.7 mb 0.00 in0.0 mm 0.00 in0.0 mm 0.12 in3.0 mm
12:57 PM 38.8°F3.8°C 21.3°F-5.9°C 49% 10.4 mph NNW16.7 kmh NNW 18.1 mph29.1 kmh 30.14 in1020.7 mb 0.00 in0.0 mm 0.00 in0.0 mm 0.12 in3.0 mm
12:58 PM 39.0°F3.9°C 21.0°F-6.1°C 48% 21.7 mph NNE34.9 kmh NNE 21.7 mph34.9 kmh 30.14 in1020.7 mb 0.00 in0.0 mm 0.00 in0.0 mm 0.12 in3.0 mm
12:59 PM 39.0°F3.9°C 21.5°F-5.8°C 49% 12.5 mph NNE20.1 kmh NNE 21.7 mph34.9 kmh 30.14 in1020.7 mb 0.00 in0.0 mm 0.00 in0.0 mm 0.12 in3.0 mm
01:00 PM 39.0°F3.9°C 21.0°F-6.1°C 48% 11.4 mph W18.3 kmh W 21.7 mph34.9 kmh 30.14 in1020.7 mb 0.00 in0.0 mm 0.00 in0.0 mm 0.12 in3.0 mm
01:01 PM 38.8°F3.8°C 21.3°F-5.9°C 49% 9.9 mph ENE15.9 kmh ENE 21.7 mph34.9 kmh 30.14 in1020.7 mb 0.00 in0.0 mm 0.00 in0.0 mm 0.12 in3.0 mm
01:02 PM 38.3°F3.5°C 20.4°F-6.4°C 48% 10.4 mph W16.7 kmh W 21.7 mph34.9 kmh 30.14 in1020.7 mb 0.00 in0.0 mm 0.00 in0.0 mm 0.12 in3.0 mm
01:03 PM 38.3°F3.5°C 20.4°F-6.4°C 48% 15.0 mph W24.1 kmh W 21.7 mph34.9 kmh 30.14 in1020.7 mb 0.00 in0.0 mm 0.00 in0.0 mm 0.12 in3.0 mm
01:04 PM 38.3°F3.5°C 20.4°F-6.4°C 48% 10.9 mph NW17.5 kmh NW 21.7 mph34.9 kmh 30.14 in1020.7 mb 0.00 in0.0 mm 0.00 in0.0 mm 0.12 in3.0 mm
01:05 PM 38.7°F3.7°C 21.2°F-6.0°C 49% 8.3 mph W13.4 kmh W 21.7 mph34.9 kmh 30.14 in1020.7 mb 0.00 in0.0 mm 0.00 in0.0 mm 0.12 in3.0 mm
01:06 PM 38.7°F3.7°C 21.2°F-6.0°C 49% 14.0 mph NW22.5 kmh NW 21.7 mph34.9 kmh 30.14 in1020.7 mb 0.00 in0.0 mm 0.00 in0.0 mm 0.12 in3.0 mm
01:07 PM 38.7°F3.7°C 21.2°F-6.0°C 49% 14.5 mph N23.3 kmh N 21.7 mph34.9 kmh 30.14 in1020.7 mb 0.00 in0.0 mm 0.00 in0.0 mm 0.12 in3.0 mm
01:08 PM 38.7°F3.7°C 21.7°F-5.7°C 50% 13.5 mph NNE21.7 kmh NNE 21.7 mph34.9 kmh 30.14 in1020.7 mb 0.00 in0.0 mm 0.00 in0.0 mm 0.12 in3.0 mm
01:09 PM 38.8°F3.8°C 21.8°F-5.7°C 50% 11.4 mph NNE18.3 kmh NNE 18.6 mph29.9 kmh 30.14 in1020.7 mb 0.00 in0.0 mm 0.00 in0.0 mm 0.12 in3.0 mm
01:10 PM 38.8°F3.8°C 21.8°F-5.7°C 50% 7.8 mph N12.6 kmh N 16.6 mph26.7 kmh 30.14 in1020.7 mb 0.00 in0.0 mm 0.00 in0.0 mm 0.12 in3.0 mm
01:11 PM 38.3°F3.5°C 20.8°F-6.2°C 49% 10.4 mph NNE16.7 kmh NNE 15.0 mph24.1 kmh 30.14 in1020.7 mb 0.00 in0.0 mm 0.00 in0.0 mm 0.12 in3.0 mm
01:12 PM 37.9°F3.3°C 20.5°F-6.4°C 49% 14.5 mph NNE23.3 kmh NNE 15.0 mph24.1 kmh 30.14 in1020.7 mb 0.00 in0.0 mm 0.00 in0.0 mm 0.12 in3.0 mm
01:13 PM 37.9°F3.3°C 20.5°F-6.4°C 49% 7.3 mph N11.7 kmh N 15.0 mph24.1 kmh 30.14 in1020.7 mb 0.00 in0.0 mm 0.00 in0.0 mm 0.12 in3.0 mm
01:14 PM 38.1°F3.4°C 20.7°F-6.3°C 49% 17.6 mph WSW28.3 kmh WSW 17.6 mph28.3 kmh 30.14 in1020.7 mb 0.00 in0.0 mm 0.00 in0.0 mm 0.12 in3.0 mm
01:15 PM 37.9°F3.3°C 20.0°F-6.7°C 48% 12.5 mph W20.1 kmh W 17.6 mph28.3 kmh 30.14 in1020.7 mb 0.00 in0.0 mm 0.00 in0.0 mm 0.12 in3.0 mm
01:16 PM 38.1°F3.4°C 20.2°F-6.6°C 48% 5.8 mph W9.3 kmh W 17.6 mph28.3 kmh 30.14 in1020.7 mb 0.00 in0.0 mm 0.00 in0.0 mm 0.12 in3.0 mm
01:17 PM 38.5°F3.6°C 21.0°F-6.1°C 49% 6.3 mph NW10.1 kmh NW 17.6 mph28.3 kmh 30.14 in1020.7 mb 0.00 in0.0 mm 0.00 in0.0 mm 0.12 in3.0 mm
01:18 PM 38.8°F3.8°C 20.8°F-6.2°C 48% 9.9 mph WNW15.9 kmh WNW 17.6 mph28.3 kmh 30.14 in1020.7 mb 0.00 in0.0 mm 0.00 in0.0 mm 0.12 in3.0 mm
01:19 PM 39.0°F3.9°C 21.5°F-5.8°C 49% 8.9 mph NNE14.3 kmh NNE 17.6 mph28.3 kmh 30.14 in1020.7 mb 0.00 in0.0 mm 0.00 in0.0 mm 0.12 in3.0 mm
01:20 PM 39.0°F3.9°C 22.0°F-5.6°C 50% 10.9 mph W17.5 kmh W 17.6 mph28.3 kmh 30.14 in1020.7 mb 0.00 in0.0 mm 0.00 in0.0 mm 0.12 in3.0 mm
01:21 PM 39.0°F3.9°C 22.0°F-5.6°C 50% 9.4 mph ESE15.1 kmh ESE 17.6 mph28.3 kmh 30.14 in1020.7 mb 0.00 in0.0 mm 0.00 in0.0 mm 0.12 in3.0 mm
01:22 PM 39.2°F4.0°C 21.7°F-5.7°C 49% 15.0 mph W24.1 kmh W 17.6 mph28.3 kmh 30.14 in1020.7 mb 0.00 in0.0 mm 0.00 in0.0 mm 0.12 in3.0 mm
01:23 PM 38.8°F3.8°C 20.8°F-6.2°C 48% 11.4 mph SW18.3 kmh SW 17.6 mph28.3 kmh 30.14 in1020.7 mb 0.00 in0.0 mm 0.00 in0.0 mm 0.12 in3.0 mm
01:24 PM 39.0°F3.9°C 21.5°F-5.8°C 49% 11.4 mph NNW18.3 kmh NNW 17.6 mph28.3 kmh 30.14 in1020.7 mb 0.00 in0.0 mm 0.00 in0.0 mm 0.12 in3.0 mm
01:25 PM 38.8°F3.8°C 19.8°F-6.8°C 46% 8.3 mph W13.4 kmh W 15.0 mph24.1 kmh 30.14 in1020.7 mb 0.00 in0.0 mm 0.00 in0.0 mm 0.12 in3.0 mm
01:26 PM 38.7°F3.7°C 20.2°F-6.6°C 47% 14.0 mph W22.5 kmh W 15.0 mph24.1 kmh 30.14 in1020.7 mb 0.00 in0.0 mm 0.00 in0.0 mm 0.12 in3.0 mm
01:27 PM 38.3°F3.5°C 19.4°F-7.0°C 46% 17.1 mph NW27.5 kmh NW 17.1 mph27.5 kmh 30.14 in1020.7 mb 0.00 in0.0 mm 0.00 in0.0 mm 0.12 in3.0 mm
01:28 PM 38.1°F3.4°C 18.7°F-7.4°C 45% 8.9 mph NNW14.3 kmh NNW 17.1 mph27.5 kmh 30.14 in1020.7 mb 0.00 in0.0 mm 0.00 in0.0 mm 0.12 in3.0 mm
01:29 PM 38.1°F3.4°C 18.7°F-7.4°C 45% 8.9 mph NNW14.3 kmh NNW 17.1 mph27.5 kmh 30.14 in1020.7 mb 0.00 in0.0 mm 0.00 in0.0 mm 0.12 in3.0 mm
01:34 PM 37.2°F2.9°C 19.3°F-7.1°C 48% 9.9 mph NNW15.9 kmh NNW 17.1 mph27.5 kmh 30.14 in1020.7 mb 0.00 in0.0 mm 0.00 in0.0 mm 0.12 in3.0 mm
01:35 PM 37.2°F2.9°C 19.3°F-7.1°C 48% 16.1 mph NNW25.9 kmh NNW 17.1 mph27.5 kmh 30.14 in1020.7 mb 0.00 in0.0 mm 0.00 in0.0 mm 0.12 in3.0 mm
01:36 PM 37.0°F2.8°C 19.2°F-7.1°C 48% 9.4 mph W15.1 kmh W 17.1 mph27.5 kmh 30.14 in1020.7 mb 0.00 in0.0 mm 0.00 in0.0 mm 0.12 in3.0 mm
01:37 PM 37.0°F2.8°C 19.2°F-7.1°C 48% 9.4 mph NNW15.1 kmh NNW 17.1 mph27.5 kmh 30.14 in1020.7 mb 0.00 in0.0 mm 0.00 in0.0 mm 0.12 in3.0 mm
01:38 PM 37.4°F3.0°C 19.5°F-6.9°C 48% 6.8 mph W10.9 kmh W 16.1 mph25.9 kmh 30.14 in1020.7 mb 0.00 in0.0 mm 0.00 in0.0 mm 0.12 in3.0 mm
01:39 PM 37.8°F3.2°C 19.4°F-7.0°C 47% 12.5 mph NNW20.1 kmh NNW 16.1 mph25.9 kmh 30.14 in1020.7 mb 0.00 in0.0 mm 0.00 in0.0 mm 0.12 in3.0 mm
01:40 PM 37.9°F3.3°C 19.0°F-7.2°C 46% 13.0 mph NE20.9 kmh NE 16.1 mph25.9 kmh 30.14 in1020.7 mb 0.00 in0.0 mm 0.00 in0.0 mm 0.12 in3.0 mm
01:41 PM 37.9°F3.3°C 19.0°F-7.2°C 46% 12.5 mph NE20.1 kmh NE 16.1 mph25.9 kmh 30.14 in1020.7 mb 0.00 in0.0 mm 0.00 in0.0 mm 0.12 in3.0 mm
01:42 PM 38.3°F3.5°C 19.9°F-6.7°C 47% 8.9 mph N14.3 kmh N 16.1 mph25.9 kmh 30.14 in1020.7 mb 0.00 in0.0 mm 0.00 in0.0 mm 0.12 in3.0 mm
01:43 PM 38.5°F3.6°C 20.0°F-6.7°C 47% 13.5 mph NW21.7 kmh NW 16.1 mph25.9 kmh 30.14 in1020.7 mb 0.00 in0.0 mm 0.00 in0.0 mm 0.12 in3.0 mm
01:44 PM 38.3°F3.5°C 19.4°F-7.0°C 46% 8.9 mph NNW14.3 kmh NNW 16.1 mph25.9 kmh 30.14 in1020.7 mb 0.00 in0.0 mm 0.00 in0.0 mm 0.12 in3.0 mm
01:45 PM 38.3°F3.5°C 19.4°F-7.0°C 46% 12.5 mph WNW20.1 kmh WNW 16.1 mph25.9 kmh 30.14 in1020.7 mb 0.00 in0.0 mm 0.00 in0.0 mm 0.12 in3.0 mm
01:46 PM 38.3°F3.5°C 19.4°F-7.0°C 46% 9.4 mph N15.1 kmh N 15.5 mph24.9 kmh 30.14 in1020.7 mb 0.00 in0.0 mm 0.00 in0.0 mm 0.12 in3.0 mm
01:47 PM 38.3°F3.5°C 19.4°F-7.0°C 46% 11.9 mph W19.2 kmh W 15.5 mph24.9 kmh 30.14 in1020.7 mb 0.00 in0.0 mm 0.00 in0.0 mm 0.12 in3.0 mm
01:48 PM 38.7°F3.7°C 20.2°F-6.6°C 47% 9.9 mph NW15.9 kmh NW 15.5 mph24.9 kmh 30.14 in1020.7 mb 0.00 in0.0 mm 0.00 in0.0 mm 0.12 in3.0 mm
01:49 PM 38.5°F3.6°C 19.0°F-7.2°C 45% 15.0 mph NNE24.1 kmh NNE 16.1 mph25.9 kmh 30.14 in1020.7 mb 0.00 in0.0 mm 0.00 in0.0 mm 0.12 in3.0 mm
01:50 PM 38.1°F3.4°C 18.7°F-7.4°C 45% 10.4 mph N16.7 kmh N 16.1 mph25.9 kmh 30.14 in1020.7 mb 0.00 in0.0 mm 0.00 in0.0 mm 0.12 in3.0 mm
01:51 PM 37.9°F3.3°C 18.5°F-7.5°C 45% 7.8 mph N12.6 kmh N 16.1 mph25.9 kmh 30.14 in1020.7 mb 0.00 in0.0 mm 0.00 in0.0 mm 0.12 in3.0 mm
01:52 PM 37.9°F3.3°C 18.5°F-7.5°C 45% 10.4 mph NW16.7 kmh NW 16.1 mph25.9 kmh 30.14 in1020.7 mb 0.00 in0.0 mm 0.00 in0.0 mm 0.12 in3.0 mm
01:53 PM 37.9°F3.3°C 19.0°F-7.2°C 46% 8.9 mph N14.3 kmh N 16.1 mph25.9 kmh 30.14 in1020.7 mb 0.00 in0.0 mm 0.00 in0.0 mm 0.12 in3.0 mm
01:54 PM 37.9°F3.3°C 19.0°F-7.2°C 46% 8.9 mph NNE14.3 kmh NNE 16.1 mph25.9 kmh 30.14 in1020.7 mb 0.00 in0.0 mm 0.00 in0.0 mm 0.12 in3.0 mm
01:55 PM 38.1°F3.4°C 19.2°F-7.1°C 46% 9.9 mph NE15.9 kmh NE 16.1 mph25.9 kmh 30.14 in1020.7 mb 0.00 in0.0 mm 0.00 in0.0 mm 0.12 in3.0 mm
01:56 PM 38.3°F3.5°C 19.4°F-7.0°C 46% 8.3 mph NNW13.4 kmh NNW 16.1 mph25.9 kmh 30.14 in1020.7 mb 0.00 in0.0 mm 0.00 in0.0 mm 0.12 in3.0 mm
01:57 PM 38.7°F3.7°C 20.2°F-6.6°C 47% 13.5 mph ENE21.7 kmh ENE 16.1 mph25.9 kmh 30.14 in1020.7 mb 0.00 in0.0 mm 0.00 in0.0 mm 0.12 in3.0 mm
01:58 PM 38.5°F3.6°C 19.0°F-7.2°C 45% 11.4 mph WNW18.3 kmh WNW 16.1 mph25.9 kmh 30.14 in1020.7 mb 0.00 in0.0 mm 0.00 in0.0 mm 0.12 in3.0 mm
01:59 PM 38.3°F3.5°C 18.8°F-7.3°C 45% 11.9 mph N19.2 kmh N 16.1 mph25.9 kmh 30.14 in1020.7 mb 0.00 in0.0 mm 0.00 in0.0 mm 0.12 in3.0 mm
02:00 PM 38.1°F3.4°C 18.7°F-7.4°C 45% 9.9 mph WNW15.9 kmh WNW 16.1 mph25.9 kmh 30.14 in1020.7 mb 0.00 in0.0 mm 0.00 in0.0 mm 0.12 in3.0 mm
02:01 PM 38.3°F3.5°C 18.8°F-7.3°C 45% 10.9 mph NW17.5 kmh NW 16.1 mph25.9 kmh 30.14 in1020.7 mb 0.00 in0.0 mm 0.00 in0.0 mm 0.12 in3.0 mm
02:02 PM 38.3°F3.5°C 19.4°F-7.0°C 46% 8.3 mph NW13.4 kmh NW 16.1 mph25.9 kmh 30.14 in1020.7 mb 0.00 in0.0 mm 0.00 in0.0 mm 0.12 in3.0 mm
02:03 PM 38.3°F3.5°C 19.4°F-7.0°C 46% 10.4 mph N16.7 kmh N 15.0 mph24.1 kmh 30.14 in1020.7 mb 0.00 in0.0 mm 0.00 in0.0 mm 0.12 in3.0 mm
02:04 PM 38.3°F3.5°C 19.4°F-7.0°C 46% 7.8 mph NE12.6 kmh NE 15.0 mph24.1 kmh 30.14 in1020.7 mb 0.00 in0.0 mm 0.00 in0.0 mm 0.12 in3.0 mm
02:05 PM 38.3°F3.5°C 19.4°F-7.0°C 46% 12.5 mph NW20.1 kmh NW 15.0 mph24.1 kmh 30.14 in1020.7 mb 0.00 in0.0 mm 0.00 in0.0 mm 0.12 in3.0 mm
02:06 PM 38.3°F3.5°C 19.4°F-7.0°C 46% 10.9 mph NNE17.5 kmh NNE 15.0 mph24.1 kmh 30.14 in1020.7 mb 0.00 in0.0 mm 0.00 in0.0 mm 0.12 in3.0 mm
02:07 PM 38.1°F3.4°C 19.2°F-7.1°C 46% 8.3 mph WSW13.4 kmh WSW 15.0 mph24.1 kmh 30.14 in1020.7 mb 0.00 in0.0 mm 0.00 in0.0 mm 0.12 in3.0 mm
02:08 PM 38.3°F3.5°C 19.9°F-6.7°C 47% 10.4 mph N16.7 kmh N 15.0 mph24.1 kmh 30.14 in1020.7 mb 0.00 in0.0 mm 0.00 in0.0 mm 0.12 in3.0 mm
02:09 PM 38.5°F3.6°C 20.0°F-6.7°C 47% 7.3 mph NNW11.7 kmh NNW 15.0 mph24.1 kmh 30.14 in1020.7 mb 0.00 in0.0 mm 0.00 in0.0 mm 0.12 in3.0 mm
02:10 PM 38.8°F3.8°C 19.3°F-7.1°C 45% 7.8 mph NNW12.6 kmh NNW 15.0 mph24.1 kmh 30.14 in1020.7 mb 0.00 in0.0 mm 0.00 in0.0 mm 0.12 in3.0 mm
02:11 PM 39.0°F3.9°C 20.0°F-6.7°C 46% 12.5 mph NNW20.1 kmh NNW 15.0 mph24.1 kmh 30.14 in1020.7 mb 0.00 in0.0 mm 0.00 in0.0 mm 0.12 in3.0 mm
02:12 PM 39.0°F3.9°C 20.0°F-6.7°C 46% 13.5 mph N21.7 kmh N 14.5 mph23.3 kmh 30.14 in1020.7 mb 0.00 in0.0 mm 0.00 in0.0 mm 0.12 in3.0 mm
02:13 PM 38.7°F3.7°C 19.2°F-7.1°C 45% 14.0 mph NE22.5 kmh NE 19.1 mph30.7 kmh 30.14 in1020.7 mb 0.00 in0.0 mm 0.00 in0.0 mm 0.12 in3.0 mm
02:14 PM 38.5°F3.6°C 18.5°F-7.5°C 44% 14.0 mph N22.5 kmh N 19.1 mph30.7 kmh 30.14 in1020.7 mb 0.00 in0.0 mm 0.00 in0.0 mm 0.12 in3.0 mm
02:15 PM 38.3°F3.5°C 18.3°F-7.6°C 44% 13.5 mph N21.7 kmh N 19.1 mph30.7 kmh 30.14 in1020.7 mb 0.00 in0.0 mm 0.00 in0.0 mm 0.12 in3.0 mm
02:16 PM 38.3°F3.5°C 18.3°F-7.6°C 44% 13.5 mph NNW21.7 kmh NNW 19.1 mph30.7 kmh 30.14 in1020.7 mb 0.00 in0.0 mm 0.00 in0.0 mm 0.12 in3.0 mm
02:17 PM 38.3°F3.5°C 18.8°F-7.3°C 45% 9.4 mph WSW15.1 kmh WSW 19.1 mph30.7 kmh 30.14 in1020.7 mb 0.00 in0.0 mm 0.00 in0.0 mm 0.12 in3.0 mm
02:18 PM 38.5°F3.6°C 19.0°F-7.2°C 45% 14.0 mph W22.5 kmh W 19.1 mph30.7 kmh 30.14 in1020.7 mb 0.00 in0.0 mm 0.00 in0.0 mm 0.12 in3.0 mm
02:19 PM 38.7°F3.7°C 18.7°F-7.4°C 44% 9.4 mph NNE15.1 kmh NNE 19.1 mph30.7 kmh 30.14 in1020.7 mb 0.00 in0.0 mm 0.00 in0.0 mm 0.12 in3.0 mm
02:20 PM 38.7°F3.7°C 18.2°F-7.7°C 43% 9.9 mph WSW15.9 kmh WSW 19.1 mph30.7 kmh 30.14 in1020.7 mb 0.00 in0.0 mm 0.00 in0.0 mm 0.12 in3.0 mm
02:21 PM 38.5°F3.6°C 18.0°F-7.8°C 43% 11.9 mph N19.2 kmh N 19.1 mph30.7 kmh 30.14 in1020.7 mb 0.00 in0.0 mm 0.00 in0.0 mm 0.12 in3.0 mm
02:22 PM 38.7°F3.7°C 18.2°F-7.7°C 43% 7.3 mph W11.7 kmh W 19.1 mph30.7 kmh 30.14 in1020.7 mb 0.00 in0.0 mm 0.00 in0.0 mm 0.12 in3.0 mm
02:23 PM 38.8°F3.8°C 17.7°F-7.9°C 42% 8.9 mph WNW14.3 kmh WNW 14.5 mph23.3 kmh 30.14 in1020.7 mb 0.00 in0.0 mm 0.00 in0.0 mm 0.12 in3.0 mm
02:24 PM 38.8°F3.8°C 17.7°F-7.9°C 42% 8.3 mph W13.4 kmh W 14.0 mph22.5 kmh 30.14 in1020.7 mb 0.00 in0.0 mm 0.00 in0.0 mm 0.12 in3.0 mm
02:25 PM 38.8°F3.8°C 17.7°F-7.9°C 42% 8.9 mph NNW14.3 kmh NNW 14.0 mph22.5 kmh 30.14 in1020.7 mb 0.00 in0.0 mm 0.00 in0.0 mm 0.12 in3.0 mm
02:26 PM 39.0°F3.9°C 18.4°F-7.6°C 43% 10.9 mph WNW17.5 kmh WNW 14.0 mph22.5 kmh 30.14 in1020.7 mb 0.00 in0.0 mm 0.00 in0.0 mm 0.12 in3.0 mm
02:27 PM 39.0°F3.9°C 19.0°F-7.2°C 44% 8.3 mph NNE13.4 kmh NNE 14.0 mph22.5 kmh 30.14 in1020.7 mb 0.00 in0.0 mm 0.00 in0.0 mm 0.12 in3.0 mm
02:28 PM 39.2°F4.0°C 19.1°F-7.2°C 44% 6.3 mph W10.1 kmh W 13.5 mph21.7 kmh 30.14 in1020.7 mb 0.00 in0.0 mm 0.00 in0.0 mm 0.12 in3.0 mm
02:29 PM 39.2°F4.0°C 19.1°F-7.2°C 44% 5.3 mph NNE8.5 kmh NNE 13.5 mph21.7 kmh 30.14 in1020.7 mb 0.00 in0.0 mm 0.00 in0.0 mm 0.12 in3.0 mm
02:30 PM 39.2°F4.0°C 19.1°F-7.2°C 44% 7.3 mph WSW11.7 kmh WSW 13.5 mph21.7 kmh 30.14 in1020.7 mb 0.00 in0.0 mm 0.00 in0.0 mm 0.12 in3.0 mm
02:31 PM 39.7°F4.3°C 20.1°F-6.6°C 45% 11.9 mph WSW19.2 kmh WSW 13.5 mph21.7 kmh 30.14 in1020.7 mb 0.00 in0.0 mm 0.00 in0.0 mm 0.12 in3.0 mm
02:32 PM 39.6°F4.2°C 19.5°F-6.9°C 44% 11.9 mph W19.2 kmh W 13.5 mph21.7 kmh 30.14 in1020.7 mb 0.00 in0.0 mm 0.00 in0.0 mm 0.12 in3.0 mm
02:33 PM 39.4°F4.1°C 18.2°F-7.7°C 42% 6.8 mph N10.9 kmh N 13.5 mph21.7 kmh 30.14 in1020.7 mb 0.00 in0.0 mm 0.00 in0.0 mm 0.12 in3.0 mm
02:34 PM 39.4°F4.1°C 18.8°F-7.3°C 43% 16.1 mph NNE25.9 kmh NNE 16.1 mph25.9 kmh 30.14 in1020.7 mb 0.00 in0.0 mm 0.00 in0.0 mm 0.12 in3.0 mm
02:35 PM 39.2°F4.0°C 18.1°F-7.7°C 42% 12.5 mph W20.1 kmh W 16.1 mph25.9 kmh 30.14 in1020.7 mb 0.00 in0.0 mm 0.00 in0.0 mm 0.12 in3.0 mm
02:36 PM 39.0°F3.9°C 17.9°F-7.8°C 42% 10.9 mph NNE17.5 kmh NNE 16.1 mph25.9 kmh 30.14 in1020.7 mb 0.00 in0.0 mm 0.00 in0.0 mm 0.12 in3.0 mm
02:37 PM 39.0°F3.9°C 17.9°F-7.8°C 42% 9.4 mph W15.1 kmh W 16.1 mph25.9 kmh 30.14 in1020.7 mb 0.00 in0.0 mm 0.00 in0.0 mm 0.12 in3.0 mm
02:38 PM 38.5°F3.6°C 16.9°F-8.4°C 41% 9.9 mph N15.9 kmh N 16.1 mph25.9 kmh 30.14 in1020.7 mb 0.00 in0.0 mm 0.00 in0.0 mm 0.12 in3.0 mm
02:39 PM 38.7°F3.7°C 17.1°F-8.3°C 41% 16.1 mph WSW25.9 kmh WSW 16.1 mph25.9 kmh 30.14 in1020.7 mb 0.00 in0.0 mm 0.00 in0.0 mm 0.12 in3.0 mm
02:40 PM 38.3°F3.5°C 15.5°F-9.2°C 39% 9.9 mph W15.9 kmh W 16.6 mph26.7 kmh 30.14 in1020.7 mb 0.00 in0.0 mm 0.00 in0.0 mm 0.12 in3.0 mm
02:41 PM 38.5°F3.6°C 15.7°F-9.1°C 39% 12.5 mph NW20.1 kmh NW 16.6 mph26.7 kmh 30.14 in1020.7 mb 0.00 in0.0 mm 0.00 in0.0 mm 0.12 in3.0 mm
02:42 PM 38.5°F3.6°C 15.1°F-9.4°C 38% 16.1 mph NW25.9 kmh NW 16.6 mph26.7 kmh 30.14 in1020.7 mb 0.00 in0.0 mm 0.00 in0.0 mm 0.12 in3.0 mm
02:43 PM 38.5°F3.6°C 15.1°F-9.4°C 38% 14.0 mph NW22.5 kmh NW 16.6 mph26.7 kmh 30.14 in1020.7 mb 0.00 in0.0 mm 0.00 in0.0 mm 0.12 in3.0 mm
02:44 PM 38.3°F3.5°C 14.9°F-9.5°C 38% 7.3 mph SW11.7 kmh SW 16.6 mph26.7 kmh 30.14 in1020.7 mb 0.00 in0.0 mm 0.00 in0.0 mm 0.12 in3.0 mm
02:45 PM 38.3°F3.5°C 15.5°F-9.2°C 39% 8.9 mph NW14.3 kmh NW 16.6 mph26.7 kmh 30.14 in1020.7 mb 0.00 in0.0 mm 0.00 in0.0 mm 0.12 in3.0 mm
02:46 PM 38.5°F3.6°C 15.7°F-9.1°C 39% 10.4 mph NW16.7 kmh NW 16.6 mph26.7 kmh 30.14 in1020.7 mb 0.00 in0.0 mm 0.00 in0.0 mm 0.12 in3.0 mm
02:47 PM 38.5°F3.6°C 15.1°F-9.4°C 38% 10.9 mph NNE17.5 kmh NNE 16.6 mph26.7 kmh 30.14 in1020.7 mb 0.00 in0.0 mm 0.00 in0.0 mm 0.12 in3.0 mm
02:48 PM 38.5°F3.6°C 15.7°F-9.1°C 39% 14.0 mph NNE22.5 kmh NNE 16.6 mph26.7 kmh 30.14 in1020.7 mb 0.00 in0.0 mm 0.00 in0.0 mm 0.12 in3.0 mm
02:49 PM 38.5°F3.6°C 15.7°F-9.1°C 39% 10.9 mph NNW17.5 kmh NNW 16.6 mph26.7 kmh 30.14 in1020.7 mb 0.00 in0.0 mm 0.00 in0.0 mm 0.12 in3.0 mm
02:50 PM 38.3°F3.5°C 15.5°F-9.2°C 39% 11.4 mph N18.3 kmh N 16.1 mph25.9 kmh 30.14 in1020.7 mb 0.00 in0.0 mm 0.00 in0.0 mm 0.12 in3.0 mm
02:51 PM 38.3°F3.5°C 16.1°F-8.8°C 40% 7.8 mph NW12.6 kmh NW 16.1 mph25.9 kmh 30.14 in1020.7 mb 0.00 in0.0 mm 0.00 in0.0 mm 0.12 in3.0 mm
02:52 PM 38.3°F3.5°C 16.1°F-8.8°C 40% 7.3 mph NNE11.7 kmh NNE 16.1 mph25.9 kmh 30.14 in1020.7 mb 0.00 in0.0 mm 0.00 in0.0 mm 0.12 in3.0 mm
02:53 PM 38.8°F3.8°C 16.6°F-8.6°C 40% 9.9 mph NW15.9 kmh NW 14.0 mph22.5 kmh 30.14 in1020.7 mb 0.00 in0.0 mm 0.00 in0.0 mm 0.12 in3.0 mm
02:54 PM 38.8°F3.8°C 16.6°F-8.6°C 40% 11.9 mph NNE19.2 kmh NNE 14.0 mph22.5 kmh 30.14 in1020.7 mb 0.00 in0.0 mm 0.00 in0.0 mm 0.12 in3.0 mm
02:55 PM 38.8°F3.8°C 16.6°F-8.6°C 40% 7.8 mph NNW12.6 kmh NNW 14.0 mph22.5 kmh 30.14 in1020.7 mb 0.00 in0.0 mm 0.00 in0.0 mm 0.12 in3.0 mm
02:56 PM 38.8°F3.8°C 17.1°F-8.3°C 41% 5.3 mph WNW8.5 kmh WNW 14.0 mph22.5 kmh 30.14 in1020.7 mb 0.00 in0.0 mm 0.00 in0.0 mm 0.12 in3.0 mm
02:57 PM 39.2°F4.0°C 18.1°F-7.7°C 42% 6.8 mph WNW10.9 kmh WNW 14.0 mph22.5 kmh 30.14 in1020.7 mb 0.00 in0.0 mm 0.00 in0.0 mm 0.12 in3.0 mm
02:58 PM 39.2°F4.0°C 16.9°F-8.4°C 40% 10.9 mph NE17.5 kmh NE 14.0 mph22.5 kmh 30.14 in1020.7 mb 0.00 in0.0 mm 0.00 in0.0 mm 0.12 in3.0 mm
02:59 PM 39.2°F4.0°C 16.9°F-8.4°C 40% 14.5 mph NNE23.3 kmh NNE 14.5 mph23.3 kmh 30.14 in1020.7 mb 0.00 in0.0 mm 0.00 in0.0 mm 0.12 in3.0 mm
03:00 PM 39.2°F4.0°C 17.5°F-8.1°C 41% 6.8 mph WSW10.9 kmh WSW 14.5 mph23.3 kmh 30.14 in1020.7 mb 0.00 in0.0 mm 0.00 in0.0 mm 0.12 in3.0 mm
03:01 PM 39.2°F4.0°C 18.1°F-7.7°C 42% 6.8 mph NE10.9 kmh NE 14.5 mph23.3 kmh 30.14 in1020.7 mb 0.00 in0.0 mm 0.00 in0.0 mm 0.12 in3.0 mm
03:02 PM 39.2°F4.0°C 18.1°F-7.7°C 42% 6.3 mph WNW10.1 kmh WNW 14.5 mph23.3 kmh 30.14 in1020.7 mb 0.00 in0.0 mm 0.00 in0.0 mm 0.12 in3.0 mm
03:03 PM 39.2°F4.0°C 17.5°F-8.1°C 41% 14.0 mph NNE22.5 kmh NNE 14.5 mph23.3 kmh 30.14 in1020.7 mb 0.00 in0.0 mm 0.00 in0.0 mm 0.12 in3.0 mm
03:04 PM 39.2°F4.0°C 16.9°F-8.4°C 40% 8.3 mph NNW13.4 kmh NNW 15.5 mph24.9 kmh 30.14 in1020.7 mb 0.00 in0.0 mm 0.00 in0.0 mm 0.12 in3.0 mm
03:05 PM 39.2°F4.0°C 17.5°F-8.1°C 41% 8.9 mph NNW14.3 kmh NNW 15.5 mph24.9 kmh 30.15 in1021.0 mb 0.00 in0.0 mm 0.00 in0.0 mm 0.12 in3.0 mm
03:06 PM 39.0°F3.9°C 17.3°F-8.2°C 41% 11.9 mph NW19.2 kmh NW 15.5 mph24.9 kmh 30.15 in1021.0 mb 0.00 in0.0 mm 0.00 in0.0 mm 0.12 in3.0 mm
03:07 PM 38.8°F3.8°C 17.1°F-8.3°C 41% 5.3 mph NW8.5 kmh NW 15.5 mph24.9 kmh 30.15 in1021.0 mb 0.00 in0.0 mm 0.00 in0.0 mm 0.12 in3.0 mm
03:12 PM 38.8°F3.8°C 17.1°F-8.3°C 41% 6.8 mph NW10.9 kmh NW 15.5 mph24.9 kmh 30.15 in1021.0 mb 0.00 in0.0 mm 0.00 in0.0 mm 0.12 in3.0 mm
03:13 PM 38.3°F3.5°C 17.2°F-8.2°C 42% 5.3 mph N8.5 kmh N 15.5 mph24.9 kmh 30.15 in1021.0 mb 0.00 in0.0 mm 0.00 in0.0 mm 0.12 in3.0 mm
03:14 PM 38.1°F3.4°C 17.1°F-8.3°C 42% 3.7 mph WNW6.0 kmh WNW 11.9 mph19.2 kmh 30.15 in1021.0 mb 0.00 in0.0 mm 0.00 in0.0 mm 0.12 in3.0 mm
03:15 PM 38.7°F3.7°C 17.6°F-8.0°C 42% 8.9 mph NE14.3 kmh NE 11.9 mph19.2 kmh 30.15 in1021.0 mb 0.00 in0.0 mm 0.00 in0.0 mm 0.12 in3.0 mm
03:16 PM 38.8°F3.8°C 17.7°F-7.9°C 42% 5.8 mph NNW9.3 kmh NNW 10.9 mph17.5 kmh 30.15 in1021.0 mb 0.00 in0.0 mm 0.00 in0.0 mm 0.12 in3.0 mm
03:17 PM 39.0°F3.9°C 17.3°F-8.2°C 41% 15.0 mph NE24.1 kmh NE 15.0 mph24.1 kmh 30.15 in1021.0 mb 0.00 in0.0 mm 0.00 in0.0 mm 0.12 in3.0 mm
03:18 PM 39.0°F3.9°C 17.9°F-7.8°C 42% 9.4 mph NNE15.1 kmh NNE 15.0 mph24.1 kmh 30.15 in1021.0 mb 0.00 in0.0 mm 0.00 in0.0 mm 0.12 in3.0 mm
03:19 PM 39.0°F3.9°C 17.3°F-8.2°C 41% 9.4 mph NE15.1 kmh NE 15.0 mph24.1 kmh 30.15 in1021.0 mb 0.00 in0.0 mm 0.00 in0.0 mm 0.12 in3.0 mm
03:20 PM 39.2°F4.0°C 17.5°F-8.1°C 41% 5.8 mph N9.3 kmh N 15.0 mph24.1 kmh 30.15 in1021.0 mb 0.00 in0.0 mm 0.00 in0.0 mm 0.12 in3.0 mm
03:21 PM 39.6°F4.2°C 17.9°F-7.8°C 41% 11.4 mph WNW18.3 kmh WNW 15.0 mph24.1 kmh 30.15 in1021.0 mb 0.00 in0.0 mm 0.00 in0.0 mm 0.12 in3.0 mm
03:22 PM 39.6°F4.2°C 17.3°F-8.2°C 40% 9.4 mph N15.1 kmh N 17.6 mph28.3 kmh 30.15 in1021.0 mb 0.00 in0.0 mm 0.00 in0.0 mm 0.12 in3.0 mm
03:23 PM 39.6°F4.2°C 17.9°F-7.8°C 41% 10.9 mph NNW17.5 kmh NNW 17.6 mph28.3 kmh 30.15 in1021.0 mb 0.00 in0.0 mm 0.00 in0.0 mm 0.12 in3.0 mm
03:24 PM 39.4°F4.1°C 17.7°F-7.9°C 41% 16.1 mph SE25.9 kmh SE 17.6 mph28.3 kmh 30.15 in1021.0 mb 0.00 in0.0 mm 0.00 in0.0 mm 0.12 in3.0 mm
03:25 PM 39.2°F4.0°C 17.5°F-8.1°C 41% 10.4 mph W16.7 kmh W 17.6 mph28.3 kmh 30.15 in1021.0 mb 0.00 in0.0 mm 0.00 in0.0 mm 0.12 in3.0 mm
03:26 PM 39.0°F3.9°C 17.3°F-8.2°C 41% 13.5 mph NW21.7 kmh NW 17.6 mph28.3 kmh 30.15 in1021.0 mb 0.00 in0.0 mm 0.00 in0.0 mm 0.12 in3.0 mm
03:27 PM 39.0°F3.9°C 17.3°F-8.2°C 41% 9.9 mph N15.9 kmh N 17.6 mph28.3 kmh 30.15 in1021.0 mb 0.00 in0.0 mm 0.00 in0.0 mm 0.12 in3.0 mm
03:28 PM 39.2°F4.0°C 16.9°F-8.4°C 40% 6.3 mph W10.1 kmh W 17.6 mph28.3 kmh 30.15 in1021.0 mb 0.00 in0.0 mm 0.00 in0.0 mm 0.12 in3.0 mm
03:29 PM 39.2°F4.0°C 17.5°F-8.1°C 41% 14.0 mph NNE22.5 kmh NNE 17.6 mph28.3 kmh 30.15 in1021.0 mb 0.00 in0.0 mm 0.00 in0.0 mm 0.12 in3.0 mm
03:30 PM 39.2°F4.0°C 17.5°F-8.1°C 41% 11.4 mph NNE18.3 kmh NNE 17.6 mph28.3 kmh 30.15 in1021.0 mb 0.00 in0.0 mm 0.00 in0.0 mm 0.12 in3.0 mm
03:31 PM 39.2°F4.0°C 17.5°F-8.1°C 41% 8.9 mph W14.3 kmh W 17.6 mph28.3 kmh 30.15 in1021.0 mb 0.00 in0.0 mm 0.00 in0.0 mm 0.12 in3.0 mm
03:32 PM 39.2°F4.0°C 18.1°F-7.7°C 42% 10.4 mph ENE16.7 kmh ENE 17.1 mph27.5 kmh 30.15 in1021.0 mb 0.00 in0.0 mm 0.00 in0.0 mm 0.12 in3.0 mm
03:33 PM 39.2°F4.0°C 18.1°F-7.7°C 42% 14.5 mph W23.3 kmh W 17.1 mph27.5 kmh 30.15 in1021.0 mb 0.00 in0.0 mm 0.00 in0.0 mm 0.12 in3.0 mm
03:34 PM 39.2°F4.0°C 17.5°F-8.1°C 41% 8.3 mph NNE13.4 kmh NNE 17.1 mph27.5 kmh 30.15 in1021.0 mb 0.00 in0.0 mm 0.00 in0.0 mm 0.12 in3.0 mm
03:35 PM 39.2°F4.0°C 16.9°F-8.4°C 40% 7.3 mph W11.7 kmh W 17.1 mph27.5 kmh 30.15 in1021.0 mb 0.00 in0.0 mm 0.00 in0.0 mm 0.12 in3.0 mm
03:36 PM 39.2°F4.0°C 16.9°F-8.4°C 40% 6.3 mph SW10.1 kmh SW 17.1 mph27.5 kmh 30.15 in1021.0 mb 0.00 in0.0 mm 0.00 in0.0 mm 0.12 in3.0 mm
03:37 PM 39.4°F4.1°C 17.7°F-7.9°C 41% 9.4 mph W15.1 kmh W 17.1 mph27.5 kmh 30.15 in1021.0 mb 0.00 in0.0 mm 0.00 in0.0 mm 0.12 in3.0 mm
03:38 PM 39.6°F4.2°C 17.3°F-8.2°C 40% 11.4 mph W18.3 kmh W 17.1 mph27.5 kmh 30.15 in1021.0 mb 0.00 in0.0 mm 0.00 in0.0 mm 0.12 in3.0 mm
03:39 PM 39.6°F4.2°C 17.3°F-8.2°C 40% 11.4 mph W18.3 kmh W 17.1 mph27.5 kmh 30.15 in1021.0 mb 0.00 in0.0 mm 0.00 in0.0 mm 0.12 in3.0 mm
03:40 PM 39.4°F4.1°C 17.1°F-8.3°C 40% 10.4 mph WNW16.7 kmh WNW 14.5 mph23.3 kmh 30.15 in1021.0 mb 0.00 in0.0 mm 0.00 in0.0 mm 0.12 in3.0 mm
03:41 PM 39.2°F4.0°C 16.3°F-8.7°C 39% 10.4 mph NW16.7 kmh NW 14.5 mph23.3 kmh 30.16 in1021.3 mb 0.00 in0.0 mm 0.00 in0.0 mm 0.12 in3.0 mm
03:42 PM 39.2°F4.0°C 16.3°F-8.7°C 39% 7.3 mph W11.7 kmh W 14.5 mph23.3 kmh 30.16 in1021.3 mb 0.00 in0.0 mm 0.00 in0.0 mm 0.12 in3.0 mm
03:43 PM 39.2°F4.0°C 16.3°F-8.7°C 39% 9.9 mph SW15.9 kmh SW 13.0 mph20.9 kmh 30.16 in1021.3 mb 0.00 in0.0 mm 0.00 in0.0 mm 0.12 in3.0 mm
03:44 PM 39.2°F4.0°C 16.3°F-8.7°C 39% 7.8 mph W12.6 kmh W 12.5 mph20.1 kmh 30.16 in1021.3 mb 0.00 in0.0 mm 0.00 in0.0 mm 0.12 in3.0 mm
03:45 PM 39.2°F4.0°C 16.3°F-8.7°C 39% 8.9 mph WSW14.3 kmh WSW 12.5 mph20.1 kmh 30.16 in1021.3 mb 0.00 in0.0 mm 0.00 in0.0 mm 0.12 in3.0 mm
03:46 PM 39.4°F4.1°C 16.5°F-8.6°C 39% 9.4 mph W15.1 kmh W 12.5 mph20.1 kmh 30.16 in1021.3 mb 0.00 in0.0 mm 0.00 in0.0 mm 0.12 in3.0 mm
03:47 PM 39.4°F4.1°C 15.9°F-8.9°C 38% 10.4 mph NNE16.7 kmh NNE 12.5 mph20.1 kmh 30.16 in1021.3 mb 0.00 in0.0 mm 0.00 in0.0 mm 0.12 in3.0 mm
03:48 PM 39.4°F4.1°C 15.9°F-8.9°C 38% 11.9 mph W19.2 kmh W 12.5 mph20.1 kmh 30.16 in1021.3 mb 0.00 in0.0 mm 0.00 in0.0 mm 0.12 in3.0 mm
03:49 PM 39.2°F4.0°C 15.8°F-9.0°C 38% 7.8 mph WNW12.6 kmh WNW 12.5 mph20.1 kmh 30.16 in1021.3 mb 0.00 in0.0 mm 0.00 in0.0 mm 0.12 in3.0 mm
03:50 PM 39.4°F4.1°C 16.5°F-8.6°C 39% 16.1 mph NNE25.9 kmh NNE 16.1 mph25.9 kmh 30.16 in1021.3 mb 0.00 in0.0 mm 0.00 in0.0 mm 0.12 in3.0 mm
03:51 PM 39.2°F4.0°C 16.3°F-8.7°C 39% 8.9 mph W14.3 kmh W 16.1 mph25.9 kmh 30.16 in1021.3 mb 0.00 in0.0 mm 0.00 in0.0 mm 0.12 in3.0 mm
03:52 PM 38.8°F3.8°C 16.6°F-8.6°C 40% 11.4 mph WSW18.3 kmh WSW 16.1 mph25.9 kmh 30.16 in1021.3 mb 0.00 in0.0 mm 0.00 in0.0 mm 0.12 in3.0 mm
03:53 PM 38.7°F3.7°C 15.9°F-8.9°C 39% 9.4 mph WNW15.1 kmh WNW 16.1 mph25.9 kmh 30.17 in1021.7 mb 0.00 in0.0 mm 0.00 in0.0 mm 0.12 in3.0 mm
03:54 PM 38.5°F3.6°C 15.7°F-9.1°C 39% 7.8 mph NNE12.6 kmh NNE 16.1 mph25.9 kmh 30.17 in1021.7 mb 0.00 in0.0 mm 0.00 in0.0 mm 0.12 in3.0 mm
03:55 PM 38.7°F3.7°C 15.9°F-8.9°C 39% 8.9 mph W14.3 kmh W 16.1 mph25.9 kmh 30.17 in1021.7 mb 0.00 in0.0 mm 0.00 in0.0 mm 0.12 in3.0 mm
03:56 PM 38.7°F3.7°C 15.9°F-8.9°C 39% 11.9 mph WSW19.2 kmh WSW 16.1 mph25.9 kmh 30.17 in1021.7 mb 0.00 in0.0 mm 0.00 in0.0 mm 0.12 in3.0 mm
03:57 PM 38.5°F3.6°C 15.1°F-9.4°C 38% 9.4 mph NW15.1 kmh NW 16.1 mph25.9 kmh 30.17 in1021.7 mb 0.00 in0.0 mm 0.00 in0.0 mm 0.12 in3.0 mm
03:58 PM 38.7°F3.7°C 15.3°F-9.3°C 38% 10.4 mph W16.7 kmh W 16.1 mph25.9 kmh 30.17 in1021.7 mb 0.00 in0.0 mm 0.00 in0.0 mm 0.12 in3.0 mm
03:59 PM 38.7°F3.7°C 14.7°F-9.6°C 37% 13.5 mph W21.7 kmh W 18.6 mph29.9 kmh 30.17 in1021.7 mb 0.00 in0.0 mm 0.00 in0.0 mm 0.12 in3.0 mm
04:00 PM 38.3°F3.5°C 14.3°F-9.8°C 37% 16.6 mph W26.7 kmh W 19.7 mph31.7 kmh 30.17 in1021.7 mb 0.00 in0.0 mm 0.00 in0.0 mm 0.12 in3.0 mm
04:01 PM 38.1°F3.4°C 14.2°F-9.9°C 37% 15.0 mph WNW24.1 kmh WNW 19.7 mph31.7 kmh 30.17 in1021.7 mb 0.00 in0.0 mm 0.00 in0.0 mm 0.12 in3.0 mm
04:02 PM 37.9°F3.3°C 14.0°F-10.0°C 37% 14.0 mph NNE22.5 kmh NNE 19.7 mph31.7 kmh 30.17 in1021.7 mb 0.00 in0.0 mm 0.00 in0.0 mm 0.12 in3.0 mm
04:03 PM 37.9°F3.3°C 14.0°F-10.0°C 37% 18.1 mph WNW29.1 kmh WNW 19.7 mph31.7 kmh 30.17 in1021.7 mb 0.00 in0.0 mm 0.00 in0.0 mm 0.12 in3.0 mm
04:04 PM 37.9°F3.3°C 14.0°F-10.0°C 37% 16.1 mph W25.9 kmh W 19.7 mph31.7 kmh 30.17 in1021.7 mb 0.00 in0.0 mm 0.00 in0.0 mm 0.12 in3.0 mm
04:05 PM 37.9°F3.3°C 14.0°F-10.0°C 37% 11.9 mph NNW19.2 kmh NNW 19.7 mph31.7 kmh 30.17 in1021.7 mb 0.00 in0.0 mm 0.00 in0.0 mm 0.12 in3.0 mm
04:06 PM 37.9°F3.3°C 14.6°F-9.7°C 38% 13.5 mph W21.7 kmh W 19.7 mph31.7 kmh 30.17 in1021.7 mb 0.00 in0.0 mm 0.00 in0.0 mm 0.12 in3.0 mm
04:07 PM 37.9°F3.3°C 14.6°F-9.7°C 38% 14.5 mph SW23.3 kmh SW 19.7 mph31.7 kmh 30.17 in1021.7 mb 0.00 in0.0 mm 0.00 in0.0 mm 0.12 in3.0 mm
04:08 PM 37.9°F3.3°C 14.6°F-9.7°C 38% 6.8 mph WNW10.9 kmh WNW 19.7 mph31.7 kmh 30.17 in1021.7 mb 0.00 in0.0 mm 0.00 in0.0 mm 0.12 in3.0 mm
04:09 PM 38.1°F3.4°C 15.4°F-9.2°C 39% 7.8 mph WNW12.6 kmh WNW 19.7 mph31.7 kmh 30.17 in1021.7 mb 0.00 in0.0 mm 0.00 in0.0 mm 0.12 in3.0 mm
04:10 PM 38.1°F3.4°C 15.4°F-9.2°C 39% 13.0 mph NNW20.9 kmh NNW 18.1 mph29.1 kmh 30.17 in1021.7 mb 0.00 in0.0 mm 0.00 in0.0 mm 0.12 in3.0 mm
04:11 PM 38.1°F3.4°C 14.8°F-9.6°C 38% 9.4 mph WNW15.1 kmh WNW 18.1 mph29.1 kmh 30.17 in1021.7 mb 0.00 in0.0 mm 0.00 in0.0 mm 0.12 in3.0 mm
04:12 PM 38.1°F3.4°C 14.8°F-9.6°C 38% 6.3 mph W10.1 kmh W 18.1 mph29.1 kmh 30.17 in1021.7 mb 0.00 in0.0 mm 0.00 in0.0 mm 0.12 in3.0 mm
04:13 PM 38.3°F3.5°C 14.9°F-9.5°C 38% 9.9 mph WNW15.9 kmh WNW 18.1 mph29.1 kmh 30.17 in1021.7 mb 0.00 in0.0 mm 0.00 in0.0 mm 0.12 in3.0 mm
04:14 PM 38.5°F3.6°C 15.7°F-9.1°C 39% 6.8 mph NNW10.9 kmh NNW 14.5 mph23.3 kmh 30.17 in1021.7 mb 0.00 in0.0 mm 0.00 in0.0 mm 0.12 in3.0 mm
04:15 PM 38.5°F3.6°C 15.7°F-9.1°C 39% 15.5 mph W24.9 kmh W 15.5 mph24.9 kmh 30.17 in1021.7 mb 0.00 in0.0 mm 0.00 in0.0 mm 0.12 in3.0 mm
04:16 PM 38.3°F3.5°C 14.9°F-9.5°C 38% 9.4 mph NNE15.1 kmh NNE 15.5 mph24.9 kmh 30.17 in1021.7 mb 0.00 in0.0 mm 0.00 in0.0 mm 0.12 in3.0 mm
04:17 PM 38.3°F3.5°C 14.9°F-9.5°C 38% 10.4 mph WSW16.7 kmh WSW 15.5 mph24.9 kmh 30.18 in1022.0 mb 0.00 in0.0 mm 0.00 in0.0 mm 0.12 in3.0 mm
04:18 PM 38.3°F3.5°C 14.9°F-9.5°C 38% 15.0 mph WNW24.1 kmh WNW 15.5 mph24.9 kmh 30.18 in1022.0 mb 0.00 in0.0 mm 0.00 in0.0 mm 0.12 in3.0 mm
04:19 PM 38.1°F3.4°C 14.2°F-9.9°C 37% 14.5 mph NW23.3 kmh NW 15.5 mph24.9 kmh 30.18 in1022.0 mb 0.00 in0.0 mm 0.00 in0.0 mm 0.12 in3.0 mm
04:20 PM 37.8°F3.2°C 13.9°F-10.1°C 37% 9.4 mph W15.1 kmh W 15.5 mph24.9 kmh 30.18 in1022.0 mb 0.00 in0.0 mm 0.00 in0.0 mm 0.12 in3.0 mm
04:21 PM 37.8°F3.2°C 14.5°F-9.7°C 38% 5.8 mph NNW9.3 kmh NNW 15.5 mph24.9 kmh 30.18 in1022.0 mb 0.00 in0.0 mm 0.00 in0.0 mm 0.12 in3.0 mm
04:22 PM 37.8°F3.2°C 14.5°F-9.7°C 38% 10.4 mph ESE16.7 kmh ESE 15.5 mph24.9 kmh 30.18 in1022.0 mb 0.00 in0.0 mm 0.00 in0.0 mm 0.12 in3.0 mm
04:23 PM 37.8°F3.2°C 14.5°F-9.7°C 38% 15.5 mph E24.9 kmh E 15.5 mph24.9 kmh 30.18 in1022.0 mb 0.00 in0.0 mm 0.00 in0.0 mm 0.12 in3.0 mm
04:24 PM 37.8°F3.2°C 14.5°F-9.7°C 38% 13.0 mph NNE20.9 kmh NNE 15.5 mph24.9 kmh 30.18 in1022.0 mb 0.00 in0.0 mm 0.00 in0.0 mm 0.12 in3.0 mm
04:25 PM 37.8°F3.2°C 14.5°F-9.7°C 38% 7.3 mph NNE11.7 kmh NNE 15.5 mph24.9 kmh 30.18 in1022.0 mb 0.00 in0.0 mm 0.00 in0.0 mm 0.12 in3.0 mm
04:26 PM 37.8°F3.2°C 14.5°F-9.7°C 38% 8.3 mph WNW13.4 kmh WNW 15.5 mph24.9 kmh 30.18 in1022.0 mb 0.00 in0.0 mm 0.00 in0.0 mm 0.12 in3.0 mm
04:27 PM 37.8°F3.2°C 14.5°F-9.7°C 38% 8.3 mph WNW13.4 kmh WNW 15.5 mph24.9 kmh 30.18 in1022.0 mb 0.00 in0.0 mm 0.00 in0.0 mm 0.12 in3.0 mm
04:32 PM 37.4°F3.0°C 14.1°F-9.9°C 38% 8.3 mph WNW13.4 kmh WNW 15.5 mph24.9 kmh 30.18 in1022.0 mb 0.00 in0.0 mm 0.00 in0.0 mm 0.12 in3.0 mm
04:33 PM 37.6°F3.1°C 14.3°F-9.8°C 38% 7.8 mph NNE12.6 kmh NNE 15.5 mph24.9 kmh 30.18 in1022.0 mb 0.00 in0.0 mm 0.00 in0.0 mm 0.12 in3.0 mm
04:34 PM 37.6°F3.1°C 14.3°F-9.8°C 38% 9.4 mph WSW15.1 kmh WSW 13.0 mph20.9 kmh 30.18 in1022.0 mb 0.00 in0.0 mm 0.00 in0.0 mm 0.12 in3.0 mm
04:35 PM 37.6°F3.1°C 14.3°F-9.8°C 38% 7.3 mph SW11.7 kmh SW 14.5 mph23.3 kmh 30.18 in1022.0 mb 0.00 in0.0 mm 0.00 in0.0 mm 0.12 in3.0 mm
04:36 PM 37.6°F3.1°C 14.9°F-9.5°C 39% 11.9 mph SW19.2 kmh SW 14.5 mph23.3 kmh 30.18 in1022.0 mb 0.00 in0.0 mm 0.00 in0.0 mm 0.12 in3.0 mm
04:37 PM 37.6°F3.1°C 14.9°F-9.5°C 39% 13.5 mph NNE21.7 kmh NNE 14.5 mph23.3 kmh 30.18 in1022.0 mb 0.00 in0.0 mm 0.00 in0.0 mm 0.12 in3.0 mm
04:38 PM 37.6°F3.1°C 14.9°F-9.5°C 39% 8.9 mph W14.3 kmh W 14.5 mph23.3 kmh 30.18 in1022.0 mb 0.00 in0.0 mm 0.00 in0.0 mm 0.12 in3.0 mm
04:39 PM 37.6°F3.1°C 14.9°F-9.5°C 39% 8.3 mph W13.4 kmh W 14.5 mph23.3 kmh 30.18 in1022.0 mb 0.00 in0.0 mm 0.00 in0.0 mm 0.12 in3.0 mm
04:40 PM 37.6°F3.1°C 14.9°F-9.5°C 39% 9.9 mph NNE15.9 kmh NNE 14.5 mph23.3 kmh 30.18 in1022.0 mb 0.00 in0.0 mm 0.00 in0.0 mm 0.12 in3.0 mm
04:41 PM 37.6°F3.1°C 14.9°F-9.5°C 39% 7.3 mph N11.7 kmh N 14.5 mph23.3 kmh 30.18 in1022.0 mb 0.00 in0.0 mm 0.00 in0.0 mm 0.12 in3.0 mm
04:42 PM 37.4°F3.0°C 14.7°F-9.6°C 39% 10.4 mph N16.7 kmh N 14.5 mph23.3 kmh 30.18 in1022.0 mb 0.00 in0.0 mm 0.00 in0.0 mm 0.12 in3.0 mm
04:43 PM 37.6°F3.1°C 14.9°F-9.5°C 39% 7.3 mph NNE11.7 kmh NNE 14.5 mph23.3 kmh 30.18 in1022.0 mb 0.00 in0.0 mm 0.00 in0.0 mm 0.12 in3.0 mm
04:44 PM 37.6°F3.1°C 14.9°F-9.5°C 39% 6.8 mph SW10.9 kmh SW 16.1 mph25.9 kmh 30.18 in1022.0 mb 0.00 in0.0 mm 0.00 in0.0 mm 0.12 in3.0 mm
04:45 PM 37.6°F3.1°C 14.3°F-9.8°C 38% 13.0 mph W20.9 kmh W 16.1 mph25.9 kmh 30.18 in1022.0 mb 0.00 in0.0 mm 0.00 in0.0 mm 0.12 in3.0 mm
04:46 PM 37.2°F2.9°C 14.0°F-10.0°C 38% 11.4 mph NNE18.3 kmh NNE 16.1 mph25.9 kmh 30.18 in1022.0 mb 0.00 in0.0 mm 0.00 in0.0 mm 0.12 in3.0 mm
04:47 PM 37.2°F2.9°C 14.0°F-10.0°C 38% 10.4 mph WNW16.7 kmh WNW 16.1 mph25.9 kmh 30.18 in1022.0 mb 0.00 in0.0 mm 0.00 in0.0 mm 0.12 in3.0 mm
04:48 PM 37.0°F2.8°C 13.8°F-10.1°C 38% 8.9 mph WNW14.3 kmh WNW 16.1 mph25.9 kmh 30.18 in1022.0 mb 0.00 in0.0 mm 0.00 in0.0 mm 0.12 in3.0 mm
04:49 PM 36.9°F2.7°C 13.7°F-10.2°C 38% 8.3 mph NW13.4 kmh NW 16.1 mph25.9 kmh 30.18 in1022.0 mb 0.00 in0.0 mm 0.00 in0.0 mm 0.12 in3.0 mm
04:50 PM 36.9°F2.7°C 13.7°F-10.2°C 38% 9.9 mph N15.9 kmh N 16.1 mph25.9 kmh 30.18 in1022.0 mb 0.00 in0.0 mm 0.00 in0.0 mm 0.12 in3.0 mm
04:51 PM 36.9°F2.7°C 13.7°F-10.2°C 38% 8.3 mph WNW13.4 kmh WNW 16.1 mph25.9 kmh 30.18 in1022.0 mb 0.00 in0.0 mm 0.00 in0.0 mm 0.12 in3.0 mm
04:52 PM 36.9°F2.7°C 13.1°F-10.5°C 37% 9.9 mph NNW15.9 kmh NNW 16.1 mph25.9 kmh 30.19 in1022.4 mb 0.00 in0.0 mm 0.00 in0.0 mm 0.12 in3.0 mm
04:53 PM 36.9°F2.7°C 13.1°F-10.5°C 37% 8.3 mph W13.4 kmh W 16.1 mph25.9 kmh 30.19 in1022.4 mb 0.00 in0.0 mm 0.00 in0.0 mm 0.12 in3.0 mm
04:54 PM 36.5°F2.5°C 12.7°F-10.7°C 37% 9.9 mph WNW15.9 kmh WNW 15.0 mph24.1 kmh 30.19 in1022.4 mb 0.00 in0.0 mm 0.00 in0.0 mm 0.12 in3.0 mm
04:55 PM 36.3°F2.4°C 12.6°F-10.8°C 37% 12.5 mph WNW20.1 kmh WNW 15.0 mph24.1 kmh 30.19 in1022.4 mb 0.00 in0.0 mm 0.00 in0.0 mm 0.12 in3.0 mm
04:56 PM 36.5°F2.5°C 12.7°F-10.7°C 37% 16.1 mph N25.9 kmh N 16.1 mph25.9 kmh 30.19 in1022.4 mb 0.00 in0.0 mm 0.00 in0.0 mm 0.12 in3.0 mm
04:57 PM 36.5°F2.5°C 12.7°F-10.7°C 37% 9.9 mph W15.9 kmh W 16.1 mph25.9 kmh 30.19 in1022.4 mb 0.00 in0.0 mm 0.00 in0.0 mm 0.12 in3.0 mm
04:58 PM 36.5°F2.5°C 13.3°F-10.4°C 38% 7.3 mph N11.7 kmh N 16.1 mph25.9 kmh 30.19 in1022.4 mb 0.00 in0.0 mm 0.00 in0.0 mm 0.12 in3.0 mm
04:59 PM 36.5°F2.5°C 13.3°F-10.4°C 38% 13.5 mph W21.7 kmh W 16.1 mph25.9 kmh 30.19 in1022.4 mb 0.00 in0.0 mm 0.00 in0.0 mm 0.12 in3.0 mm
05:00 PM 36.3°F2.4°C 13.2°F-10.4°C 38% 8.9 mph WSW14.3 kmh WSW 16.1 mph25.9 kmh 30.19 in1022.4 mb 0.00 in0.0 mm 0.00 in0.0 mm 0.12 in3.0 mm
05:01 PM 36.1°F2.3°C 13.0°F-10.6°C 38% 10.9 mph W17.5 kmh W 16.1 mph25.9 kmh 30.19 in1022.4 mb 0.00 in0.0 mm 0.00 in0.0 mm 0.12 in3.0 mm
05:02 PM 36.1°F2.3°C 13.0°F-10.6°C 38% 8.9 mph N14.3 kmh N 16.1 mph25.9 kmh 30.19 in1022.4 mb 0.00 in0.0 mm 0.00 in0.0 mm 0.12 in3.0 mm
05:03 PM 36.0°F2.2°C 12.9°F-10.6°C 38% 8.9 mph SW14.3 kmh SW 16.1 mph25.9 kmh 30.19 in1022.4 mb 0.00 in0.0 mm 0.00 in0.0 mm 0.12 in3.0 mm
05:04 PM 35.8°F2.1°C 13.3°F-10.4°C 39% 10.4 mph SW16.7 kmh SW 16.1 mph25.9 kmh 30.19 in1022.4 mb 0.00 in0.0 mm 0.00 in0.0 mm 0.12 in3.0 mm
05:05 PM 35.6°F2.0°C 13.7°F-10.2°C 40% 16.1 mph NNE25.9 kmh NNE 16.1 mph25.9 kmh 30.19 in1022.4 mb 0.00 in0.0 mm 0.00 in0.0 mm 0.12 in3.0 mm
05:06 PM 35.6°F2.0°C 13.7°F-10.2°C 40% 6.3 mph N10.1 kmh N 16.1 mph25.9 kmh 30.19 in1022.4 mb 0.00 in0.0 mm 0.00 in0.0 mm 0.12 in3.0 mm
05:07 PM 35.4°F1.9°C 13.5°F-10.3°C 40% 12.5 mph N20.1 kmh N 16.1 mph25.9 kmh 30.19 in1022.4 mb 0.00 in0.0 mm 0.00 in0.0 mm 0.12 in3.0 mm
05:08 PM 35.2°F1.8°C 13.3°F-10.4°C 40% 7.3 mph NW11.7 kmh NW 16.1 mph25.9 kmh 30.19 in1022.4 mb 0.00 in0.0 mm 0.00 in0.0 mm 0.12 in3.0 mm
05:09 PM 35.2°F1.8°C 13.3°F-10.4°C 40% 13.5 mph N21.7 kmh N 16.1 mph25.9 kmh 30.19 in1022.4 mb 0.00 in0.0 mm 0.00 in0.0 mm 0.12 in3.0 mm
05:10 PM 35.2°F1.8°C 13.3°F-10.4°C 40% 7.3 mph N11.7 kmh N 16.1 mph25.9 kmh 30.19 in1022.4 mb 0.00 in0.0 mm 0.00 in0.0 mm 0.12 in3.0 mm
05:11 PM 35.1°F1.7°C 13.2°F-10.4°C 40% 6.3 mph N10.1 kmh N 16.1 mph25.9 kmh 30.19 in1022.4 mb 0.00 in0.0 mm 0.00 in0.0 mm 0.12 in3.0 mm
05:12 PM 34.9°F1.6°C 13.1°F-10.5°C 40% 9.9 mph W15.9 kmh W 16.1 mph25.9 kmh 30.19 in1022.4 mb 0.00 in0.0 mm 0.00 in0.0 mm 0.12 in3.0 mm
05:13 PM 34.9°F1.6°C 13.1°F-10.5°C 40% 8.3 mph W13.4 kmh W 16.1 mph25.9 kmh 30.19 in1022.4 mb 0.00 in0.0 mm 0.00 in0.0 mm 0.12 in3.0 mm
05:14 PM 34.9°F1.6°C 13.1°F-10.5°C 40% 12.5 mph N20.1 kmh N 16.1 mph25.9 kmh 30.19 in1022.4 mb 0.00 in0.0 mm 0.00 in0.0 mm 0.12 in3.0 mm
05:15 PM 34.9°F1.6°C 13.1°F-10.5°C 40% 6.8 mph W10.9 kmh W 16.1 mph25.9 kmh 30.19 in1022.4 mb 0.00 in0.0 mm 0.00 in0.0 mm 0.12 in3.0 mm
05:16 PM 34.9°F1.6°C 13.6°F-10.2°C 41% 14.5 mph N23.3 kmh N 14.5 mph23.3 kmh 30.19 in1022.4 mb 0.00 in0.0 mm 0.00 in0.0 mm 0.12 in3.0 mm
05:17 PM 34.9°F1.6°C 13.6°F-10.2°C 41% 5.3 mph WNW8.5 kmh WNW 14.5 mph23.3 kmh 30.20 in1022.7 mb 0.00 in0.0 mm 0.00 in0.0 mm 0.12 in3.0 mm
05:18 PM 34.7°F1.5°C 13.4°F-10.3°C 41% 7.3 mph NW11.7 kmh NW 14.5 mph23.3 kmh 30.20 in1022.7 mb 0.00 in0.0 mm 0.00 in0.0 mm 0.12 in3.0 mm
05:19 PM 34.7°F1.5°C 13.4°F-10.3°C 41% 10.4 mph NNE16.7 kmh NNE 14.5 mph23.3 kmh 30.20 in1022.7 mb 0.00 in0.0 mm 0.00 in0.0 mm 0.12 in3.0 mm
05:20 PM 34.7°F1.5°C 13.4°F-10.3°C 41% 11.4 mph NE18.3 kmh NE 14.5 mph23.3 kmh 30.20 in1022.7 mb 0.00 in0.0 mm 0.00 in0.0 mm 0.12 in3.0 mm
05:21 PM 34.7°F1.5°C 13.4°F-10.3°C 41% 6.8 mph NW10.9 kmh NW 14.5 mph23.3 kmh 30.20 in1022.7 mb 0.00 in0.0 mm 0.00 in0.0 mm 0.12 in3.0 mm
05:22 PM 34.7°F1.5°C 13.4°F-10.3°C 41% 8.9 mph NNW14.3 kmh NNW 14.5 mph23.3 kmh 30.20 in1022.7 mb 0.00 in0.0 mm 0.00 in0.0 mm 0.12 in3.0 mm
05:23 PM 34.7°F1.5°C 13.4°F-10.3°C 41% 7.8 mph NNE12.6 kmh NNE 14.5 mph23.3 kmh 30.20 in1022.7 mb 0.00 in0.0 mm 0.00 in0.0 mm 0.12 in3.0 mm
05:24 PM 34.5°F1.4°C 13.3°F-10.4°C 41% 5.3 mph W8.5 kmh W 14.5 mph23.3 kmh 30.20 in1022.7 mb 0.00 in0.0 mm 0.00 in0.0 mm 0.12 in3.0 mm
05:25 PM 34.5°F1.4°C 13.3°F-10.4°C 41% 8.3 mph N13.4 kmh N 14.5 mph23.3 kmh 30.20 in1022.7 mb 0.00 in0.0 mm 0.00 in0.0 mm 0.12 in3.0 mm
05:26 PM 34.5°F1.4°C 13.3°F-10.4°C 41% 13.0 mph N20.9 kmh N 14.5 mph23.3 kmh 30.20 in1022.7 mb 0.00 in0.0 mm 0.00 in0.0 mm 0.12 in3.0 mm
05:27 PM 34.3°F1.3°C 13.1°F-10.5°C 41% 4.7 mph W7.6 kmh W 13.0 mph20.9 kmh 30.20 in1022.7 mb 0.00 in0.0 mm 0.00 in0.0 mm 0.12 in3.0 mm
05:28 PM 34.3°F1.3°C 13.1°F-10.5°C 41% 6.3 mph W10.1 kmh W 13.0 mph20.9 kmh 30.20 in1022.7 mb 0.00 in0.0 mm 0.00 in0.0 mm 0.12 in3.0 mm
05:29 PM 34.3°F1.3°C 13.1°F-10.5°C 41% 3.7 mph NNW6.0 kmh NNW 13.0 mph20.9 kmh 30.20 in1022.7 mb 0.00 in0.0 mm 0.00 in0.0 mm 0.12 in3.0 mm
05:30 PM 34.3°F1.3°C 13.6°F-10.2°C 42% 4.7 mph W7.6 kmh W 13.0 mph20.9 kmh 30.20 in1022.7 mb 0.00 in0.0 mm 0.00 in0.0 mm 0.12 in3.0 mm
05:31 PM 34.2°F1.2°C 13.5°F-10.3°C 42% 3.7 mph W6.0 kmh W 13.0 mph20.9 kmh 30.20 in1022.7 mb 0.00 in0.0 mm 0.00 in0.0 mm 0.12 in3.0 mm
05:32 PM 34.2°F1.2°C 13.5°F-10.3°C 42% 7.8 mph N12.6 kmh N 13.0 mph20.9 kmh 30.20 in1022.7 mb 0.00 in0.0 mm 0.00 in0.0 mm 0.12 in3.0 mm
05:33 PM 34.2°F1.2°C 14.1°F-9.9°C 43% 5.8 mph NNE9.3 kmh NNE 13.0 mph20.9 kmh 30.20 in1022.7 mb 0.00 in0.0 mm 0.00 in0.0 mm 0.12 in3.0 mm
05:34 PM 34.0°F1.1°C 13.9°F-10.1°C 43% 8.3 mph W13.4 kmh W 13.0 mph20.9 kmh 30.20 in1022.7 mb 0.00 in0.0 mm 0.00 in0.0 mm 0.12 in3.0 mm
05:35 PM 34.0°F1.1°C 13.9°F-10.1°C 43% 7.8 mph W12.6 kmh W 13.0 mph20.9 kmh 30.20 in1022.7 mb 0.00 in0.0 mm 0.00 in0.0 mm 0.12 in3.0 mm
05:36 PM 34.0°F1.1°C 13.3°F-10.4°C 42% 7.3 mph W11.7 kmh W 13.0 mph20.9 kmh 30.20 in1022.7 mb 0.00 in0.0 mm 0.00 in0.0 mm 0.12 in3.0 mm
05:37 PM 34.0°F1.1°C 13.9°F-10.1°C 43% 5.3 mph WNW8.5 kmh WNW 9.4 mph15.1 kmh 30.20 in1022.7 mb 0.00 in0.0 mm 0.00 in0.0 mm 0.12 in3.0 mm
05:38 PM 34.0°F1.1°C 13.9°F-10.1°C 43% 5.8 mph N9.3 kmh N 9.4 mph15.1 kmh 30.20 in1022.7 mb 0.00 in0.0 mm 0.00 in0.0 mm 0.12 in3.0 mm
05:39 PM 33.8°F1.0°C 14.2°F-9.9°C 44% 8.3 mph N13.4 kmh N 9.4 mph15.1 kmh 30.20 in1022.7 mb 0.00 in0.0 mm 0.00 in0.0 mm 0.12 in3.0 mm
05:41 PM 33.8°F1.0°C 14.2°F-9.9°C 44% 8.9 mph NNE14.3 kmh NNE 9.4 mph15.1 kmh 30.21 in1023.0 mb 0.00 in0.0 mm 0.00 in0.0 mm 0.12 in3.0 mm
05:42 PM 33.8°F1.0°C 14.2°F-9.9°C 44% 3.7 mph SSW6.0 kmh SSW 9.4 mph15.1 kmh 30.21 in1023.0 mb 0.00 in0.0 mm 0.00 in0.0 mm 0.12 in3.0 mm
05:43 PM 33.8°F1.0°C 13.7°F-10.2°C 43% 13.5 mph NNW21.7 kmh NNW 14.0 mph22.5 kmh 30.21 in1023.0 mb 0.00 in0.0 mm 0.00 in0.0 mm 0.12 in3.0 mm
05:44 PM 33.8°F1.0°C 13.2°F-10.4°C 42% 8.3 mph NNW13.4 kmh NNW 14.0 mph22.5 kmh 30.21 in1023.0 mb 0.00 in0.0 mm 0.00 in0.0 mm 0.12 in3.0 mm
05:45 PM 33.8°F1.0°C 13.2°F-10.4°C 42% 8.3 mph NNW13.4 kmh NNW 14.0 mph22.5 kmh 30.21 in1023.0 mb 0.00 in0.0 mm 0.00 in0.0 mm 0.12 in3.0 mm
05:46 PM 33.6°F0.9°C 13.5°F-10.3°C 43% 8.3 mph NNW13.4 kmh NNW 14.0 mph22.5 kmh 30.21 in1023.0 mb 0.00 in0.0 mm 0.00 in0.0 mm 0.12 in3.0 mm
05:47 PM 33.6°F0.9°C 13.5°F-10.3°C 43% 8.3 mph WNW13.4 kmh WNW 14.0 mph22.5 kmh 30.21 in1023.0 mb 0.00 in0.0 mm 0.00 in0.0 mm 0.12 in3.0 mm
05:48 PM 33.6°F0.9°C 13.0°F-10.6°C 42% 8.9 mph NNW14.3 kmh NNW 14.0 mph22.5 kmh 30.21 in1023.0 mb 0.00 in0.0 mm 0.00 in0.0 mm 0.12 in3.0 mm
05:49 PM 33.6°F0.9°C 13.5°F-10.3°C 43% 7.8 mph W12.6 kmh W 14.0 mph22.5 kmh 30.21 in1023.0 mb 0.00 in0.0 mm 0.00 in0.0 mm 0.12 in3.0 mm
05:50 PM 33.6°F0.9°C 13.0°F-10.6°C 42% 8.9 mph S14.3 kmh S 14.0 mph22.5 kmh 30.21 in1023.0 mb 0.00 in0.0 mm 0.00 in0.0 mm 0.12 in3.0 mm
05:51 PM 33.4°F0.8°C 13.3°F-10.4°C 43% 5.3 mph WNW8.5 kmh WNW 14.0 mph22.5 kmh 30.21 in1023.0 mb 0.00 in0.0 mm 0.00 in0.0 mm 0.12 in3.0 mm
05:52 PM 33.4°F0.8°C 13.3°F-10.4°C 43% 3.7 mph N6.0 kmh N 14.0 mph22.5 kmh 30.21 in1023.0 mb 0.00 in0.0 mm 0.00 in0.0 mm 0.12 in3.0 mm
05:53 PM 33.4°F0.8°C 13.3°F-10.4°C 43% 5.8 mph WNW9.3 kmh WNW 13.5 mph21.7 kmh 30.21 in1023.0 mb 0.00 in0.0 mm 0.00 in0.0 mm 0.12 in3.0 mm
05:54 PM 33.3°F0.7°C 12.7°F-10.7°C 42% 10.9 mph NNW17.5 kmh NNW 10.9 mph17.5 kmh 30.21 in1023.0 mb 0.00 in0.0 mm 0.00 in0.0 mm 0.12 in3.0 mm
05:55 PM 33.3°F0.7°C 12.7°F-10.7°C 42% 9.4 mph NNE15.1 kmh NNE 10.9 mph17.5 kmh 30.21 in1023.0 mb 0.00 in0.0 mm 0.00 in0.0 mm 0.12 in3.0 mm
05:56 PM 33.3°F0.7°C 12.7°F-10.7°C 42% 6.8 mph N10.9 kmh N 10.9 mph17.5 kmh 30.21 in1023.0 mb 0.00 in0.0 mm 0.00 in0.0 mm 0.12 in3.0 mm
05:57 PM 33.3°F0.7°C 12.7°F-10.7°C 42% 10.9 mph NE17.5 kmh NE 10.9 mph17.5 kmh 30.21 in1023.0 mb 0.00 in0.0 mm 0.00 in0.0 mm 0.12 in3.0 mm
05:58 PM 33.3°F0.7°C 12.2°F-11.0°C 41% 13.5 mph NNW21.7 kmh NNW 13.5 mph21.7 kmh 30.21 in1023.0 mb 0.00 in0.0 mm 0.00 in0.0 mm 0.12 in3.0 mm
05:59 PM 33.3°F0.7°C 12.2°F-11.0°C 41% 9.9 mph NW15.9 kmh NW 13.5 mph21.7 kmh 30.21 in1023.0 mb 0.00 in0.0 mm 0.00 in0.0 mm 0.12 in3.0 mm
06:00 PM 33.3°F0.7°C 12.7°F-10.7°C 42% 7.3 mph E11.7 kmh E 13.5 mph21.7 kmh 30.21 in1023.0 mb 0.00 in0.0 mm 0.00 in0.0 mm 0.12 in3.0 mm
06:01 PM 33.3°F0.7°C 12.2°F-11.0°C 41% 10.4 mph W16.7 kmh W 13.5 mph21.7 kmh 30.21 in1023.0 mb 0.00 in0.0 mm 0.00 in0.0 mm 0.12 in3.0 mm
06:02 PM 33.3°F0.7°C 12.2°F-11.0°C 41% 7.8 mph W12.6 kmh W 13.5 mph21.7 kmh 30.21 in1023.0 mb 0.00 in0.0 mm 0.00 in0.0 mm 0.12 in3.0 mm
06:03 PM 33.1°F0.6°C 12.0°F-11.1°C 41% 4.7 mph W7.6 kmh W 13.5 mph21.7 kmh 30.21 in1023.0 mb 0.00 in0.0 mm 0.00 in0.0 mm 0.12 in3.0 mm
06:04 PM 33.1°F0.6°C 12.5°F-10.8°C 42% 6.3 mph WNW10.1 kmh WNW 13.5 mph21.7 kmh 30.21 in1023.0 mb 0.00 in0.0 mm 0.00 in0.0 mm 0.12 in3.0 mm
06:05 PM 33.1°F0.6°C 12.5°F-10.8°C 42% 5.8 mph NW9.3 kmh NW 13.5 mph21.7 kmh 30.22 in1023.4 mb 0.00 in0.0 mm 0.00 in0.0 mm 0.12 in3.0 mm
06:06 PM 33.1°F0.6°C 12.5°F-10.8°C 42% 6.8 mph N10.9 kmh N 13.5 mph21.7 kmh 30.22 in1023.4 mb 0.00 in0.0 mm 0.00 in0.0 mm 0.12 in3.0 mm
06:07 PM 33.1°F0.6°C 12.5°F-10.8°C 42% 6.8 mph NE10.9 kmh NE 13.5 mph21.7 kmh 30.22 in1023.4 mb 0.00 in0.0 mm 0.00 in0.0 mm 0.12 in3.0 mm
06:08 PM 33.1°F0.6°C 12.5°F-10.8°C 42% 6.8 mph NW10.9 kmh NW 11.4 mph18.3 kmh 30.22 in1023.4 mb 0.00 in0.0 mm 0.00 in0.0 mm 0.12 in3.0 mm
06:09 PM 32.9°F0.5°C 12.4°F-10.9°C 42% 8.9 mph W14.3 kmh W 11.4 mph18.3 kmh 30.22 in1023.4 mb 0.00 in0.0 mm 0.00 in0.0 mm 0.12 in3.0 mm
06:10 PM 32.9°F0.5°C 12.4°F-10.9°C 42% 10.9 mph W17.5 kmh W 11.4 mph18.3 kmh 30.22 in1023.4 mb 0.00 in0.0 mm 0.00 in0.0 mm 0.12 in3.0 mm
06:11 PM 32.9°F0.5°C 12.4°F-10.9°C 42% 7.8 mph WNW12.6 kmh WNW 10.9 mph17.5 kmh 30.22 in1023.4 mb 0.00 in0.0 mm 0.00 in0.0 mm 0.12 in3.0 mm
06:12 PM 32.9°F0.5°C 12.4°F-10.9°C 42% 12.5 mph WNW20.1 kmh WNW 12.5 mph20.1 kmh 30.22 in1023.4 mb 0.00 in0.0 mm 0.00 in0.0 mm 0.12 in3.0 mm
06:13 PM 32.9°F0.5°C 11.8°F-11.2°C 41% 11.4 mph WNW18.3 kmh WNW 12.5 mph20.1 kmh 30.22 in1023.4 mb 0.00 in0.0 mm 0.00 in0.0 mm 0.12 in3.0 mm
06:15 PM 32.9°F0.5°C 11.8°F-11.2°C 41% 10.4 mph WNW16.7 kmh WNW 12.5 mph20.1 kmh 30.22 in1023.4 mb 0.00 in0.0 mm 0.00 in0.0 mm 0.12 in3.0 mm
06:16 PM 32.9°F0.5°C 11.3°F-11.5°C 40% 12.5 mph W20.1 kmh W 12.5 mph20.1 kmh 30.22 in1023.4 mb 0.00 in0.0 mm 0.00 in0.0 mm 0.12 in3.0 mm
06:17 PM 32.9°F0.5°C 11.3°F-11.5°C 40% 9.9 mph WSW15.9 kmh WSW 12.5 mph20.1 kmh 30.23 in1023.7 mb 0.00 in0.0 mm 0.00 in0.0 mm 0.12 in3.0 mm
06:18 PM 32.9°F0.5°C 11.3°F-11.5°C 40% 13.0 mph NNW20.9 kmh NNW 13.0 mph20.9 kmh 30.23 in1023.7 mb 0.00 in0.0 mm 0.00 in0.0 mm 0.12 in3.0 mm
06:19 PM 32.9°F0.5°C 11.8°F-11.2°C 41% 7.3 mph NNW11.7 kmh NNW 13.0 mph20.9 kmh 30.23 in1023.7 mb 0.00 in0.0 mm 0.00 in0.0 mm 0.12 in3.0 mm
06:20 PM 32.7°F0.4°C 11.6°F-11.3°C 41% 9.4 mph NNW15.1 kmh NNW 13.0 mph20.9 kmh 30.23 in1023.7 mb 0.00 in0.0 mm 0.00 in0.0 mm 0.12 in3.0 mm
06:21 PM 32.7°F0.4°C 11.6°F-11.3°C 41% 6.8 mph W10.9 kmh W 13.0 mph20.9 kmh 30.23 in1023.7 mb 0.00 in0.0 mm 0.00 in0.0 mm 0.12 in3.0 mm
06:22 PM 32.7°F0.4°C 11.6°F-11.3°C 41% 7.8 mph W12.6 kmh W 13.0 mph20.9 kmh 30.23 in1023.7 mb 0.00 in0.0 mm 0.00 in0.0 mm 0.12 in3.0 mm
06:23 PM 32.5°F0.3°C 11.4°F-11.4°C 41% 7.3 mph WSW11.7 kmh WSW 13.0 mph20.9 kmh 30.23 in1023.7 mb 0.00 in0.0 mm 0.00 in0.0 mm 0.12 in3.0 mm
06:24 PM 32.5°F0.3°C 12.0°F-11.1°C 42% 9.4 mph WSW15.1 kmh WSW 13.0 mph20.9 kmh 30.23 in1023.7 mb 0.00 in0.0 mm 0.00 in0.0 mm 0.12 in3.0 mm
06:25 PM 32.5°F0.3°C 11.4°F-11.4°C 41% 9.9 mph W15.9 kmh W 13.0 mph20.9 kmh 30.23 in1023.7 mb 0.00 in0.0 mm 0.00 in0.0 mm 0.12 in3.0 mm
06:26 PM 32.5°F0.3°C 11.4°F-11.4°C 41% 5.3 mph SW8.5 kmh SW 13.0 mph20.9 kmh 30.23 in1023.7 mb 0.00 in0.0 mm 0.00 in0.0 mm 0.12 in3.0 mm
06:27 PM 32.5°F0.3°C 11.4°F-11.4°C 41% 12.5 mph N20.1 kmh N 13.0 mph20.9 kmh 30.23 in1023.7 mb 0.00 in0.0 mm 0.00 in0.0 mm 0.12 in3.0 mm
06:28 PM 32.5°F0.3°C 11.4°F-11.4°C 41% 8.3 mph W13.4 kmh W 13.0 mph20.9 kmh 30.23 in1023.7 mb 0.00 in0.0 mm 0.00 in0.0 mm 0.12 in3.0 mm
06:29 PM 32.4°F0.2°C 11.4°F-11.4°C 41% 4.7 mph NNE7.6 kmh NNE 12.5 mph20.1 kmh 30.24 in1024.0 mb 0.00 in0.0 mm 0.00 in0.0 mm 0.12 in3.0 mm
06:30 PM 32.4°F0.2°C 11.9°F-11.2°C 42% 8.3 mph WNW13.4 kmh WNW 12.5 mph20.1 kmh 30.24 in1024.0 mb 0.00 in0.0 mm 0.00 in0.0 mm 0.12 in3.0 mm
06:31 PM 32.2°F0.1°C 11.7°F-11.3°C 42% 9.9 mph N15.9 kmh N 12.5 mph20.1 kmh 30.24 in1024.0 mb 0.00 in0.0 mm 0.00 in0.0 mm 0.12 in3.0 mm
06:32 PM 32.2°F0.1°C 11.2°F-11.6°C 41% 7.8 mph SW12.6 kmh SW 12.5 mph20.1 kmh 30.24 in1024.0 mb 0.00 in0.0 mm 0.00 in0.0 mm 0.12 in3.0 mm
06:33 PM 32.2°F0.1°C 11.7°F-11.3°C 42% 15.0 mph NNE24.1 kmh NNE 15.0 mph24.1 kmh 30.24 in1024.0 mb 0.00 in0.0 mm 0.00 in0.0 mm 0.12 in3.0 mm
06:34 PM 32.2°F0.1°C 11.7°F-11.3°C 42% 11.4 mph ENE18.3 kmh ENE 15.0 mph24.1 kmh 30.24 in1024.0 mb 0.00 in0.0 mm 0.00 in0.0 mm 0.12 in3.0 mm
06:35 PM 32.2°F0.1°C 11.7°F-11.3°C 42% 9.4 mph NNW15.1 kmh NNW 15.0 mph24.1 kmh 30.24 in1024.0 mb 0.00 in0.0 mm 0.00 in0.0 mm 0.12 in3.0 mm
06:36 PM 32.2°F0.1°C 11.2°F-11.6°C 41% 12.5 mph NNW20.1 kmh NNW 16.1 mph25.9 kmh 30.24 in1024.0 mb 0.00 in0.0 mm 0.00 in0.0 mm 0.12 in3.0 mm
06:37 PM 32.2°F0.1°C 11.2°F-11.6°C 41% 8.3 mph W13.4 kmh W 16.1 mph25.9 kmh 30.24 in1024.0 mb 0.00 in0.0 mm 0.00 in0.0 mm 0.12 in3.0 mm
06:38 PM 32.2°F0.1°C 11.2°F-11.6°C 41% 9.9 mph NNE15.9 kmh NNE 16.1 mph25.9 kmh 30.24 in1024.0 mb 0.00 in0.0 mm 0.00 in0.0 mm 0.12 in3.0 mm
06:39 PM 32.2°F0.1°C 11.2°F-11.6°C 41% 9.9 mph N15.9 kmh N 16.1 mph25.9 kmh 30.24 in1024.0 mb 0.00 in0.0 mm 0.00 in0.0 mm 0.12 in3.0 mm
06:40 PM 32.2°F0.1°C 11.2°F-11.6°C 41% 7.8 mph WNW12.6 kmh WNW 16.1 mph25.9 kmh 30.24 in1024.0 mb 0.00 in0.0 mm 0.00 in0.0 mm 0.12 in3.0 mm
06:41 PM 32.2°F0.1°C 11.2°F-11.6°C 41% 10.9 mph WSW17.5 kmh WSW 16.1 mph25.9 kmh 30.26 in1024.7 mb 0.00 in0.0 mm 0.00 in0.0 mm 0.12 in3.0 mm
06:42 PM 32.2°F0.1°C 10.6°F-11.9°C 40% 9.9 mph NW15.9 kmh NW 16.1 mph25.9 kmh 30.26 in1024.7 mb 0.00 in0.0 mm 0.00 in0.0 mm 0.12 in3.0 mm
06:43 PM 32.2°F0.1°C 10.6°F-11.9°C 40% 10.9 mph NNW17.5 kmh NNW 16.1 mph25.9 kmh 30.26 in1024.7 mb 0.00 in0.0 mm 0.00 in0.0 mm 0.12 in3.0 mm
06:44 PM 32.2°F0.1°C 10.6°F-11.9°C 40% 10.4 mph N16.7 kmh N 16.1 mph25.9 kmh 30.26 in1024.7 mb 0.00 in0.0 mm 0.00 in0.0 mm 0.12 in3.0 mm
06:45 PM 32.2°F0.1°C 10.6°F-11.9°C 40% 6.3 mph NW10.1 kmh NW 16.1 mph25.9 kmh 30.26 in1024.7 mb 0.00 in0.0 mm 0.00 in0.0 mm 0.12 in3.0 mm
06:46 PM 32.0°F0.0°C 11.5°F-11.4°C 42% 9.9 mph N15.9 kmh N 14.0 mph22.5 kmh 30.26 in1024.7 mb 0.00 in0.0 mm 0.00 in0.0 mm 0.12 in3.0 mm
06:47 PM 31.8°F-0.1°C 11.4°F-11.4°C 42% 6.3 mph NW10.1 kmh NW 14.0 mph22.5 kmh 30.26 in1024.7 mb 0.00 in0.0 mm 0.00 in0.0 mm 0.12 in3.0 mm
06:48 PM 31.8°F-0.1°C 11.4°F-11.4°C 42% 8.3 mph N13.4 kmh N 14.0 mph22.5 kmh 30.26 in1024.7 mb 0.00 in0.0 mm 0.00 in0.0 mm 0.12 in3.0 mm
06:49 PM 31.8°F-0.1°C 11.9°F-11.2°C 43% 6.3 mph NNE10.1 kmh NNE 14.0 mph22.5 kmh 30.26 in1024.7 mb 0.00 in0.0 mm 0.00 in0.0 mm 0.12 in3.0 mm
06:50 PM 31.6°F-0.2°C 11.7°F-11.3°C 43% 5.8 mph NNE9.3 kmh NNE 14.0 mph22.5 kmh 30.26 in1024.7 mb 0.00 in0.0 mm 0.00 in0.0 mm 0.12 in3.0 mm
06:51 PM 31.6°F-0.2°C 11.7°F-11.3°C 43% 4.7 mph NNE7.6 kmh NNE 14.0 mph22.5 kmh 30.26 in1024.7 mb 0.00 in0.0 mm 0.00 in0.0 mm 0.12 in3.0 mm
06:52 PM 31.6°F-0.2°C 11.7°F-11.3°C 43% 8.3 mph W13.4 kmh W 14.0 mph22.5 kmh 30.26 in1024.7 mb 0.00 in0.0 mm 0.00 in0.0 mm 0.12 in3.0 mm
06:53 PM 31.6°F-0.2°C 11.7°F-11.3°C 43% 8.3 mph NNW13.4 kmh NNW 14.0 mph22.5 kmh 30.26 in1024.7 mb 0.00 in0.0 mm 0.00 in0.0 mm 0.12 in3.0 mm
06:54 PM 31.6°F-0.2°C 11.7°F-11.3°C 43% 14.0 mph NNW22.5 kmh NNW 14.0 mph22.5 kmh 30.26 in1024.7 mb 0.00 in0.0 mm 0.00 in0.0 mm 0.12 in3.0 mm
06:55 PM 31.6°F-0.2°C 11.7°F-11.3°C 43% 9.4 mph N15.1 kmh N 14.0 mph22.5 kmh 30.26 in1024.7 mb 0.00 in0.0 mm 0.00 in0.0 mm 0.12 in3.0 mm
06:56 PM 31.6°F-0.2°C 11.2°F-11.6°C 42% 13.0 mph N20.9 kmh N 14.0 mph22.5 kmh 30.26 in1024.7 mb 0.00 in0.0 mm 0.00 in0.0 mm 0.12 in3.0 mm
06:57 PM 31.6°F-0.2°C 11.2°F-11.6°C 42% 7.8 mph N12.6 kmh N 14.0 mph22.5 kmh 30.26 in1024.7 mb 0.00 in0.0 mm 0.00 in0.0 mm 0.12 in3.0 mm
06:58 PM 31.5°F-0.3°C 11.1°F-11.6°C 42% 7.8 mph NNE12.6 kmh NNE 14.0 mph22.5 kmh 30.26 in1024.7 mb 0.00 in0.0 mm 0.00 in0.0 mm 0.12 in3.0 mm
06:59 PM 31.5°F-0.3°C 11.1°F-11.6°C 42% 11.4 mph NNE18.3 kmh NNE 14.0 mph22.5 kmh 30.26 in1024.7 mb 0.00 in0.0 mm 0.00 in0.0 mm 0.12 in3.0 mm
07:00 PM 31.5°F-0.3°C 11.1°F-11.6°C 42% 6.3 mph WNW10.1 kmh WNW 14.0 mph22.5 kmh 30.26 in1024.7 mb 0.00 in0.0 mm 0.00 in0.0 mm 0.12 in3.0 mm
07:01 PM 31.3°F-0.4°C 10.9°F-11.7°C 42% 9.9 mph N15.9 kmh N 14.0 mph22.5 kmh 30.26 in1024.7 mb 0.00 in0.0 mm 0.00 in0.0 mm 0.12 in3.0 mm
07:02 PM 31.3°F-0.4°C 10.9°F-11.7°C 42% 11.4 mph NNW18.3 kmh NNW 14.0 mph22.5 kmh 30.26 in1024.7 mb 0.00 in0.0 mm 0.00 in0.0 mm 0.12 in3.0 mm
07:03 PM 31.3°F-0.4°C 10.9°F-11.7°C 42% 10.4 mph NNW16.7 kmh NNW 15.0 mph24.1 kmh 30.26 in1024.7 mb 0.00 in0.0 mm 0.00 in0.0 mm 0.12 in3.0 mm
07:04 PM 31.3°F-0.4°C 10.9°F-11.7°C 42% 5.8 mph NNE9.3 kmh NNE 15.0 mph24.1 kmh 30.26 in1024.7 mb 0.00 in0.0 mm 0.00 in0.0 mm 0.12 in3.0 mm
07:05 PM 31.3°F-0.4°C 10.9°F-11.7°C 42% 5.3 mph NW8.5 kmh NW 15.0 mph24.1 kmh 30.27 in1025.1 mb 0.00 in0.0 mm 0.00 in0.0 mm 0.12 in3.0 mm
07:06 PM 31.3°F-0.4°C 10.9°F-11.7°C 42% 10.4 mph NNW16.7 kmh NNW 15.0 mph24.1 kmh 30.27 in1025.1 mb 0.00 in0.0 mm 0.00 in0.0 mm 0.12 in3.0 mm
07:07 PM 31.3°F-0.4°C 10.9°F-11.7°C 42% 7.3 mph WNW11.7 kmh WNW 15.0 mph24.1 kmh 30.27 in1025.1 mb 0.00 in0.0 mm 0.00 in0.0 mm 0.12 in3.0 mm
07:08 PM 31.3°F-0.4°C 10.9°F-11.7°C 42% 7.8 mph NNE12.6 kmh NNE 15.0 mph24.1 kmh 30.27 in1025.1 mb 0.00 in0.0 mm 0.00 in0.0 mm 0.12 in3.0 mm
07:09 PM 31.1°F-0.5°C 10.7°F-11.8°C 42% 7.8 mph SW12.6 kmh SW 15.0 mph24.1 kmh 30.27 in1025.1 mb 0.00 in0.0 mm 0.00 in0.0 mm 0.12 in3.0 mm
07:10 PM 31.1°F-0.5°C 10.2°F-12.1°C 41% 8.3 mph NNE13.4 kmh NNE 15.0 mph24.1 kmh 30.27 in1025.1 mb 0.00 in0.0 mm 0.00 in0.0 mm 0.12 in3.0 mm
07:11 PM 31.1°F-0.5°C 10.2°F-12.1°C 41% 6.3 mph W10.1 kmh W 15.0 mph24.1 kmh 30.27 in1025.1 mb 0.00 in0.0 mm 0.00 in0.0 mm 0.12 in3.0 mm
07:12 PM 31.1°F-0.5°C 10.7°F-11.8°C 42% 6.8 mph W10.9 kmh W 15.0 mph24.1 kmh 30.27 in1025.1 mb 0.00 in0.0 mm 0.00 in0.0 mm 0.12 in3.0 mm
07:13 PM 30.9°F-0.6°C 10.5°F-11.9°C 42% 6.8 mph NNE10.9 kmh NNE 14.5 mph23.3 kmh 30.27 in1025.1 mb 0.00 in0.0 mm 0.00 in0.0 mm 0.12 in3.0 mm
07:14 PM 30.9°F-0.6°C 10.5°F-11.9°C 42% 10.4 mph WSW16.7 kmh WSW 14.5 mph23.3 kmh 30.27 in1025.1 mb 0.00 in0.0 mm 0.00 in0.0 mm 0.12 in3.0 mm
07:15 PM 30.9°F-0.6°C 11.1°F-11.6°C 43% 5.3 mph W8.5 kmh W 14.5 mph23.3 kmh 30.27 in1025.1 mb 0.00 in0.0 mm 0.00 in0.0 mm 0.12 in3.0 mm
07:16 PM 30.9°F-0.6°C 11.1°F-11.6°C 43% 5.8 mph NNW9.3 kmh NNW 14.5 mph23.3 kmh 30.27 in1025.1 mb 0.00 in0.0 mm 0.00 in0.0 mm 0.12 in3.0 mm
07:17 PM 30.7°F-0.7°C 10.9°F-11.7°C 43% 4.7 mph NNW7.6 kmh NNW 14.5 mph23.3 kmh 30.28 in1025.4 mb 0.00 in0.0 mm 0.00 in0.0 mm 0.12 in3.0 mm
07:18 PM 30.7°F-0.7°C 10.9°F-11.7°C 43% 9.4 mph W15.1 kmh W 14.5 mph23.3 kmh 30.28 in1025.4 mb 0.00 in0.0 mm 0.00 in0.0 mm 0.12 in3.0 mm
07:19 PM 30.6°F-0.8°C 10.8°F-11.8°C 43% 9.9 mph W15.9 kmh W 11.9 mph19.2 kmh 30.28 in1025.4 mb 0.00 in0.0 mm 0.00 in0.0 mm 0.12 in3.0 mm
07:20 PM 30.6°F-0.8°C 10.8°F-11.8°C 43% 10.4 mph W16.7 kmh W 11.9 mph19.2 kmh 30.28 in1025.4 mb 0.00 in0.0 mm 0.00 in0.0 mm 0.12 in3.0 mm
07:21 PM 30.6°F-0.8°C 10.8°F-11.8°C 43% 8.3 mph NNE13.4 kmh NNE 11.9 mph19.2 kmh 30.28 in1025.4 mb 0.00 in0.0 mm 0.00 in0.0 mm 0.12 in3.0 mm
07:22 PM 30.6°F-0.8°C 10.8°F-11.8°C 43% 11.4 mph N18.3 kmh N 13.5 mph21.7 kmh 30.28 in1025.4 mb 0.00 in0.0 mm 0.00 in0.0 mm 0.12 in3.0 mm
07:23 PM 30.6°F-0.8°C 10.8°F-11.8°C 43% 8.3 mph N13.4 kmh N 13.5 mph21.7 kmh 30.28 in1025.4 mb 0.00 in0.0 mm 0.00 in0.0 mm 0.12 in3.0 mm
07:29 PM 30.6°F-0.8°C 10.8°F-11.8°C 43% 9.9 mph NNW15.9 kmh NNW 13.5 mph21.7 kmh 30.29 in1025.7 mb 0.00 in0.0 mm 0.00 in0.0 mm 0.12 in3.0 mm
07:30 PM 30.6°F-0.8°C 10.8°F-11.8°C 43% 7.8 mph W12.6 kmh W 13.5 mph21.7 kmh 30.29 in1025.7 mb 0.00 in0.0 mm 0.00 in0.0 mm 0.12 in3.0 mm
07:31 PM 30.6°F-0.8°C 10.8°F-11.8°C 43% 7.8 mph W12.6 kmh W 13.5 mph21.7 kmh 30.29 in1025.7 mb 0.00 in0.0 mm 0.00 in0.0 mm 0.12 in3.0 mm
07:32 PM 30.6°F-0.8°C 10.8°F-11.8°C 43% 8.3 mph NW13.4 kmh NW 10.4 mph16.7 kmh 30.29 in1025.7 mb 0.00 in0.0 mm 0.00 in0.0 mm 0.12 in3.0 mm
07:33 PM 30.4°F-0.9°C 10.6°F-11.9°C 43% 7.3 mph NW11.7 kmh NW 10.4 mph16.7 kmh 30.29 in1025.7 mb 0.00 in0.0 mm 0.00 in0.0 mm 0.12 in3.0 mm
07:41 PM 30.2°F-1.0°C 10.4°F-12.0°C 43% 8.9 mph NW14.3 kmh NW 10.4 mph16.7 kmh 30.29 in1025.7 mb 0.00 in0.0 mm 0.00 in0.0 mm 0.12 in3.0 mm
07:42 PM 30.2°F-1.0°C 10.4°F-12.0°C 43% 8.9 mph NW14.3 kmh NW 8.9 mph14.3 kmh 30.30 in1026.1 mb 0.00 in0.0 mm 0.00 in0.0 mm 0.12 in3.0 mm
07:48 PM 30.2°F-1.0°C 10.4°F-12.0°C 43% 14.0 mph N22.5 kmh N 14.0 mph22.5 kmh 30.30 in1026.1 mb 0.00 in0.0 mm 0.00 in0.0 mm 0.12 in3.0 mm
07:49 PM 30.2°F-1.0°C 9.9°F-12.3°C 42% 7.8 mph N12.6 kmh N 15.0 mph24.1 kmh 30.30 in1026.1 mb 0.00 in0.0 mm 0.00 in0.0 mm 0.12 in3.0 mm
07:50 PM 30.2°F-1.0°C 9.9°F-12.3°C 42% 10.9 mph N17.5 kmh N 15.0 mph24.1 kmh 30.30 in1026.1 mb 0.00 in0.0 mm 0.00 in0.0 mm 0.12 in3.0 mm
07:51 PM 30.0°F-1.1°C 10.2°F-12.1°C 43% 9.4 mph N15.1 kmh N 15.0 mph24.1 kmh 30.30 in1026.1 mb 0.00 in0.0 mm 0.00 in0.0 mm 0.12 in3.0 mm
07:52 PM 30.0°F-1.1°C 10.2°F-12.1°C 43% 9.9 mph NW15.9 kmh NW 15.0 mph24.1 kmh 30.29 in1025.7 mb 0.00 in0.0 mm 0.00 in0.0 mm 0.12 in3.0 mm
07:53 PM 30.0°F-1.1°C 10.2°F-12.1°C 43% 9.9 mph NW15.9 kmh NW 15.0 mph24.1 kmh 30.29 in1025.7 mb 0.00 in0.0 mm 0.00 in0.0 mm 0.12 in3.0 mm
07:54 PM 29.8°F-1.2°C 10.1°F-12.2°C 43% 7.3 mph ESE11.7 kmh ESE 15.0 mph24.1 kmh 30.29 in1025.7 mb 0.00 in0.0 mm 0.00 in0.0 mm 0.12 in3.0 mm
07:55 PM 29.8°F-1.2°C 10.1°F-12.2°C 43% 5.3 mph N8.5 kmh N 15.0 mph24.1 kmh 30.29 in1025.7 mb 0.00 in0.0 mm 0.00 in0.0 mm 0.12 in3.0 mm
07:56 PM 29.8°F-1.2°C 10.6°F-11.9°C 44% 7.3 mph NNE11.7 kmh NNE 15.0 mph24.1 kmh 30.29 in1025.7 mb 0.00 in0.0 mm 0.00 in0.0 mm 0.12 in3.0 mm
07:57 PM 29.8°F-1.2°C 10.6°F-11.9°C 44% 7.3 mph N11.7 kmh N 15.0 mph24.1 kmh 30.29 in1025.7 mb 0.00 in0.0 mm 0.00 in0.0 mm 0.12 in3.0 mm
07:58 PM 29.8°F-1.2°C 10.6°F-11.9°C 44% 10.4 mph N16.7 kmh N 15.0 mph24.1 kmh 30.29 in1025.7 mb 0.00 in0.0 mm 0.00 in0.0 mm 0.12 in3.0 mm
07:59 PM 29.8°F-1.2°C 10.6°F-11.9°C 44% 9.9 mph N15.9 kmh N 10.9 mph17.5 kmh 30.29 in1025.7 mb 0.00 in0.0 mm 0.00 in0.0 mm 0.12 in3.0 mm
08:06 PM 29.8°F-1.2°C 10.6°F-11.9°C 44% 8.3 mph NNE13.4 kmh NNE 10.4 mph16.7 kmh 30.30 in1026.1 mb 0.00 in0.0 mm 0.00 in0.0 mm 0.12 in3.0 mm
08:07 PM 29.8°F-1.2°C 10.6°F-11.9°C 44% 8.3 mph NNE13.4 kmh NNE 10.4 mph16.7 kmh 30.30 in1026.1 mb 0.00 in0.0 mm 0.00 in0.0 mm 0.12 in3.0 mm
08:10 PM 29.8°F-1.2°C 10.6°F-11.9°C 44% 7.8 mph NNE12.6 kmh NNE 8.3 mph13.4 kmh 30.30 in1026.1 mb 0.00 in0.0 mm 0.00 in0.0 mm 0.12 in3.0 mm
08:11 PM 29.8°F-1.2°C 10.6°F-11.9°C 44% 4.7 mph NNW7.6 kmh NNW 8.3 mph13.4 kmh 30.30 in1026.1 mb 0.00 in0.0 mm 0.00 in0.0 mm 0.12 in3.0 mm
08:16 PM 29.8°F-1.2°C 10.6°F-11.9°C 44% 8.3 mph NNW13.4 kmh NNW 8.3 mph13.4 kmh 30.30 in1026.1 mb 0.00 in0.0 mm 0.00 in0.0 mm 0.12 in3.0 mm
08:17 PM 29.3°F-1.5°C 10.6°F-11.9°C 45% 8.3 mph NNE13.4 kmh NNE 8.3 mph13.4 kmh 30.31 in1026.4 mb 0.00 in0.0 mm 0.00 in0.0 mm 0.12 in3.0 mm
08:19 PM 29.3°F-1.5°C 10.6°F-11.9°C 45% 5.8 mph N9.3 kmh N 8.3 mph13.4 kmh 30.31 in1026.4 mb 0.00 in0.0 mm 0.00 in0.0 mm 0.12 in3.0 mm
08:20 PM 29.1°F-1.6°C 11.4°F-11.4°C 47% 4.7 mph N7.6 kmh N 8.3 mph13.4 kmh 30.31 in1026.4 mb 0.00 in0.0 mm 0.00 in0.0 mm 0.12 in3.0 mm
08:21 PM 29.1°F-1.6°C 11.4°F-11.4°C 47% 7.3 mph NE11.7 kmh NE 8.3 mph13.4 kmh 30.31 in1026.4 mb 0.00 in0.0 mm 0.00 in0.0 mm 0.12 in3.0 mm
08:22 PM 29.1°F-1.6°C 11.4°F-11.4°C 47% 9.4 mph NE15.1 kmh NE 11.4 mph18.3 kmh 30.31 in1026.4 mb 0.00 in0.0 mm 0.00 in0.0 mm 0.12 in3.0 mm
08:23 PM 29.1°F-1.6°C 11.4°F-11.4°C 47% 6.8 mph NE10.9 kmh NE 11.4 mph18.3 kmh 30.31 in1026.4 mb 0.00 in0.0 mm 0.00 in0.0 mm 0.12 in3.0 mm
08:24 PM 29.1°F-1.6°C 11.4°F-11.4°C 47% 7.3 mph WNW11.7 kmh WNW 11.4 mph18.3 kmh 30.31 in1026.4 mb 0.00 in0.0 mm 0.00 in0.0 mm 0.12 in3.0 mm
08:25 PM 29.1°F-1.6°C 11.4°F-11.4°C 47% 7.8 mph NE12.6 kmh NE 11.4 mph18.3 kmh 30.31 in1026.4 mb 0.00 in0.0 mm 0.00 in0.0 mm 0.12 in3.0 mm
08:26 PM 29.1°F-1.6°C 11.4°F-11.4°C 47% 9.4 mph NE15.1 kmh NE 11.4 mph18.3 kmh 30.31 in1026.4 mb 0.00 in0.0 mm 0.00 in0.0 mm 0.12 in3.0 mm
08:27 PM 29.1°F-1.6°C 11.4°F-11.4°C 47% 5.3 mph W8.5 kmh W 11.4 mph18.3 kmh 30.31 in1026.4 mb 0.00 in0.0 mm 0.00 in0.0 mm 0.12 in3.0 mm
08:28 PM 29.1°F-1.6°C 11.4°F-11.4°C 47% 11.9 mph NNW19.2 kmh NNW 11.9 mph19.2 kmh 30.31 in1026.4 mb 0.00 in0.0 mm 0.00 in0.0 mm 0.12 in3.0 mm
08:29 PM 28.9°F-1.7°C 11.2°F-11.6°C 47% 7.8 mph NNE12.6 kmh NNE 11.9 mph19.2 kmh 30.31 in1026.4 mb 0.00 in0.0 mm 0.00 in0.0 mm 0.12 in3.0 mm
08:30 PM 28.9°F-1.7°C 11.2°F-11.6°C 47% 8.9 mph NW14.3 kmh NW 11.9 mph19.2 kmh 30.31 in1026.4 mb 0.00 in0.0 mm 0.00 in0.0 mm 0.12 in3.0 mm
08:31 PM 28.9°F-1.7°C 11.2°F-11.6°C 47% 6.8 mph N10.9 kmh N 11.9 mph19.2 kmh 30.31 in1026.4 mb 0.00 in0.0 mm 0.00 in0.0 mm 0.12 in3.0 mm
08:32 PM 28.9°F-1.7°C 11.2°F-11.6°C 47% 9.4 mph NW15.1 kmh NW 11.9 mph19.2 kmh 30.31 in1026.4 mb 0.00 in0.0 mm 0.00 in0.0 mm 0.12 in3.0 mm
08:33 PM 28.8°F-1.8°C 11.1°F-11.6°C 47% 6.3 mph NE10.1 kmh NE 11.9 mph19.2 kmh 30.31 in1026.4 mb 0.00 in0.0 mm 0.00 in0.0 mm 0.12 in3.0 mm
08:34 PM 28.8°F-1.8°C 11.1°F-11.6°C 47% 8.3 mph NE13.4 kmh NE 11.9 mph19.2 kmh 30.31 in1026.4 mb 0.00 in0.0 mm 0.00 in0.0 mm 0.12 in3.0 mm
08:35 PM 28.8°F-1.8°C 10.7°F-11.8°C 46% 11.4 mph NNE18.3 kmh NNE 11.9 mph19.2 kmh 30.31 in1026.4 mb 0.00 in0.0 mm 0.00 in0.0 mm 0.12 in3.0 mm
08:36 PM 28.8°F-1.8°C 10.7°F-11.8°C 46% 8.9 mph NE14.3 kmh NE 11.9 mph19.2 kmh 30.31 in1026.4 mb 0.00 in0.0 mm 0.00 in0.0 mm 0.12 in3.0 mm
08:37 PM 28.8°F-1.8°C 10.7°F-11.8°C 46% 7.8 mph NNE12.6 kmh NNE 11.9 mph19.2 kmh 30.31 in1026.4 mb 0.00 in0.0 mm 0.00 in0.0 mm 0.12 in3.0 mm
08:38 PM 28.6°F-1.9°C 11.4°F-11.4°C 48% 11.4 mph N18.3 kmh N 11.9 mph19.2 kmh 30.31 in1026.4 mb 0.00 in0.0 mm 0.00 in0.0 mm 0.12 in3.0 mm
08:39 PM 28.6°F-1.9°C 10.5°F-11.9°C 46% 7.8 mph NNE12.6 kmh NNE 11.9 mph19.2 kmh 30.31 in1026.4 mb 0.00 in0.0 mm 0.00 in0.0 mm 0.12 in3.0 mm
08:40 PM 28.6°F-1.9°C 10.5°F-11.9°C 46% 9.4 mph NE15.1 kmh NE 13.5 mph21.7 kmh 30.31 in1026.4 mb 0.00 in0.0 mm 0.00 in0.0 mm 0.12 in3.0 mm
08:41 PM 28.6°F-1.9°C 10.5°F-11.9°C 46% 7.8 mph NNW12.6 kmh NNW 13.5 mph21.7 kmh 30.32 in1026.8 mb 0.00 in0.0 mm 0.00 in0.0 mm 0.12 in3.0 mm
08:42 PM 28.6°F-1.9°C 10.5°F-11.9°C 46% 6.8 mph WNW10.9 kmh WNW 13.5 mph21.7 kmh 30.32 in1026.8 mb 0.00 in0.0 mm 0.00 in0.0 mm 0.12 in3.0 mm
08:43 PM 28.6°F-1.9°C 11.0°F-11.7°C 47% 8.9 mph NNE14.3 kmh NNE 13.5 mph21.7 kmh 30.32 in1026.8 mb 0.00 in0.0 mm 0.00 in0.0 mm 0.12 in3.0 mm
08:44 PM 28.4°F-2.0°C 10.8°F-11.8°C 47% 8.9 mph N14.3 kmh N 13.5 mph21.7 kmh 30.32 in1026.8 mb 0.00 in0.0 mm 0.00 in0.0 mm 0.12 in3.0 mm
08:45 PM 28.4°F-2.0°C 10.8°F-11.8°C 47% 6.8 mph NNE10.9 kmh NNE 13.5 mph21.7 kmh 30.32 in1026.8 mb 0.00 in0.0 mm 0.00 in0.0 mm 0.12 in3.0 mm
08:46 PM 28.4°F-2.0°C 10.8°F-11.8°C 47% 8.9 mph WNW14.3 kmh WNW 13.5 mph21.7 kmh 30.32 in1026.8 mb 0.00 in0.0 mm 0.00